BY186 / G-TUIB 7700 Squawk Report (8th of December, 2021)

Aircraft B788 Reg No. G-TUIB Age 8 years old
Model 787 Jet engines 2 First flight 03-05-13
Registered 02-10-17 Rollout N/A Delivered 31-05-13
Construction No. 34423 Line No. 0094 Series 8
ADSHEX 4067F6 Airline name TUI Airways Owner TUI AG
Airfield based Luton~Beds~G First tracked N/A
Time Lat Lon Altitude Heading Speed Vertical Rate
2021-12-08 09:55:38 GMT 53.363400 -2.283076 0 317 10
2021-12-08 09:55:06 GMT 53.362301 -2.281233 0 317 14
2021-12-08 09:54:57 GMT 53.361843 -2.280467 0 317 17
2021-12-08 09:54:46 GMT 53.361317 -2.279565 0 317 15
2021-12-08 09:54:33 GMT 53.360710 -2.278564 0 337 13
2021-12-08 09:54:18 GMT 53.359909 -2.278330 0 8 14
2021-12-08 09:54:02 GMT 53.358891 -2.278506 0 8 13
2021-12-08 09:54:01 GMT 53.358833 -2.278506 0 8 13
2021-12-08 09:53:54 GMT 53.358383 -2.278593 0 8 13
2021-12-08 09:53:40 GMT 53.357643 -2.278702 0 8 12
2021-12-08 09:53:34 GMT 53.357315 -2.278774 0 8 12
2021-12-08 09:53:27 GMT 53.356941 -2.278835 0 5 12
2021-12-08 09:53:19 GMT 53.356522 -2.278898 0 22 11
2021-12-08 09:53:03 GMT 53.355961 -2.279604 0 56 12
2021-12-08 09:52:59 GMT 53.355869 -2.279800 0 53 13
2021-12-08 09:52:57 GMT 53.355778 -2.279997 0 53 13
2021-12-08 09:52:43 GMT 53.355274 -2.280899 0 39 13
2021-12-08 09:52:23 GMT 53.354092 -2.281642 0 11 14
2021-12-08 09:52:19 GMT 53.353844 -2.281684 0 14 14
2021-12-08 09:52:13 GMT 53.353451 -2.281844 0 22 14
We lost coverage of the aircraft here for a total of 7 minutes
2021-12-08 09:45:33 GMT 53.350307 -2.287177 0 45 8 0
2021-12-08 09:45:23 GMT 53.349987 -2.287589 0 354 10 0
2021-12-08 09:45:06 GMT 53.349426 -2.286961 0 275 11 0
2021-12-08 09:45:02 GMT 53.349415 -2.286569 0 264 13 0
2021-12-08 09:44:46 GMT 53.349655 -2.284470 0 255 24 0
2021-12-08 09:44:42 GMT 53.349804 -2.283744 0 250 24 0
2021-12-08 09:44:33 GMT 53.350239 -2.282288 0 239 25 0
2021-12-08 09:44:23 GMT 53.351097 -2.280431 0 233 41 0
2021-12-08 09:44:11 GMT 53.352821 -2.276876 0 233 64 0
2021-12-08 09:43:59 GMT 53.355381 -2.271504 1,175 232 93 -128
2021-12-08 09:43:56 GMT 53.356476 -2.269305 1,125 231 109 -128
2021-12-08 09:43:51 GMT 53.357849 -2.266479 1,125 232 125 -128
2021-12-08 09:43:46 GMT 53.359943 -2.262133 1,175 232 134 -256
2021-12-08 09:43:43 GMT 53.361248 -2.259387 1,200 232 135 -640
2021-12-08 09:43:36 GMT 53.363892 -2.253924 1,300 231 134 -640
2021-12-08 09:43:33 GMT 53.365494 -2.250706 1,325 231 134 -640
2021-12-08 09:43:25 GMT 53.368286 -2.244899 1,425 232 133 -768
2021-12-08 09:43:22 GMT 53.369293 -2.242780 1,450 232 133 -640
2021-12-08 09:43:18 GMT 53.371021 -2.239191 1,525 231 131 -896
2021-12-08 09:43:15 GMT 53.371811 -2.237523 1,575 231 131 -768
2021-12-08 09:43:12 GMT 53.373074 -2.234910 1,600 231 128 -896
2021-12-08 09:43:06 GMT 53.375538 -2.229821 1,650 231 126 -832
2021-12-08 09:43:02 GMT 53.376938 -2.226913 1,725 233 126 -768
2021-12-08 09:42:58 GMT 53.378403 -2.223790 1,775 232 125 -768
2021-12-08 09:42:55 GMT 53.379456 -2.221514 1,825 231 125 -704
2021-12-08 09:42:52 GMT 53.380474 -2.219481 1,850 231 125 -832
2021-12-08 09:42:48 GMT 53.382019 -2.216256 1,900 231 124 -768
2021-12-08 09:42:47 GMT 53.382614 -2.215079 1,925 231 125 -512
2021-12-08 09:42:44 GMT 53.383530 -2.213274 1,950 232 125 -576
2021-12-08 09:42:40 GMT 53.385082 -2.210029 1,975 232 125 -640
2021-12-08 09:42:37 GMT 53.385818 -2.208409 2,000 232 125 -640
2021-12-08 09:42:36 GMT 53.386387 -2.207283 2,025 232 124 -640
2021-12-08 09:42:33 GMT 53.387920 -2.204132 2,075 232 124 -896
2021-12-08 09:42:30 GMT 53.388290 -2.203308 2,075 232 124 -704
2021-12-08 09:42:27 GMT 53.389412 -2.200982 2,175 231 124 -832
2021-12-08 09:42:24 GMT 53.390808 -2.198154 2,175 232 125 -640
2021-12-08 09:42:21 GMT 53.391647 -2.196458 2,275 232 124 -768
2021-12-08 09:42:18 GMT 53.393280 -2.193107 2,275 232 124 -768
2021-12-08 09:42:15 GMT 53.394020 -2.191530 2,275 232 123 -768
2021-12-08 09:42:12 GMT 53.396255 -2.186829 2,375 231 122 -640
2021-12-08 09:42:09 GMT 53.396255 -2.186829 2,375 231 122 -640
2021-12-08 09:42:06 GMT 53.397606 -2.184098 2,375 231 122 -640
2021-12-08 09:42:02 GMT 53.398682 -2.181806 2,400 232 121 -1024
2021-12-08 09:41:58 GMT 53.401108 -2.176784 2,450 231 122 -768
2021-12-08 09:41:55 GMT 53.401108 -2.176784 2,550 232 122 -704
2021-12-08 09:41:52 GMT 53.402214 -2.174485 2,550 232 122 -704
2021-12-08 09:41:49 GMT 53.403145 -2.172546 2,600 232 123 -640
2021-12-08 09:41:46 GMT 53.404633 -2.169564 2,675 232 120 -576
2021-12-08 09:41:43 GMT 53.405319 -2.168073 2,675 232 120 -576
2021-12-08 09:41:40 GMT 53.406544 -2.165518 2,675 232 120 -576
2021-12-08 09:41:37 GMT 53.408077 -2.162287 2,700 232 120 -576
2021-12-08 09:41:35 GMT 53.408077 -2.162287 2,750 232 121 -576
2021-12-08 09:41:32 GMT 53.409302 -2.159755 2,750 232 121 -576
2021-12-08 09:41:30 GMT 53.410034 -2.158343 2,775 232 120 -576
2021-12-08 09:41:27 GMT 53.411152 -2.155905 2,800 231 121 -768
2021-12-08 09:41:25 GMT 53.411758 -2.154774 2,925 232 121 -896
2021-12-08 09:41:21 GMT 53.413059 -2.151947 2,925 232 121 -896
2021-12-08 09:41:17 GMT 53.414597 -2.148797 2,925 232 121 -896
2021-12-08 09:41:16 GMT 53.415249 -2.147423 2,975 232 122 -704
2021-12-08 09:41:14 GMT 53.415573 -2.146696 2,975 232 121 -768
2021-12-08 09:41:13 GMT 53.415985 -2.145865 2,975 232 121 -704
2021-12-08 09:41:12 GMT 53.416321 -2.145242 3,000 231 122 -768
2021-12-08 09:41:11 GMT 53.416645 -2.144515 3,025 231 122 -768
2021-12-08 09:41:08 GMT 53.417816 -2.142020 3,050 231 122 -640
2021-12-08 09:41:06 GMT 53.418549 -2.140608 3,075 231 122 -640
2021-12-08 09:41:05 GMT 53.418880 -2.139911 3,075 231 122 -704
2021-12-08 09:41:04 GMT 53.419189 -2.139274 3,100 231 122 -768
2021-12-08 09:41:03 GMT 53.419556 -2.138567 3,100 231 122 -768
2021-12-08 09:41:02 GMT 53.419922 -2.137783 3,100 232 121 -640
2021-12-08 09:41:01 GMT 53.420609 -2.136292 3,125 232 120 -640
2021-12-08 09:40:59 GMT 53.420975 -2.135585 3,150 232 120 -640
2021-12-08 09:40:56 GMT 53.421810 -2.133771 3,175 231 120 -640
2021-12-08 09:40:55 GMT 53.423401 -2.130563 3,250 232 119 -704
2021-12-08 09:40:52 GMT 53.423401 -2.130563 3,250 232 118 -640
2021-12-08 09:40:49 GMT 53.424885 -2.127470 3,275 232 118 -832
2021-12-08 09:40:46 GMT 53.425442 -2.126258 3,300 232 118 -768
2021-12-08 09:40:45 GMT 53.425629 -2.125854 3,300 232 118 -768
2021-12-08 09:40:44 GMT 53.426239 -2.124599 3,350 232 119 -768
2021-12-08 09:40:42 GMT 53.427750 -2.121460 3,350 232 119 -576
2021-12-08 09:40:39 GMT 53.428711 -2.119420 3,400 232 120 -576
2021-12-08 09:40:37 GMT 53.429447 -2.117938 3,425 232 120 -640
2021-12-08 09:40:35 GMT 53.429447 -2.117938 3,425 231 120 -704
2021-12-08 09:40:33 GMT 53.430004 -2.116726 3,450 231 120 -704
2021-12-08 09:40:31 GMT 53.430817 -2.115104 3,450 232 120 -704
2021-12-08 09:40:29 GMT 53.431355 -2.113980 3,475 232 119 -704
2021-12-08 09:40:26 GMT 53.432327 -2.111886 3,500 232 119 -768
2021-12-08 09:40:24 GMT 53.433243 -2.110003 3,550 232 119 -768
2021-12-08 09:40:23 GMT 53.433563 -2.109297 3,550 231 120 -704
2021-12-08 09:40:21 GMT 53.434101 -2.108244 3,575 231 120 -704
2021-12-08 09:40:20 GMT 53.434895 -2.106628 3,600 232 120 -576
2021-12-08 09:40:18 GMT 53.435440 -2.105530 3,625 232 120 -576
2021-12-08 09:40:17 GMT 53.435593 -2.105174 3,625 232 120 -576
2021-12-08 09:40:16 GMT 53.436127 -2.104117 3,625 232 120 -576
2021-12-08 09:40:14 GMT 53.436802 -2.102670 3,650 232 120 -576
2021-12-08 09:40:13 GMT 53.437180 -2.101920 3,675 232 119 -640
2021-12-08 09:40:12 GMT 53.437500 -2.101135 3,675 232 120 -704
2021-12-08 09:40:10 GMT 53.438187 -2.099723 3,700 232 119 -768
2021-12-08 09:40:08 GMT 53.438805 -2.098469 3,725 232 119 -768
2021-12-08 09:40:07 GMT 53.439129 -2.097742 3,725 232 119 -768
2021-12-08 09:40:06 GMT 53.439453 -2.097015 3,750 232 119 -768
2021-12-08 09:40:05 GMT 53.439880 -2.096270 3,750 232 120 -832
2021-12-08 09:40:02 GMT 53.440887 -2.094073 3,800 232 120 -768
2021-12-08 09:40:00 GMT 53.441410 -2.092976 3,825 232 120 -768
2021-12-08 09:39:58 GMT 53.442078 -2.091561 3,825 232 120 -704
2021-12-08 09:39:57 GMT 53.442619 -2.090472 3,850 231 121 -768
2021-12-08 09:39:56 GMT 53.442993 -2.089745 3,875 231 122 -704
2021-12-08 09:39:55 GMT 53.443314 -2.089129 3,875 232 121 -704
2021-12-08 09:39:54 GMT 53.443634 -2.088344 3,925 232 121 -704
2021-12-08 09:39:52 GMT 53.444504 -2.086618 3,925 232 121 -768
2021-12-08 09:39:51 GMT 53.444687 -2.086147 3,925 232 121 -704
2021-12-08 09:39:49 GMT 53.445507 -2.084494 3,950 232 120 -704
2021-12-08 09:39:47 GMT 53.445927 -2.083606 3,975 232 120 -704
2021-12-08 09:39:46 GMT 53.446518 -2.082380 4,000 232 119 -704
2021-12-08 09:39:45 GMT 53.446812 -2.081748 4,000 232 119 -704
2021-12-08 09:39:44 GMT 53.447159 -2.081046 4,000 232 119 -704
2021-12-08 09:39:43 GMT 53.447845 -2.079633 4,025 232 119 -704
2021-12-08 09:39:40 GMT 53.448532 -2.078112 4,050 232 118 -704
2021-12-08 09:39:38 GMT 53.449265 -2.076651 4,075 232 118 -576
2021-12-08 09:39:35 GMT 53.450226 -2.074611 4,100 232 118 -512
2021-12-08 09:39:34 GMT 53.450394 -2.074235 4,100 231 117 -576
2021-12-08 09:39:33 GMT 53.450954 -2.073104 4,125 231 117 -448
2021-12-08 09:39:31 GMT 53.452011 -2.070923 4,150 232 118 -320
2021-12-08 09:39:30 GMT 53.452011 -2.070923 4,150 232 116 -384
2021-12-08 09:39:29 GMT 53.452305 -2.070277 4,150 232 116 -384
2021-12-08 09:39:28 GMT 53.452675 -2.069550 4,150 232 116 -448
2021-12-08 09:39:26 GMT 53.453468 -2.067853 4,175 232 117 -448
2021-12-08 09:39:25 GMT 53.453793 -2.067207 4,175 232 116 -384
2021-12-08 09:39:24 GMT 53.453979 -2.066842 4,175 232 116 -384
2021-12-08 09:39:21 GMT 53.455673 -2.063311 4,200 232 116 -192
2021-12-08 09:39:19 GMT 53.455673 -2.063311 4,200 232 116 -192
2021-12-08 09:39:18 GMT 53.456085 -2.062448 4,200 232 116 -320
2021-12-08 09:39:17 GMT 53.456406 -2.061741 4,225 232 116 -320
2021-12-08 09:39:14 GMT 53.457092 -2.060329 4,225 232 116 -384
2021-12-08 09:39:13 GMT 53.457413 -2.059623 4,225 232 116 -320
2021-12-08 09:39:12 GMT 53.457703 -2.058967 4,250 232 116 -256
2021-12-08 09:39:11 GMT 53.458076 -2.058240 4,250 232 116 -256
2021-12-08 09:39:10 GMT 53.459427 -2.055385 4,250 232 116 -320
2021-12-08 09:39:08 GMT 53.459427 -2.055385 4,250 232 116 -448
2021-12-08 09:39:07 GMT 53.460217 -2.053716 4,275 232 116 -448
2021-12-08 09:39:04 GMT 53.460526 -2.053109 4,275 231 117 -320
2021-12-08 09:39:02 GMT 53.461258 -2.051540 4,300 231 117 -320
2021-12-08 09:39:01 GMT 53.461567 -2.050970 4,300 231 117 -256
2021-12-08 09:38:59 GMT 53.462494 -2.049029 4,300 232 119 -192
2021-12-08 09:38:58 GMT 53.462860 -2.048322 4,325 232 119 -192
2021-12-08 09:38:56 GMT 53.463428 -2.047092 4,325 232 119 -192
2021-12-08 09:38:54 GMT 53.464233 -2.045419 4,325 231 120 -256
2021-12-08 09:38:52 GMT 53.464733 -2.044346 4,325 231 120 -256
2021-12-08 09:38:51 GMT 53.465103 -2.043619 4,350 231 120 -192
2021-12-08 09:38:50 GMT 53.465431 -2.042892 4,350 232 119 -256
2021-12-08 09:38:49 GMT 53.466110 -2.041495 4,350 232 119 -320
2021-12-08 09:38:46 GMT 53.466705 -2.040240 4,350 232 118 -448
2021-12-08 09:38:45 GMT 53.467072 -2.039533 4,375 232 118 -384
2021-12-08 09:38:43 GMT 53.467758 -2.038042 4,375 232 118 -256
2021-12-08 09:38:42 GMT 53.468132 -2.037237 4,400 231 117 -384
2021-12-08 09:38:40 GMT 53.468857 -2.035767 4,400 231 117 -384
2021-12-08 09:38:37 GMT 53.469948 -2.033440 4,425 232 117 -320
2021-12-08 09:38:34 GMT 53.470825 -2.031686 4,425 232 117 -256
2021-12-08 09:38:33 GMT 53.471146 -2.030980 4,425 232 116 -320
2021-12-08 09:38:31 GMT 53.471764 -2.029563 4,450 232 118 -448
2021-12-08 09:38:30 GMT 53.472134 -2.028916 4,450 232 118 -448
2021-12-08 09:38:29 GMT 53.472462 -2.028189 4,450 232 120 -512
2021-12-08 09:38:27 GMT 53.473160 -2.026735 4,450 232 120 -512
2021-12-08 09:38:26 GMT 53.473995 -2.024958 4,475 231 122 -576
2021-12-08 09:38:25 GMT 53.473995 -2.024958 4,475 231 123 -576
2021-12-08 09:38:23 GMT 53.474743 -2.023504 4,500 232 124 -576
2021-12-08 09:38:22 GMT 53.475067 -2.022696 4,525 232 126 -576
2021-12-08 09:38:20 GMT 53.475632 -2.021563 4,525 232 126 -576
2021-12-08 09:38:18 GMT 53.476559 -2.019626 4,550 232 128 -512
2021-12-08 09:38:16 GMT 53.476959 -2.018816 4,575 232 130 -512
2021-12-08 09:38:14 GMT 53.477905 -2.016799 4,600 232 133 -512
2021-12-08 09:38:12 GMT 53.478607 -2.015426 4,600 232 133 -512
2021-12-08 09:38:10 GMT 53.480438 -2.011597 4,650 232 135 0
2021-12-08 09:38:07 GMT 53.480438 -2.011597 4,650 232 135 -384
2021-12-08 09:38:06 GMT 53.480988 -2.010420 4,650 232 135 -384
2021-12-08 09:38:04 GMT 53.481865 -2.008559 4,650 232 135 -448
2021-12-08 09:38:03 GMT 53.482315 -2.007673 4,675 232 136 -448
2021-12-08 09:38:02 GMT 53.482750 -2.006782 4,675 232 136 -384
2021-12-08 09:38:01 GMT 53.483093 -2.006025 4,700 232 136 -384
2021-12-08 09:38:00 GMT 53.483871 -2.004377 4,700 232 135 -384
2021-12-08 09:37:58 GMT 53.484238 -2.003632 4,725 232 137 -448
2021-12-08 09:37:55 GMT 53.485588 -2.000804 4,725 232 137 -448
2021-12-08 09:37:52 GMT 53.486893 -1.998099 4,750 232 138 -448
2021-12-08 09:37:49 GMT 53.487728 -1.996280 4,750 232 138 -512
2021-12-08 09:37:48 GMT 53.488174 -1.995353 4,775 232 139 -384
2021-12-08 09:37:46 GMT 53.489136 -1.993391 4,800 232 140 -384
2021-12-08 09:37:43 GMT 53.490280 -1.990958 4,800 232 141 -256
2021-12-08 09:37:42 GMT 53.490692 -1.990095 4,800 232 141 -256
2021-12-08 09:37:41 GMT 53.491081 -1.989333 4,800 231 142 -320
2021-12-08 09:37:39 GMT 53.491920 -1.987637 4,825 231 142 -448
2021-12-08 09:37:37 GMT 53.492706 -1.986014 4,825 231 143 -320
2021-12-08 09:37:34 GMT 53.494106 -1.983194 4,850 232 143 -192
2021-12-08 09:37:33 GMT 53.494526 -1.982305 4,850 232 142 -320
2021-12-08 09:37:32 GMT 53.494949 -1.981384 4,850 232 140 -448
2021-12-08 09:37:31 GMT 53.495773 -1.979658 4,875 232 140 -384
2021-12-08 09:37:29 GMT 53.496155 -1.978832 4,875 232 140 -384
2021-12-08 09:37:28 GMT 53.496597 -1.977931 4,900 232 138 -384
2021-12-08 09:37:26 GMT 53.497147 -1.976754 4,900 232 138 -384
2021-12-08 09:37:25 GMT 53.497696 -1.975577 4,900 233 138 -384
2021-12-08 09:37:24 GMT 53.498299 -1.974308 4,900 233 138 -384
2021-12-08 09:37:23 GMT 53.498657 -1.973537 4,900 233 137 -384
2021-12-08 09:37:22 GMT 53.498997 -1.972773 4,900 233 137 -384
2021-12-08 09:37:21 GMT 53.499367 -1.971965 4,925 233 137 -384
2021-12-08 09:37:20 GMT 53.499786 -1.971077 4,925 233 137 -320
2021-12-08 09:37:19 GMT 53.500214 -1.970163 4,925 233 138 -128
2021-12-08 09:37:16 GMT 53.501358 -1.967651 4,925 232 137 0
2021-12-08 09:37:14 GMT 53.501881 -1.966553 4,925 232 138 64
2021-12-08 09:37:13 GMT 53.502319 -1.965611 4,925 232 138 0
2021-12-08 09:37:12 GMT 53.502731 -1.964748 4,925 232 138 64
2021-12-08 09:37:11 GMT 53.503418 -1.963402 4,925 231 139 -128
2021-12-08 09:37:10 GMT 53.503742 -1.962675 4,925 232 138 -256
2021-12-08 09:37:09 GMT 53.504105 -1.961923 4,950 233 138 -128
2021-12-08 09:37:07 GMT 53.504768 -1.960494 4,950 233 138 -128
2021-12-08 09:37:06 GMT 53.505421 -1.959121 4,950 233 137 320
2021-12-08 09:37:03 GMT 53.507236 -1.955324 4,925 231 137 128
2021-12-08 09:37:01 GMT 53.507236 -1.955324 4,925 230 138 64
2021-12-08 09:37:00 GMT 53.507652 -1.954435 4,925 230 138 -64
2021-12-08 09:36:59 GMT 53.508026 -1.953628 4,925 230 138 -128
2021-12-08 09:36:56 GMT 53.509460 -1.951015 4,925 228 140 -64
2021-12-08 09:36:55 GMT 53.509655 -1.950558 4,925 223 144 0
2021-12-08 09:36:52 GMT 53.511108 -1.948190 4,925 223 144 0
2021-12-08 09:36:51 GMT 53.512299 -1.946385 4,925 220 146 -320
2021-12-08 09:36:49 GMT 53.512867 -1.945549 4,925 219 147 -256
2021-12-08 09:36:47 GMT 53.513847 -1.944338 4,950 217 150 192
2021-12-08 09:36:45 GMT 53.514961 -1.942964 4,950 213 151 256
2021-12-08 09:36:43 GMT 53.516174 -1.941672 4,925 207 154 192
2021-12-08 09:36:42 GMT 53.516777 -1.941106 4,925 207 154 192
2021-12-08 09:36:41 GMT 53.518082 -1.940056 4,925 202 157 -192
2021-12-08 09:36:38 GMT 53.519073 -1.939401 4,925 198 160 -256
2021-12-08 09:36:37 GMT 53.520218 -1.938773 4,950 193 162 0
2021-12-08 09:36:34 GMT 53.522366 -1.938037 4,950 187 164 192
2021-12-08 09:36:32 GMT 53.523926 -1.937596 4,925 186 164 384
2021-12-08 09:36:31 GMT 53.525345 -1.937390 4,950 184 166 -64
2021-12-08 09:36:29 GMT 53.526215 -1.937360 4,925 183 167 -192
2021-12-08 09:36:28 GMT 53.526993 -1.937282 4,925 183 167 -192
2021-12-08 09:36:26 GMT 53.528744 -1.937148 4,925 183 167 -256
2021-12-08 09:36:24 GMT 53.529602 -1.937125 4,950 182 168 -128
2021-12-08 09:36:23 GMT 53.531158 -1.937047 4,950 181 169 128
2021-12-08 09:36:22 GMT 53.531860 -1.937067 4,950 181 169 128
2021-12-08 09:36:20 GMT 53.533356 -1.937047 4,950 178 170 -64
2021-12-08 09:36:18 GMT 53.535049 -1.937047 4,950 178 170 -64
2021-12-08 09:36:17 GMT 53.535770 -1.937067 4,950 177 171 0
2021-12-08 09:36:16 GMT 53.536652 -1.937125 4,950 176 171 64
2021-12-08 09:36:13 GMT 53.538471 -1.937229 4,950 176 172 128
2021-12-08 09:36:12 GMT 53.539730 -1.937390 4,925 173 174 64
2021-12-08 09:36:11 GMT 53.540520 -1.937552 4,925 171 174 64
2021-12-08 09:36:08 GMT 53.542614 -1.938118 4,925 165 178 64
2021-12-08 09:36:06 GMT 53.543919 -1.938602 4,925 165 178 64
2021-12-08 09:36:05 GMT 53.544991 -1.939168 4,925 160 180 64
2021-12-08 09:36:04 GMT 53.545780 -1.939572 4,925 158 182 0
2021-12-08 09:36:03 GMT 53.546574 -1.940056 4,925 154 185 -128
2021-12-08 09:36:02 GMT 53.547363 -1.940703 4,925 154 185 -128
2021-12-08 09:36:00 GMT 53.548828 -1.941912 4,925 150 189 -128
2021-12-08 09:35:59 GMT 53.549644 -1.942722 4,925 147 191 -64
2021-12-08 09:35:58 GMT 53.550339 -1.943403 4,925 147 191 -64
2021-12-08 09:35:56 GMT 53.551460 -1.944580 4,925 144 193 -64
2021-12-08 09:35:55 GMT 53.553650 -1.947165 4,925 143 195 -64
2021-12-08 09:35:52 GMT 53.555092 -1.949023 4,925 142 195 -64
2021-12-08 09:35:51 GMT 53.555790 -1.949912 4,925 142 195 -64
2021-12-08 09:35:50 GMT 53.556152 -1.950387 4,950 141 196 0
2021-12-08 09:35:48 GMT 53.557930 -1.952739 4,950 140 196 0
2021-12-08 09:35:47 GMT 53.558628 -1.953708 4,950 138 198 -128
2021-12-08 09:35:45 GMT 53.559402 -1.954782 4,950 138 198 -128
2021-12-08 09:35:44 GMT 53.560722 -1.956697 4,950 135 199 64
2021-12-08 09:35:42 GMT 53.562103 -1.959019 4,950 132 201 128
2021-12-08 09:35:41 GMT 53.562744 -1.960118 4,950 127 202 0
2021-12-08 09:35:40 GMT 53.563286 -1.961140 4,950 127 202 0
2021-12-08 09:35:39 GMT 53.563610 -1.961948 4,950 127 202 0
2021-12-08 09:35:38 GMT 53.564960 -1.964937 4,925 120 204 0
2021-12-08 09:35:36 GMT 53.565399 -1.966160 4,950 120 204 0
2021-12-08 09:35:34 GMT 53.566086 -1.968122 4,950 118 205 0
2021-12-08 09:35:33 GMT 53.566544 -1.969703 4,950 116 206 0
2021-12-08 09:35:32 GMT 53.566822 -1.970511 4,950 111 207 64
2021-12-08 09:35:31 GMT 53.567230 -1.972203 4,925 109 208 64
2021-12-08 09:35:30 GMT 53.567566 -1.973823 4,925 106 209 0
2021-12-08 09:35:28 GMT 53.568172 -1.976974 4,925 102 210 -128
2021-12-08 09:35:27 GMT 53.568375 -1.978716 4,925 100 212 -128
2021-12-08 09:35:26 GMT 53.568558 -1.980286 4,925 98 213 -128
2021-12-08 09:35:25 GMT 53.568695 -1.981620 4,925 96 215 -128
2021-12-08 09:35:23 GMT 53.568962 -1.985133 4,925 94 216 -128
2021-12-08 09:35:22 GMT 53.569012 -1.986829 4,925 90 219 0
2021-12-08 09:35:21 GMT 53.569012 -1.988525 4,950 90 219 0
2021-12-08 09:35:20 GMT 53.568962 -1.990222 4,950 86 221 64
2021-12-08 09:35:18 GMT 53.568871 -1.993292 4,925 84 222 128
2021-12-08 09:35:17 GMT 53.568729 -1.995392 4,925 81 225 0
2021-12-08 09:35:15 GMT 53.568405 -1.999189 4,925 79 227 -128
2021-12-08 09:35:14 GMT 53.568031 -2.002662 4,925 78 228 -256
2021-12-08 09:35:12 GMT 53.567780 -2.004534 4,925 78 232 256
2021-12-08 09:35:11 GMT 53.567596 -2.006339 4,925 78 232 256
2021-12-08 09:35:09 GMT 53.567146 -2.009690 4,925 77 233 128
2021-12-08 09:35:06 GMT 53.566498 -2.015022 4,925 77 234 -64
2021-12-08 09:35:04 GMT 53.566032 -2.018576 4,925 77 234 64
2021-12-08 09:35:03 GMT 53.565750 -2.020677 4,925 77 234 64
2021-12-08 09:35:02 GMT 53.565628 -2.021563 4,925 77 235 192
2021-12-08 09:35:00 GMT 53.565262 -2.024388 4,925 77 235 192
2021-12-08 09:34:58 GMT 53.564774 -2.028189 4,925 77 235 -128
2021-12-08 09:34:57 GMT 53.564449 -2.030694 4,925 78 236 -256
2021-12-08 09:34:56 GMT 53.564346 -2.031529 4,925 78 236 -256
2021-12-08 09:34:55 GMT 53.564072 -2.033726 4,925 78 236 -64
2021-12-08 09:34:54 GMT 53.563843 -2.035531 4,950 78 236 -192
2021-12-08 09:34:53 GMT 53.563431 -2.039141 4,950 78 236 -64
2021-12-08 09:34:51 GMT 53.563202 -2.040867 4,950 78 236 192
2021-12-08 09:34:50 GMT 53.562973 -2.042751 4,925 78 237 192
2021-12-08 09:34:48 GMT 53.562332 -2.048165 4,950 78 238 0
2021-12-08 09:34:46 GMT 53.561890 -2.051939 4,925 79 238 64
2021-12-08 09:34:45 GMT 53.561691 -2.053580 4,925 79 238 64
2021-12-08 09:34:43 GMT 53.561237 -2.057432 4,925 79 238 64
2021-12-08 09:34:42 GMT 53.561096 -2.058886 4,925 79 239 -128
2021-12-08 09:34:41 GMT 53.560913 -2.060486 4,925 79 239 -448
2021-12-08 09:34:38 GMT 53.560307 -2.065753 4,950 79 239 64
2021-12-08 09:34:37 GMT 53.560135 -2.067392 4,950 79 239 128
2021-12-08 09:34:34 GMT 53.559631 -2.071786 4,925 79 238 128
2021-12-08 09:34:32 GMT 53.559265 -2.075474 4,925 80 239 -64
2021-12-08 09:34:31 GMT 53.559036 -2.077279 4,925 80 239 -64
2021-12-08 09:34:30 GMT 53.558807 -2.079869 4,925 80 239 -64
2021-12-08 09:34:28 GMT 53.558395 -2.083686 4,950 80 240 -128
2021-12-08 09:34:27 GMT 53.558121 -2.086461 4,950 80 240 -64
2021-12-08 09:34:25 GMT 53.557800 -2.089364 4,950 80 240 0
2021-12-08 09:34:24 GMT 53.557663 -2.091248 4,950 80 240 0
2021-12-08 09:34:23 GMT 53.557480 -2.092660 4,950 80 240 0
2021-12-08 09:34:21 GMT 53.557114 -2.096348 4,950 80 240 -128
2021-12-08 09:34:20 GMT 53.556931 -2.098232 4,950 80 240 -192
2021-12-08 09:34:19 GMT 53.556580 -2.101701 4,950 80 240 -192
2021-12-08 09:34:16 GMT 53.556061 -2.107021 4,950 80 240 -192
2021-12-08 09:34:15 GMT 53.555927 -2.108729 4,950 80 240 -256
2021-12-08 09:34:14 GMT 53.555740 -2.110395 4,950 80 240 -256
2021-12-08 09:34:12 GMT 53.555462 -2.113091 4,975 80 240 -320
2021-12-08 09:34:10 GMT 53.555008 -2.117693 4,975 80 240 -384
2021-12-08 09:34:09 GMT 53.554825 -2.119577 4,975 80 240 -448
2021-12-08 09:34:08 GMT 53.554531 -2.122300 5,000 80 240 -448
2021-12-08 09:34:06 GMT 53.554276 -2.125070 5,000 80 239 -512
2021-12-08 09:34:05 GMT 53.554092 -2.126875 5,000 80 239 -640
2021-12-08 09:34:04 GMT 53.553909 -2.128758 5,025 80 239 -704
2021-12-08 09:34:03 GMT 53.553772 -2.130171 5,025 80 239 -960
2021-12-08 09:34:02 GMT 53.553413 -2.133690 5,050 80 239 -1216
2021-12-08 09:34:00 GMT 53.553230 -2.135548 5,075 80 239 -1280
2021-12-08 09:33:59 GMT 53.553043 -2.137326 5,100 80 239 -1280
2021-12-08 09:33:58 GMT 53.552856 -2.139183 5,125 80 239 -1344
2021-12-08 09:33:57 GMT 53.552578 -2.141769 5,150 80 239 -1280
2021-12-08 09:33:55 GMT 53.552216 -2.145238 5,200 79 239 -1216
2021-12-08 09:33:54 GMT 53.552078 -2.146336 5,200 79 239 -1216
2021-12-08 09:33:52 GMT 53.551712 -2.149946 5,250 79 239 -1216
2021-12-08 09:33:51 GMT 53.551460 -2.152351 5,275 79 240 -1216
2021-12-08 09:33:50 GMT 53.550888 -2.157715 5,325 79 240 -1152
2021-12-08 09:33:48 GMT 53.550888 -2.157715 5,325 79 240 -1280
2021-12-08 09:33:46 GMT 53.550613 -2.160226 5,350 80 240 -1216
2021-12-08 09:33:45 GMT 53.550343 -2.163014 5,375 80 240 -1216
2021-12-08 09:33:44 GMT 53.550156 -2.164872 5,400 80 241 -1216
2021-12-08 09:33:42 GMT 53.549881 -2.167603 5,425 80 241 -1216
2021-12-08 09:33:41 GMT 53.549549 -2.170769 5,475 80 241 -1216
2021-12-08 09:33:39 GMT 53.549179 -2.174485 5,500 80 241 -1280
2021-12-08 09:33:37 GMT 53.548855 -2.177797 5,550 79 241 -1216
2021-12-08 09:33:35 GMT 53.548416 -2.181649 5,575 79 242 -1024
2021-12-08 09:33:33 GMT 53.548004 -2.185338 5,625 79 242 -1152
2021-12-08 09:33:32 GMT 53.547821 -2.187221 5,650 79 242 -1152
2021-12-08 09:33:31 GMT 53.547592 -2.189026 5,675 79 243 -1152
2021-12-08 09:33:29 GMT 53.547176 -2.192903 5,700 79 243 -960
2021-12-08 09:33:28 GMT 53.546989 -2.194438 5,725 79 243 -1024
2021-12-08 09:33:27 GMT 53.546768 -2.196481 5,750 79 243 -1024
2021-12-08 09:33:26 GMT 53.546494 -2.199071 5,775 79 243 -1280
2021-12-08 09:33:25 GMT 53.546387 -2.200012 5,775 79 243 -1280
2021-12-08 09:33:24 GMT 53.545921 -2.204455 5,825 79 243 -1280
2021-12-08 09:33:22 GMT 53.545670 -2.206447 5,850 79 243 -1152
2021-12-08 09:33:21 GMT 53.545532 -2.207938 5,875 79 243 -1152
2021-12-08 09:33:19 GMT 53.544891 -2.213510 5,925 79 243 -832
2021-12-08 09:33:17 GMT 53.544662 -2.215393 5,925 79 244 -512
2021-12-08 09:33:15 GMT 53.544250 -2.219081 5,950 79 244 -320
2021-12-08 09:33:14 GMT 53.544113 -2.220572 5,950 79 245 -192
2021-12-08 09:33:12 GMT 53.543701 -2.224339 5,950 80 247 320
2021-12-08 09:33:11 GMT 53.543499 -2.226024 5,950 80 247 256
2021-12-08 09:33:10 GMT 53.543312 -2.228286 5,950 80 247 192
2021-12-08 09:33:09 GMT 53.543125 -2.230225 5,950 80 247 128
2021-12-08 09:33:07 GMT 53.542740 -2.234227 5,950 81 246 -256
2021-12-08 09:33:06 GMT 53.542557 -2.236110 5,950 81 247 -64
2021-12-08 09:33:05 GMT 53.542381 -2.237818 5,950 81 247 -64
2021-12-08 09:33:04 GMT 53.542191 -2.239877 5,950 81 246 128
2021-12-08 09:33:03 GMT 53.541916 -2.243330 5,950 81 246 128
2021-12-08 09:33:01 GMT 53.541729 -2.245412 5,925 81 247 0
2021-12-08 09:32:59 GMT 53.541451 -2.248401 5,925 81 247 0
2021-12-08 09:32:58 GMT 53.541275 -2.250471 5,925 81 247 -64
2021-12-08 09:32:57 GMT 53.541126 -2.252197 5,925 81 247 -64
2021-12-08 09:32:55 GMT 53.540771 -2.256199 5,925 81 248 -64
2021-12-08 09:32:54 GMT 53.540634 -2.258083 5,925 81 248 -64
2021-12-08 09:32:53 GMT 53.540333 -2.261730 5,925 81 248 -128
2021-12-08 09:32:51 GMT 53.540176 -2.263419 5,925 81 248 -128
2021-12-08 09:32:50 GMT 53.539913 -2.266334 5,950 81 248 -64
2021-12-08 09:32:49 GMT 53.539776 -2.268192 5,950 81 248 64
2021-12-08 09:32:47 GMT 53.539490 -2.271109 5,950 81 248 128
2021-12-08 09:32:45 GMT 53.539215 -2.274091 5,925 81 248 128
2021-12-08 09:32:44 GMT 53.538937 -2.277724 5,925 81 248 -64
2021-12-08 09:32:43 GMT 53.538567 -2.281521 5,950 81 248 -128
2021-12-08 09:32:41 GMT 53.538437 -2.283273 5,950 81 248 -128
2021-12-08 09:32:39 GMT 53.538193 -2.286126 5,950 81 248 -128
2021-12-08 09:32:38 GMT 53.537727 -2.291134 5,950 81 248 -64
2021-12-08 09:32:35 GMT 53.537430 -2.294730 5,950 81 248 0
2021-12-08 09:32:34 GMT 53.537262 -2.296789 5,950 81 247 -64
2021-12-08 09:32:33 GMT 53.537075 -2.298728 5,950 81 247 -64
2021-12-08 09:32:31 GMT 53.536797 -2.302120 5,950 81 247 -192
2021-12-08 09:32:30 GMT 53.536655 -2.304059 5,950 82 247 -192
2021-12-08 09:32:29 GMT 53.536469 -2.305917 5,950 82 247 -192
2021-12-08 09:32:27 GMT 53.536144 -2.309714 5,950 82 247 -256
2021-12-08 09:32:26 GMT 53.535965 -2.311837 5,975 82 247 -256
2021-12-08 09:32:24 GMT 53.535736 -2.314898 5,975 81 247 -320
2021-12-08 09:32:23 GMT 53.535507 -2.317566 5,975 81 246 -320
2021-12-08 09:32:22 GMT 53.535355 -2.319246 5,975 81 245 -320
2021-12-08 09:32:21 GMT 53.535213 -2.321104 5,975 81 244 -512
2021-12-08 09:32:20 GMT 53.535049 -2.322824 6,000 81 244 -768
2021-12-08 09:32:18 GMT 53.534515 -2.329344 6,025 81 244 -1024
2021-12-08 09:32:16 GMT 53.534424 -2.330475 6,025 81 244 -1024
2021-12-08 09:32:15 GMT 53.534187 -2.333141 6,050 81 244 -1088
2021-12-08 09:32:14 GMT 53.534042 -2.334830 6,075 81 244 -1088
2021-12-08 09:32:12 GMT 53.533676 -2.338715 6,125 82 243 -1344
2021-12-08 09:32:10 GMT 53.533401 -2.342285 6,150 82 243 -1344
2021-12-08 09:32:08 GMT 53.533081 -2.346052 6,200 82 243 -1280
2021-12-08 09:32:07 GMT 53.532944 -2.347935 6,225 82 242 -1216
2021-12-08 09:32:05 GMT 53.532604 -2.351801 6,250 82 242 -1216
2021-12-08 09:32:04 GMT 53.532486 -2.353507 6,275 82 242 -1344
2021-12-08 09:32:03 GMT 53.532349 -2.355390 6,300 82 242 -1344
2021-12-08 09:32:01 GMT 53.532047 -2.358910 6,350 82 242 -1344
2021-12-08 09:31:59 GMT 53.531754 -2.362374 6,375 82 241 -1280
2021-12-08 09:31:58 GMT 53.531536 -2.364807 6,400 81 241 -1280
2021-12-08 09:31:57 GMT 53.531387 -2.366455 6,425 81 241 -1280
2021-12-08 09:31:56 GMT 53.531250 -2.368338 6,450 81 241 -1280
2021-12-08 09:31:55 GMT 53.531113 -2.370222 6,475 81 240 -1280
2021-12-08 09:31:53 GMT 53.530746 -2.374224 6,525 81 240 -1280
2021-12-08 09:31:52 GMT 53.530609 -2.375715 6,525 81 240 -1280
2021-12-08 09:31:50 GMT 53.530277 -2.379590 6,575 81 240 -1216
2021-12-08 09:31:48 GMT 53.529953 -2.383306 6,625 81 240 -1216
2021-12-08 09:31:47 GMT 53.529785 -2.385367 6,650 81 240 -1152
2021-12-08 09:31:46 GMT 53.529629 -2.387345 6,650 81 240 -1088
2021-12-08 09:31:44 GMT 53.529442 -2.389930 6,675 81 240 -1088
2021-12-08 09:31:43 GMT 53.529255 -2.391788 6,725 81 240 -960
2021-12-08 09:31:41 GMT 53.528976 -2.395504 6,725 81 240 -960
2021-12-08 09:31:39 GMT 53.528458 -2.401219 6,775 82 241 -832
2021-12-08 09:31:36 GMT 53.528275 -2.403809 6,825 82 241 -832
2021-12-08 09:31:34 GMT 53.527763 -2.409883 6,850 82 241 -896
2021-12-08 09:31:31 GMT 53.527439 -2.413599 6,875 82 241 -832
2021-12-08 09:31:30 GMT 53.527176 -2.417149 6,925 82 241 -704
2021-12-08 09:31:27 GMT 53.526810 -2.421622 6,925 82 241 -704
2021-12-08 09:31:25 GMT 53.526535 -2.424526 6,950 82 241 -576
2021-12-08 09:31:24 GMT 53.526260 -2.428292 6,975 82 241 -512
2021-12-08 09:31:22 GMT 53.526031 -2.430882 6,975 82 241 -384
2021-12-08 09:31:21 GMT 53.525902 -2.432502 7,000 82 241 -192
2021-12-08 09:31:20 GMT 53.525764 -2.434360 7,000 82 241 -128
2021-12-08 09:31:18 GMT 53.525482 -2.438076 7,000 82 241 0
2021-12-08 09:31:17 GMT 53.525299 -2.439934 7,000 82 241 -64
2021-12-08 09:31:16 GMT 53.525162 -2.442025 7,000 82 241 -64
2021-12-08 09:31:15 GMT 53.525017 -2.444054 7,000 82 241 -64
2021-12-08 09:31:13 GMT 53.524704 -2.447518 7,000 82 240 0
2021-12-08 09:31:11 GMT 53.524414 -2.451405 7,000 82 240 -64
2021-12-08 09:31:10 GMT 53.524292 -2.453090 7,000 82 240 -64
2021-12-08 09:31:08 GMT 53.524040 -2.456171 7,000 82 240 -64
2021-12-08 09:31:07 GMT 53.523853 -2.458029 7,000 82 239 64
2021-12-08 09:31:05 GMT 53.523575 -2.461745 7,000 82 239 -64
2021-12-08 09:31:04 GMT 53.523468 -2.463370 7,000 82 239 0
2021-12-08 09:31:02 GMT 53.523155 -2.467238 7,000 82 239 0
2021-12-08 09:31:01 GMT 53.522968 -2.469096 7,000 82 239 -64
2021-12-08 09:31:00 GMT 53.522781 -2.471453 7,000 82 239 -64
2021-12-08 09:30:59 GMT 53.522644 -2.473258 6,975 82 238 0
2021-12-08 09:30:57 GMT 53.522366 -2.476771 7,000 82 238 -64
2021-12-08 09:30:56 GMT 53.522224 -2.478629 7,000 82 238 0
2021-12-08 09:30:55 GMT 53.522049 -2.480634 7,000 82 238 0
2021-12-08 09:30:53 GMT 53.521774 -2.484323 7,000 82 238 -64
2021-12-08 09:30:52 GMT 53.521591 -2.486128 7,000 82 238 0
2021-12-08 09:30:51 GMT 53.521454 -2.487932 7,000 82 238 0
2021-12-08 09:30:50 GMT 53.521317 -2.489816 7,000 82 238 64
2021-12-08 09:30:49 GMT 53.521107 -2.491796 7,000 82 238 64
2021-12-08 09:30:47 GMT 53.520721 -2.496722 6,975 82 238 -64
2021-12-08 09:30:46 GMT 53.520721 -2.496722 6,975 82 238 -64
2021-12-08 09:30:45 GMT 53.520596 -2.498420 6,975 82 238 -64
2021-12-08 09:30:44 GMT 53.520447 -2.500017 6,975 82 238 0
2021-12-08 09:30:43 GMT 53.520271 -2.502055 7,000 82 238 -64
2021-12-08 09:30:41 GMT 53.519897 -2.506418 7,000 82 239 -64
2021-12-08 09:30:40 GMT 53.519756 -2.508276 7,000 81 239 -64
2021-12-08 09:30:39 GMT 53.519619 -2.510134 7,000 81 239 -64
2021-12-08 09:30:37 GMT 53.519291 -2.513769 7,000 81 239 0
2021-12-08 09:30:35 GMT 53.518967 -2.517485 7,000 81 240 0
2021-12-08 09:30:34 GMT 53.518845 -2.519165 7,000 81 240 64
2021-12-08 09:30:32 GMT 53.518547 -2.522655 6,975 81 240 64
2021-12-08 09:30:31 GMT 53.518223 -2.526694 6,975 81 240 -64
2021-12-08 09:30:29 GMT 53.518021 -2.528739 6,975 81 240 -64
2021-12-08 09:30:28 GMT 53.517895 -2.530410 7,000 81 240 -64
2021-12-08 09:30:27 GMT 53.517757 -2.532268 7,000 81 241 0
2021-12-08 09:30:25 GMT 53.517429 -2.535984 6,975 81 241 -64
2021-12-08 09:30:23 GMT 53.517105 -2.539882 7,000 81 241 0
2021-12-08 09:30:22 GMT 53.516922 -2.541687 7,000 81 242 -64
2021-12-08 09:30:21 GMT 53.516777 -2.543335 7,000 81 242 -64
2021-12-08 09:30:20 GMT 53.516464 -2.547259 7,000 81 242 -64
2021-12-08 09:30:18 GMT 53.516327 -2.549142 7,000 81 243 -64
2021-12-08 09:30:17 GMT 53.516174 -2.550848 7,000 81 243 -64
2021-12-08 09:30:16 GMT 53.516006 -2.552516 7,000 81 243 -64
2021-12-08 09:30:15 GMT 53.515709 -2.556098 7,000 81 244 -64
2021-12-08 09:30:12 GMT 53.515476 -2.559087 7,000 81 244 -64
2021-12-08 09:30:11 GMT 53.515228 -2.561855 7,000 81 245 64
2021-12-08 09:30:10 GMT 53.514824 -2.566196 7,000 81 245 -64
2021-12-08 09:30:08 GMT 53.514683 -2.568135 7,000 81 245 0
2021-12-08 09:30:07 GMT 53.514496 -2.569993 7,000 81 245 64
2021-12-08 09:30:05 GMT 53.513893 -2.577183 7,000 81 246 -64
2021-12-08 09:30:03 GMT 53.513893 -2.577183 7,000 81 246 -64
2021-12-08 09:30:01 GMT 53.513580 -2.580767 7,000 81 246 0
2021-12-08 09:30:00 GMT 53.513443 -2.582650 7,000 81 246 0
2021-12-08 09:29:58 GMT 53.512917 -2.588896 7,000 82 245 0
2021-12-08 09:29:56 GMT 53.512730 -2.590754 7,000 82 245 0
2021-12-08 09:29:55 GMT 53.512573 -2.592852 7,000 82 245 0
2021-12-08 09:29:54 GMT 53.512390 -2.594735 7,000 82 245 0
2021-12-08 09:29:52 GMT 53.512070 -2.598502 7,000 81 245 0
2021-12-08 09:29:51 GMT 53.511936 -2.600205 7,000 81 245 -64
2021-12-08 09:29:50 GMT 53.511799 -2.602063 7,000 82 245 0
2021-12-08 09:29:49 GMT 53.511703 -2.603194 7,000 82 245 0
2021-12-08 09:29:47 GMT 53.511292 -2.607919 7,000 82 245 0
2021-12-08 09:29:46 GMT 53.511154 -2.609802 7,000 82 245 0
2021-12-08 09:29:45 GMT 53.511005 -2.611515 7,000 82 245 0
2021-12-08 09:29:44 GMT 53.510494 -2.617089 7,000 82 244 0
2021-12-08 09:29:42 GMT 53.510494 -2.617089 7,000 82 244 0
2021-12-08 09:29:40 GMT 53.510284 -2.619925 7,000 82 244 0
2021-12-08 09:29:39 GMT 53.509827 -2.625575 7,000 82 244 0
2021-12-08 09:29:37 GMT 53.509827 -2.625575 7,000 82 244 64
2021-12-08 09:29:35 GMT 53.509472 -2.629529 7,000 82 244 64
2021-12-08 09:29:34 GMT 53.509331 -2.631387 7,000 82 244 64
2021-12-08 09:29:33 GMT 53.509186 -2.633423 6,975 82 245 0
2021-12-08 09:29:31 GMT 53.508865 -2.637042 6,975 82 245 -64
2021-12-08 09:29:29 GMT 53.508408 -2.642526 7,000 82 245 -64
2021-12-08 09:29:26 GMT 53.508026 -2.647220 7,000 82 245 -64
2021-12-08 09:29:25 GMT 53.507950 -2.648097 7,000 82 245 -64
2021-12-08 09:29:23 GMT 53.507607 -2.652471 6,975 82 246 -64
2021-12-08 09:29:22 GMT 53.507469 -2.654006 7,000 82 246 -64
2021-12-08 09:29:21 GMT 53.507309 -2.656023 6,975 82 246 -64
2021-12-08 09:29:20 GMT 53.507141 -2.658126 7,000 82 247 -64
2021-12-08 09:29:19 GMT 53.506989 -2.660261 7,000 82 247 -64
2021-12-08 09:29:18 GMT 53.506714 -2.663635 7,000 82 247 64
2021-12-08 09:29:16 GMT 53.506577 -2.665519 7,000 82 248 64
2021-12-08 09:29:15 GMT 53.506397 -2.667658 7,000 82 248 64
2021-12-08 09:29:14 GMT 53.506256 -2.669756 6,975 82 248 64
2021-12-08 09:29:12 GMT 53.505932 -2.673717 6,975 82 248 -64
2021-12-08 09:29:11 GMT 53.505840 -2.674848 6,975 82 248 -64
2021-12-08 09:29:10 GMT 53.505661 -2.676976 6,975 82 249 -64
2021-12-08 09:29:09 GMT 53.505524 -2.678938 6,975 82 249 -64
2021-12-08 09:29:08 GMT 53.505188 -2.682926 7,000 82 249 -64
2021-12-08 09:29:06 GMT 53.505066 -2.684666 7,000 82 249 0
2021-12-08 09:29:05 GMT 53.504883 -2.686942 7,000 82 249 -64
2021-12-08 09:29:04 GMT 53.504745 -2.688825 6,975 82 249 -64
2021-12-08 09:29:03 GMT 53.504471 -2.692278 7,000 82 249 -64
2021-12-08 09:29:01 GMT 53.504333 -2.694240 7,000 82 249 -64
2021-12-08 09:29:00 GMT 53.504150 -2.696123 7,000 82 248 -64
2021-12-08 09:28:59 GMT 53.503979 -2.698598 7,000 82 248 -64
2021-12-08 09:28:57 GMT 53.503693 -2.702244 7,000 82 248 -128
2021-12-08 09:28:56 GMT 53.503555 -2.704128 7,000 82 248 -64
2021-12-08 09:28:54 GMT 53.503372 -2.706191 7,000 82 248 -64
2021-12-08 09:28:53 GMT 53.503235 -2.708287 7,000 82 248 0
2021-12-08 09:28:52 GMT 53.503044 -2.710392 7,000 82 248 0
2021-12-08 09:28:51 GMT 53.502914 -2.712132 7,000 82 247 -64
2021-12-08 09:28:50 GMT 53.502640 -2.715899 7,000 82 247 -64
2021-12-08 09:28:48 GMT 53.502457 -2.717782 7,000 82 247 0
2021-12-08 09:28:47 GMT 53.502319 -2.719744 7,000 82 247 0
2021-12-08 09:28:46 GMT 53.502182 -2.721627 7,000 82 247 0
2021-12-08 09:28:45 GMT 53.502022 -2.723721 7,000 82 247 -64
2021-12-08 09:28:44 GMT 53.501724 -2.727277 7,000 82 247 -128
2021-12-08 09:28:42 GMT 53.501587 -2.729161 7,000 82 247 -128
2021-12-08 09:28:41 GMT 53.501450 -2.731123 7,000 82 247 -128
2021-12-08 09:28:40 GMT 53.501312 -2.733006 7,000 82 247 -128
2021-12-08 09:28:39 GMT 53.501129 -2.734889 7,000 82 247 -128
2021-12-08 09:28:37 GMT 53.500858 -2.738908 7,000 82 247 -128
2021-12-08 09:28:36 GMT 53.500671 -2.741010 7,000 82 247 -192
2021-12-08 09:28:35 GMT 53.500484 -2.743432 7,000 82 247 -192
2021-12-08 09:28:34 GMT 53.500393 -2.744966 7,000 82 247 -256
2021-12-08 09:28:33 GMT 53.500206 -2.747228 7,025 82 247 -320
2021-12-08 09:28:31 GMT 53.499882 -2.751025 7,025 82 247 -256
2021-12-08 09:28:30 GMT 53.499756 -2.752781 7,025 82 247 -384
2021-12-08 09:28:29 GMT 53.499619 -2.754665 7,025 82 247 -384
2021-12-08 09:28:28 GMT 53.499321 -2.758619 7,050 82 246 -512
2021-12-08 09:28:26 GMT 53.499184 -2.760153 7,050 82 246 -576
2021-12-08 09:28:25 GMT 53.498997 -2.762415 7,050 82 245 -640
2021-12-08 09:28:23 GMT 53.498703 -2.765965 7,075 82 245 -704
2021-12-08 09:28:22 GMT 53.498577 -2.767666 7,100 82 245 -768
2021-12-08 09:28:21 GMT 53.498428 -2.769732 7,100 82 244 -960
2021-12-08 09:28:20 GMT 53.498291 -2.771615 7,125 82 244 -1088
2021-12-08 09:28:19 GMT 53.498112 -2.773725 7,150 82 244 -1216
2021-12-08 09:28:17 GMT 53.497784 -2.777441 7,175 82 244 -1280
2021-12-08 09:28:16 GMT 53.497650 -2.779541 7,200 82 244 -1344
2021-12-08 09:28:15 GMT 53.497505 -2.781237 7,225 82 244 -1408
2021-12-08 09:28:14 GMT 53.497368 -2.783095 7,250 82 244 -1472
2021-12-08 09:28:12 GMT 53.497055 -2.786996 7,300 82 244 -1344
2021-12-08 09:28:10 GMT 53.496735 -2.790763 7,350 82 243 -1344
2021-12-08 09:28:09 GMT 53.496643 -2.791861 7,350 82 243 -1344
2021-12-08 09:28:07 GMT 53.496277 -2.796334 7,400 82 243 -1280
2021-12-08 09:28:06 GMT 53.496185 -2.797825 7,425 82 243 -1344
2021-12-08 09:28:05 GMT 53.496002 -2.799709 7,450 82 243 -1344
2021-12-08 09:28:04 GMT 53.495865 -2.801592 7,475 82 243 -1344
2021-12-08 09:28:03 GMT 53.495407 -2.807164 7,525 82 243 -1408
2021-12-08 09:28:01 GMT 53.495407 -2.807164 7,550 82 243 -1408
2021-12-08 09:28:00 GMT 53.495270 -2.809047 7,550 82 243 -1344
2021-12-08 09:27:58 GMT 53.494946 -2.812985 7,600 82 243 -1344
2021-12-08 09:27:57 GMT 53.494812 -2.814619 7,625 82 243 -1280
2021-12-08 09:27:56 GMT 53.494675 -2.816502 7,650 82 243 -1280
2021-12-08 09:27:55 GMT 53.494537 -2.818386 7,675 82 243 -1280
2021-12-08 09:27:53 GMT 53.494247 -2.821871 7,700 82 242 -1216
2021-12-08 09:27:52 GMT 53.494080 -2.823957 7,725 82 242 -1152
2021-12-08 09:27:51 GMT 53.493919 -2.825991 7,750 82 242 -1088
2021-12-08 09:27:50 GMT 53.493805 -2.827724 7,775 82 243 -960
2021-12-08 09:27:49 GMT 53.493668 -2.829529 7,775 82 243 -960
2021-12-08 09:27:47 GMT 53.493393 -2.833296 7,825 82 245 -896
2021-12-08 09:27:46 GMT 53.493210 -2.835179 7,825 82 245 -832
2021-12-08 09:27:45 GMT 53.493038 -2.837623 7,850 82 245 -832
2021-12-08 09:27:44 GMT 53.492897 -2.839562 7,875 82 246 -832
2021-12-08 09:27:42 GMT 53.492569 -2.843497 7,900 82 245 -896
2021-12-08 09:27:41 GMT 53.492432 -2.845217 7,925 82 245 -896
2021-12-08 09:27:40 GMT 53.492294 -2.846872 7,925 82 245 -832
2021-12-08 09:27:39 GMT 53.492153 -2.848933 7,950 82 245 -768
2021-12-08 09:27:38 GMT 53.492012 -2.850871 7,950 82 245 -704
2021-12-08 09:27:36 GMT 53.491699 -2.854405 7,975 82 245 -448
2021-12-08 09:27:35 GMT 53.491547 -2.856445 7,975 82 245 -320
2021-12-08 09:27:34 GMT 53.491405 -2.858384 8,000 82 245 -256
2021-12-08 09:27:33 GMT 53.491287 -2.860055 8,000 82 245 -128
2021-12-08 09:27:32 GMT 53.490990 -2.863635 8,000 82 245 -64
2021-12-08 09:27:30 GMT 53.490849 -2.865493 8,000 82 245 0
2021-12-08 09:27:29 GMT 53.490738 -2.867196 8,000 82 245 0
2021-12-08 09:27:28 GMT 53.490509 -2.869864 7,975 82 245 0
2021-12-08 09:27:27 GMT 53.490246 -2.873409 7,975 82 246 -64
2021-12-08 09:27:25 GMT 53.490059 -2.875348 7,975 82 246 -64
2021-12-08 09:27:24 GMT 53.489918 -2.877206 7,975 82 246 -64
2021-12-08 09:27:23 GMT 53.489731 -2.879281 8,000 82 246 -64
2021-12-08 09:27:22 GMT 53.489456 -2.882656 8,000 82 246 -64
2021-12-08 09:27:20 GMT 53.489311 -2.884396 8,000 82 246 -64
2021-12-08 09:27:19 GMT 53.489174 -2.886254 8,000 82 247 -64
2021-12-08 09:27:18 GMT 53.488998 -2.888384 8,000 82 247 -64
2021-12-08 09:27:16 GMT 53.488708 -2.891989 8,000 82 247 -64
2021-12-08 09:27:15 GMT 53.488476 -2.894655 8,000 82 247 -64
2021-12-08 09:27:14 GMT 53.488380 -2.896109 8,000 82 247 -64
2021-12-08 09:27:13 GMT 53.488194 -2.898048 8,000 81 246 0
2021-12-08 09:27:12 GMT 53.488056 -2.899906 8,000 81 246 -64
2021-12-08 09:27:10 GMT 53.487717 -2.903530 8,000 81 246 128
2021-12-08 09:27:09 GMT 53.487545 -2.905561 8,000 81 246 128
2021-12-08 09:27:08 GMT 53.487396 -2.907689 8,000 81 245 128
2021-12-08 09:27:07 GMT 53.487213 -2.909572 7,975 81 245 192
2021-12-08 09:27:06 GMT 53.487076 -2.911455 7,975 81 245 192
2021-12-08 09:27:05 GMT 53.486752 -2.915012 7,975 81 245 -128
2021-12-08 09:27:03 GMT 53.486618 -2.916713 7,975 81 246 -128
2021-12-08 09:27:02 GMT 53.486435 -2.918597 7,975 81 246 -192
2021-12-08 09:27:01 GMT 53.486252 -2.920480 7,975 81 246 -256
2021-12-08 09:27:00 GMT 53.486099 -2.922606 8,000 81 246 -192
2021-12-08 09:26:58 GMT 53.485729 -2.926725 8,000 81 246 256
2021-12-08 09:26:57 GMT 53.485565 -2.928798 8,000 82 246 256
2021-12-08 09:26:56 GMT 53.485451 -2.929795 8,000 82 246 256
2021-12-08 09:26:55 GMT 53.485214 -2.932380 7,975 82 247 -128
2021-12-08 09:26:54 GMT 53.484833 -2.937509 8,000 82 247 -64
2021-12-08 09:26:52 GMT 53.484833 -2.937509 7,975 82 247 -64
2021-12-08 09:26:51 GMT 53.484650 -2.939392 7,975 82 247 -64
2021-12-08 09:26:50 GMT 53.484467 -2.941746 8,000 81 247 -64
2021-12-08 09:26:49 GMT 53.484146 -2.945305 7,975 81 248 -64
2021-12-08 09:26:47 GMT 53.483959 -2.947567 8,000 81 248 -64
2021-12-08 09:26:46 GMT 53.483818 -2.949506 8,000 81 248 -64
2021-12-08 09:26:45 GMT 53.483688 -2.951242 8,000 81 248 -64
2021-12-08 09:26:44 GMT 53.483540 -2.952899 8,000 81 248 0
2021-12-08 09:26:43 GMT 53.483093 -2.958069 8,000 81 248 0
2021-12-08 09:26:41 GMT 53.483093 -2.958069 7,975 81 248 0
2021-12-08 09:26:40 GMT 53.482750 -2.962027 8,000 81 248 -128
2021-12-08 09:26:37 GMT 53.482407 -2.966073 8,000 81 248 -64
2021-12-08 09:26:36 GMT 53.482285 -2.967763 8,000 81 248 -128
2021-12-08 09:26:34 GMT 53.482052 -2.970025 8,000 81 248 -128
2021-12-08 09:26:32 GMT 53.481674 -2.974784 8,000 82 248 -192
2021-12-08 09:26:31 GMT 53.481491 -2.976746 8,000 82 249 -192
2021-12-08 09:26:30 GMT 53.481171 -2.980905 8,000 82 249 -128
2021-12-08 09:26:27 GMT 53.480804 -2.985142 8,000 82 249 -256
2021-12-08 09:26:26 GMT 53.480656 -2.987231 8,025 82 249 -256
2021-12-08 09:26:25 GMT 53.480530 -2.988988 8,025 82 250 -320
2021-12-08 09:26:23 GMT 53.480301 -2.991656 8,025 82 250 -320
2021-12-08 09:26:22 GMT 53.480095 -2.994098 8,025 82 250 -448
2021-12-08 09:26:21 GMT 53.479958 -2.996036 8,050 82 250 -576
2021-12-08 09:26:20 GMT 53.479816 -2.997975 8,050 82 251 -640
2021-12-08 09:26:19 GMT 53.479523 -3.001622 8,050 82 252 -896
2021-12-08 09:26:17 GMT 53.479385 -3.003191 8,075 82 252 -1024
2021-12-08 09:26:16 GMT 53.479210 -3.005326 8,100 82 252 -1024
2021-12-08 09:26:14 GMT 53.478931 -3.009204 8,125 82 253 -1088
2021-12-08 09:26:13 GMT 53.478745 -3.011143 8,150 82 253 -1024
2021-12-08 09:26:12 GMT 53.478607 -3.013081 8,150 82 253 -1024
2021-12-08 09:26:10 GMT 53.478374 -3.016555 8,250 82 253 -1152
2021-12-08 09:26:08 GMT 53.477921 -3.022260 8,250 82 253 -1088
2021-12-08 09:26:06 GMT 53.477722 -3.025199 8,275 82 253 -1088
2021-12-08 09:26:04 GMT 53.477417 -3.029637 8,325 83 254 -1024
2021-12-08 09:26:03 GMT 53.477234 -3.031599 8,325 83 254 -1024
2021-12-08 09:26:02 GMT 53.477116 -3.033761 8,350 83 254 -1024
2021-12-08 09:26:00 GMT 53.476696 -3.039658 8,400 83 254 -960
2021-12-08 09:25:59 GMT 53.476696 -3.039658 8,400 83 254 -960
2021-12-08 09:25:57 GMT 53.476318 -3.044939 8,450 83 254 -1088
2021-12-08 09:25:56 GMT 53.476318 -3.044939 8,450 83 254 -1088
2021-12-08 09:25:54 GMT 53.476044 -3.048471 8,475 83 254 -1088
2021-12-08 09:25:53 GMT 53.475811 -3.052180 8,525 83 254 -1152
2021-12-08 09:25:51 GMT 53.475674 -3.054118 8,525 83 254 -1152
2021-12-08 09:25:50 GMT 53.475540 -3.055847 8,550 83 254 -1088
2021-12-08 09:25:49 GMT 53.475403 -3.057809 8,575 83 254 -1088
2021-12-08 09:25:48 GMT 53.475163 -3.061550 8,600 83 254 -1152
2021-12-08 09:25:45 GMT 53.474808 -3.066833 8,675 83 254 -1152
2021-12-08 09:25:43 GMT 53.474556 -3.070598 8,700 83 254 -1152
2021-12-08 09:25:42 GMT 53.474442 -3.072719 8,725 84 254 -1152
2021-12-08 09:25:41 GMT 53.474323 -3.074475 8,725 84 254 -1152
2021-12-08 09:25:38 GMT 53.474030 -3.079389 8,775 84 255 -1152
2021-12-08 09:25:37 GMT 53.473846 -3.082136 8,800 85 254 -1152
2021-12-08 09:25:36 GMT 53.473763 -3.084250 8,825 85 254 -1216
2021-12-08 09:25:35 GMT 53.473579 -3.088208 8,875 86 255 -1216
2021-12-08 09:25:32 GMT 53.473438 -3.090955 8,875 86 255 -1216
2021-12-08 09:25:30 GMT 53.473343 -3.094770 8,925 87 255 -1280
2021-12-08 09:25:29 GMT 53.473297 -3.097741 8,975 89 256 -1152
2021-12-08 09:25:28 GMT 53.473297 -3.099871 9,000 90 256 -1152
2021-12-08 09:25:27 GMT 53.473297 -3.101911 9,050 90 257 -1152
2021-12-08 09:25:25 GMT 53.473343 -3.105050 9,050 91 257 -1152
2021-12-08 09:25:24 GMT 53.473347 -3.106869 9,075 92 257 -1088
2021-12-08 09:25:23 GMT 53.473434 -3.109837 9,075 92 257 -1024
2021-12-08 09:25:20 GMT 53.473579 -3.115593 9,125 92 257 -960
2021-12-08 09:25:19 GMT 53.473755 -3.120196 9,175 93 257 -960
2021-12-08 09:25:18 GMT 53.473755 -3.120196 9,175 93 257 -960
2021-12-08 09:25:17 GMT 53.473812 -3.122379 9,175 93 258 -960
2021-12-08 09:25:15 GMT 53.473892 -3.125375 9,225 93 258 -1024
2021-12-08 09:25:14 GMT 53.473995 -3.128357 9,225 93 258 -960
2021-12-08 09:25:12 GMT 53.474136 -3.132315 9,275 93 259 -960
2021-12-08 09:25:11 GMT 53.474213 -3.134164 9,275 93 259 -1024
2021-12-08 09:25:09 GMT 53.474304 -3.138166 9,300 93 259 -1024
2021-12-08 09:25:07 GMT 53.474442 -3.141776 9,350 93 259 -1024
2021-12-08 09:25:06 GMT 53.474487 -3.143738 9,350 93 260 -1024
2021-12-08 09:25:05 GMT 53.474625 -3.147818 9,400 93 260 -1024
2021-12-08 09:25:03 GMT 53.474716 -3.149780 9,400 93 260 -1024
2021-12-08 09:25:02 GMT 53.474762 -3.151821 9,450 93 260 -1024
2021-12-08 09:25:01 GMT 53.474854 -3.154253 9,450 93 260 -1088
2021-12-08 09:25:00 GMT 53.474899 -3.156215 9,475 93 260 -1088
2021-12-08 09:24:57 GMT 53.475113 -3.162124 9,525 93 261 -1088
2021-12-08 09:24:56 GMT 53.475174 -3.163906 9,525 93 261 -1088
2021-12-08 09:24:55 GMT 53.475220 -3.165946 9,550 93 261 -1088
2021-12-08 09:24:54 GMT 53.475300 -3.168182 9,575 93 261 -1088
2021-12-08 09:24:52 GMT 53.475441 -3.172221 9,600 93 261 -1088
2021-12-08 09:24:51 GMT 53.475494 -3.174421 9,625 93 261 -1024
2021-12-08 09:24:49 GMT 53.475628 -3.178684 9,675 92 261 -1024
2021-12-08 09:24:48 GMT 53.475815 -3.184544 9,700 92 261 -1024
2021-12-08 09:24:46 GMT 53.475815 -3.184544 9,725 92 261 -1024
2021-12-08 09:24:45 GMT 53.475861 -3.186358 9,725 93 262 -896
2021-12-08 09:24:44 GMT 53.475952 -3.189017 9,750 93 262 -896
2021-12-08 09:24:43 GMT 53.475998 -3.190979 9,750 93 262 -896
2021-12-08 09:24:42 GMT 53.476181 -3.196708 9,800 93 262 -768
2021-12-08 09:24:40 GMT 53.476181 -3.196708 9,800 93 262 -768
2021-12-08 09:24:37 GMT 53.476364 -3.201965 9,825 94 263 -704
2021-12-08 09:24:36 GMT 53.476509 -3.205019 9,850 94 264 -704
2021-12-08 09:24:34 GMT 53.476604 -3.207442 9,875 96 264 -512
2021-12-08 09:24:33 GMT 53.476822 -3.210519 9,875 96 264 -512
2021-12-08 09:24:31 GMT 53.477070 -3.214793 9,900 97 265 -448
2021-12-08 09:24:30 GMT 53.477234 -3.216640 9,900 98 265 -448
2021-12-08 09:24:29 GMT 53.477646 -3.221505 9,900 100 266 -320
2021-12-08 09:24:27 GMT 53.477921 -3.223546 9,925 101 267 -320
2021-12-08 09:24:25 GMT 53.478333 -3.226763 9,950 104 268 -320
2021-12-08 09:24:24 GMT 53.479156 -3.231550 9,950 108 267 -448
2021-12-08 09:24:22 GMT 53.479523 -3.233512 9,950 110 267 -384
2021-12-08 09:24:20 GMT 53.480469 -3.237574 9,975 114 265 -384
2021-12-08 09:24:19 GMT 53.480980 -3.239513 9,975 116 265 -320
2021-12-08 09:24:17 GMT 53.481956 -3.242825 10,000 117 265 -256
2021-12-08 09:24:16 GMT 53.482452 -3.244420 10,000 118 264 -128
2021-12-08 09:24:15 GMT 53.483047 -3.246225 10,000 121 263 -64
2021-12-08 09:24:14 GMT 53.483688 -3.248029 10,000 121 263 -64
2021-12-08 09:24:12 GMT 53.484970 -3.251482 10,000 122 262 -64
2021-12-08 09:24:11 GMT 53.485611 -3.253209 10,000 122 263 -128
2021-12-08 09:24:10 GMT 53.486195 -3.254780 10,000 123 262 -64
2021-12-08 09:24:09 GMT 53.487125 -3.257123 10,000 123 261 64
2021-12-08 09:24:08 GMT 53.487854 -3.259016 10,000 123 262 0
2021-12-08 09:24:05 GMT 53.489826 -3.263909 10,000 123 261 0
2021-12-08 09:24:04 GMT 53.490417 -3.265451 10,000 123 261 0
2021-12-08 09:24:03 GMT 53.491177 -3.267302 10,000 123 261 128
2021-12-08 09:24:02 GMT 53.491745 -3.268825 9,975 123 261 128
2021-12-08 09:24:00 GMT 53.492981 -3.271807 9,975 123 262 -128
2021-12-08 09:23:59 GMT 53.493896 -3.274240 9,975 123 263 -256
2021-12-08 09:23:58 GMT 53.494667 -3.276107 10,000 123 263 -192
2021-12-08 09:23:57 GMT 53.494995 -3.276908 10,000 123 263 -192
2021-12-08 09:23:55 GMT 53.496460 -3.280675 10,000 123 262 64
2021-12-08 09:23:54 GMT 53.497009 -3.282009 10,000 124 262 192
2021-12-08 09:23:53 GMT 53.498016 -3.284508 10,000 124 262 192
2021-12-08 09:23:52 GMT 53.498383 -3.285383 10,000 124 262 192
2021-12-08 09:23:50 GMT 53.499786 -3.288870 9,975 124 262 128
2021-12-08 09:23:48 GMT 53.501083 -3.292132 9,975 123 262 -192
2021-12-08 09:23:47 GMT 53.501907 -3.294094 9,975 124 263 -128
2021-12-08 09:23:45 GMT 53.503372 -3.297676 10,000 124 263 64
2021-12-08 09:23:44 GMT 53.503967 -3.299194 10,000 124 263 64
2021-12-08 09:23:43 GMT 53.504791 -3.301235 10,000 124 263 64
2021-12-08 09:23:42 GMT 53.505421 -3.302765 10,000 124 263 0
2021-12-08 09:23:41 GMT 53.506165 -3.304609 10,000 124 263 0
2021-12-08 09:23:39 GMT 53.507492 -3.307983 10,000 124 263 -64
2021-12-08 09:23:38 GMT 53.508121 -3.309551 10,000 124 263 -64
2021-12-08 09:23:37 GMT 53.508728 -3.311044 9,975 124 263 -64
2021-12-08 09:23:36 GMT 53.509415 -3.312692 10,000 124 263 -64
2021-12-08 09:23:35 GMT 53.511475 -3.317793 10,000 124 262 -64
2021-12-08 09:23:33 GMT 53.511475 -3.317793 10,000 124 262 0
2021-12-08 09:23:31 GMT 53.512848 -3.321167 10,000 124 263 64
2021-12-08 09:23:30 GMT 53.513535 -3.322815 10,000 124 262 0
2021-12-08 09:23:28 GMT 53.514771 -3.325797 9,975 124 262 0
2021-12-08 09:23:27 GMT 53.515522 -3.327646 9,975 124 262 -64
2021-12-08 09:23:26 GMT 53.516144 -3.329171 10,000 124 262 -64
2021-12-08 09:23:25 GMT 53.516918 -3.331039 10,000 124 262 -64
2021-12-08 09:23:24 GMT 53.518387 -3.334508 9,975 124 263 0
2021-12-08 09:23:22 GMT 53.519012 -3.336047 10,000 124 263 0
2021-12-08 09:23:21 GMT 53.519623 -3.337568 10,000 124 263 0
2021-12-08 09:23:20 GMT 53.521866 -3.342904 10,000 125 264 0
2021-12-08 09:23:18 GMT 53.521866 -3.342904 10,000 125 264 0
2021-12-08 09:23:17 GMT 53.522552 -3.344552 9,975 125 264 0
2021-12-08 09:23:15 GMT 53.523972 -3.347927 9,975 125 264 0
2021-12-08 09:23:14 GMT 53.524658 -3.349574 9,975 125 264 0
2021-12-08 09:23:13 GMT 53.525391 -3.351301 9,975 125 264 0
2021-12-08 09:23:12 GMT 53.525997 -3.352769 9,975 125 264 0
2021-12-08 09:23:11 GMT 53.527359 -3.355931 9,975 125 264 -64
2021-12-08 09:23:09 GMT 53.528046 -3.357657 9,975 125 264 -64
2021-12-08 09:23:08 GMT 53.528778 -3.359305 9,975 125 264 -64
2021-12-08 09:23:07 GMT 53.529675 -3.361493 9,975 125 264 -64
2021-12-08 09:23:06 GMT 53.530334 -3.362994 10,000 125 264 -64
2021-12-08 09:23:03 GMT 53.532513 -3.368198 10,000 125 264 0
2021-12-08 09:23:02 GMT 53.533127 -3.369742 9,975 125 264 -64
2021-12-08 09:23:01 GMT 53.533859 -3.371390 9,975 125 264 -64
2021-12-08 09:23:00 GMT 53.534546 -3.373038 10,000 125 264 -64
2021-12-08 09:22:57 GMT 53.536751 -3.378215 10,000 125 264 -64
2021-12-08 09:22:56 GMT 53.537495 -3.379912 10,000 125 264 -64
2021-12-08 09:22:55 GMT 53.538193 -3.381608 10,000 125 264 -64
2021-12-08 09:22:53 GMT 53.539536 -3.384731 10,000 125 264 -64
2021-12-08 09:22:52 GMT 53.540333 -3.386616 10,000 125 264 -64
2021-12-08 09:22:51 GMT 53.541031 -3.388232 10,000 125 264 -64
2021-12-08 09:22:50 GMT 53.541687 -3.389753 10,000 125 264 -64
2021-12-08 09:22:48 GMT 53.543106 -3.393049 10,000 125 264 -64
2021-12-08 09:22:47 GMT 53.543732 -3.394533 10,000 125 264 -64
2021-12-08 09:22:46 GMT 53.544617 -3.396553 10,000 126 264 -64
2021-12-08 09:22:45 GMT 53.545315 -3.398249 10,000 126 264 -64
2021-12-08 09:22:44 GMT 53.545921 -3.399542 10,000 126 264 -64
2021-12-08 09:22:43 GMT 53.547592 -3.403329 10,000 127 264 -64
2021-12-08 09:22:41 GMT 53.548248 -3.404792 10,000 127 264 -64
2021-12-08 09:22:39 GMT 53.549332 -3.407253 10,000 127 263 -64
2021-12-08 09:22:38 GMT 53.550110 -3.408822 10,000 128 264 -64
2021-12-08 09:22:35 GMT 53.552719 -3.414237 10,000 130 263 0
2021-12-08 09:22:34 GMT 53.553497 -3.415806 10,000 131 262 0
2021-12-08 09:22:33 GMT 53.554207 -3.417152 10,000 132 262 64
2021-12-08 09:22:32 GMT 53.555786 -3.420044 10,000 134 262 64
2021-12-08 09:22:30 GMT 53.556793 -3.421770 10,000 135 261 64
2021-12-08 09:22:29 GMT 53.557606 -3.423049 10,000 137 261 64
2021-12-08 09:22:28 GMT 53.558395 -3.424282 10,000 139 260 64
2021-12-08 09:22:27 GMT 53.560165 -3.426765 10,000 142 259 64
2021-12-08 09:22:25 GMT 53.561188 -3.428048 10,000 144 258 64
2021-12-08 09:22:24 GMT 53.562260 -3.429350 10,000 146 257 64
2021-12-08 09:22:23 GMT 53.563385 -3.430481 9,975 148 256 64
2021-12-08 09:22:21 GMT 53.565445 -3.432521 9,975 152 255 -64
2021-12-08 09:22:20 GMT 53.566357 -3.433308 10,000 154 254 -64
2021-12-08 09:22:19 GMT 53.567551 -3.434248 10,000 156 253 -64
2021-12-08 09:22:18 GMT 53.568497 -3.434924 10,000 158 252 -64
2021-12-08 09:22:17 GMT 53.570801 -3.436366 10,000 162 249 -64
2021-12-08 09:22:15 GMT 53.571804 -3.436863 10,000 164 249 -64
2021-12-08 09:22:14 GMT 53.572922 -3.437428 10,000 166 248 -64
2021-12-08 09:22:13 GMT 53.574142 -3.437857 10,000 168 246 -64
2021-12-08 09:22:12 GMT 53.575340 -3.438317 10,000 172 244 64
2021-12-08 09:22:11 GMT 53.576385 -3.438564 10,000 172 244 64
2021-12-08 09:22:09 GMT 53.578583 -3.439035 10,000 178 240 0
2021-12-08 09:22:08 GMT 53.579578 -3.439125 10,000 178 240 0
2021-12-08 09:22:06 GMT 53.581696 -3.439192 10,000 184 235 64
2021-12-08 09:22:05 GMT 53.582695 -3.439125 10,000 184 235 64
2021-12-08 09:22:03 GMT 53.585304 -3.438721 10,000 191 231 0
2021-12-08 09:22:02 GMT 53.586227 -3.438485 9,975 191 231 0
2021-12-08 09:22:01 GMT 53.587166 -3.438155 10,000 193 229 -64
2021-12-08 09:21:59 GMT 53.588928 -3.437465 10,000 197 227 -64
2021-12-08 09:21:58 GMT 53.589935 -3.436994 10,000 201 224 -64
2021-12-08 09:21:57 GMT 53.591030 -3.436378 10,000 204 223 0
2021-12-08 09:21:55 GMT 53.593781 -3.434405 10,000 206 221 64
2021-12-08 09:21:54 GMT 53.593781 -3.434405 10,000 210 219 64
2021-12-08 09:21:53 GMT 53.594753 -3.433551 10,000 210 219 64
2021-12-08 09:21:51 GMT 53.596008 -3.432339 10,000 213 216 0
2021-12-08 09:21:50 GMT 53.597260 -3.430952 10,000 215 216 -64
2021-12-08 09:21:48 GMT 53.598759 -3.429027 10,000 221 211 -64
2021-12-08 09:21:47 GMT 53.599781 -3.427492 10,000 226 208 0
2021-12-08 09:21:46 GMT 53.601837 -3.423889 10,000 228 207 64
2021-12-08 09:21:44 GMT 53.601837 -3.423889 10,000 231 205 0
2021-12-08 09:21:43 GMT 53.602341 -3.422947 10,000 233 204 64
2021-12-08 09:21:42 GMT 53.602936 -3.421692 10,000 235 203 64
2021-12-08 09:21:41 GMT 53.603504 -3.420222 10,000 238 201 64
2021-12-08 09:21:39 GMT 53.604389 -3.417879 10,000 243 198 64
2021-12-08 09:21:38 GMT 53.604809 -3.416506 10,000 247 195 0
2021-12-08 09:21:37 GMT 53.605183 -3.415132 10,000 247 195 0
2021-12-08 09:21:36 GMT 53.605553 -3.413759 10,000 250 194 0
2021-12-08 09:21:35 GMT 53.606140 -3.411019 9,975 255 192 64
2021-12-08 09:21:32 GMT 53.606644 -3.407567 9,975 260 189 0
2021-12-08 09:21:30 GMT 53.606918 -3.405291 10,000 264 188 -64
2021-12-08 09:21:29 GMT 53.607010 -3.403251 10,000 267 187 -64
2021-12-08 09:21:27 GMT 53.607090 -3.400430 9,975 271 186 -64
2021-12-08 09:21:26 GMT 53.607090 -3.399057 10,000 273 186 64
2021-12-08 09:21:24 GMT 53.606964 -3.396031 10,000 277 185 -64
2021-12-08 09:21:22 GMT 53.606766 -3.393321 10,000 280 184 -64
2021-12-08 09:21:21 GMT 53.606579 -3.391867 10,000 281 184 -64
2021-12-08 09:21:19 GMT 53.606251 -3.389040 10,000 283 184 -64
2021-12-08 09:21:17 GMT 53.605881 -3.386293 10,000 284 182 -64
2021-12-08 09:21:15 GMT 53.605598 -3.384355 10,000 284 182 -64
2021-12-08 09:21:14 GMT 53.605320 -3.382416 10,000 284 182 -64
2021-12-08 09:21:12 GMT 53.604950 -3.379473 10,000 284 182 0
2021-12-08 09:21:10 GMT 53.604630 -3.377276 10,000 284 182 0
2021-12-08 09:21:09 GMT 53.604126 -3.373980 10,000 284 181 0
2021-12-08 09:21:07 GMT 53.603943 -3.372567 10,000 284 181 0
2021-12-08 09:21:06 GMT 53.603691 -3.370783 10,000 284 181 -64
2021-12-08 09:21:04 GMT 53.603317 -3.368037 10,000 284 181 -64
2021-12-08 09:21:03 GMT 53.603119 -3.366839 10,000 284 181 -64
2021-12-08 09:21:02 GMT 53.602936 -3.365426 10,000 284 181 -64
2021-12-08 09:21:01 GMT 53.602760 -3.364159 10,000 284 181 0
2021-12-08 09:21:00 GMT 53.602570 -3.362680 10,000 284 181 0
2021-12-08 09:20:58 GMT 53.602158 -3.359933 10,000 284 181 0
2021-12-08 09:20:57 GMT 53.601925 -3.358424 10,000 284 181 0
2021-12-08 09:20:56 GMT 53.601746 -3.357186 10,000 284 181 -64
2021-12-08 09:20:55 GMT 53.601562 -3.355774 10,000 284 181 -64
2021-12-08 09:20:54 GMT 53.601379 -3.354440 10,000 284 181 0
2021-12-08 09:20:53 GMT 53.601040 -3.352042 10,000 284 181 -64
2021-12-08 09:20:51 GMT 53.600803 -3.350426 10,000 284 181 0
2021-12-08 09:20:50 GMT 53.600666 -3.349295 10,000 284 181 0
2021-12-08 09:20:49 GMT 53.600433 -3.347680 10,000 284 181 0
2021-12-08 09:20:47 GMT 53.600052 -3.345101 10,000 284 181 0
2021-12-08 09:20:46 GMT 53.599827 -3.343560 10,000 284 181 0
2021-12-08 09:20:45 GMT 53.599640 -3.342041 9,975 284 181 0
2021-12-08 09:20:44 GMT 53.599411 -3.340707 9,975 284 181 -64
2021-12-08 09:20:43 GMT 53.599220 -3.339197 10,000 284 181 0
2021-12-08 09:20:42 GMT 53.598816 -3.336312 10,000 284 181 0
2021-12-08 09:20:40 GMT 53.598709 -3.335562 10,000 284 181 0
2021-12-08 09:20:38 GMT 53.598358 -3.333017 10,000 284 181 0
2021-12-08 09:20:37 GMT 53.598129 -3.331604 10,000 284 180 0
2021-12-08 09:20:36 GMT 53.597919 -3.330069 10,000 284 180 0
2021-12-08 09:20:34 GMT 53.597546 -3.327403 10,000 284 180 0
2021-12-08 09:20:33 GMT 53.597122 -3.324463 10,000 284 180 0
2021-12-08 09:20:30 GMT 53.596802 -3.321910 10,000 284 180 -64
2021-12-08 09:20:29 GMT 53.596569 -3.320537 10,000 284 180 0
2021-12-08 09:20:27 GMT 53.596336 -3.318598 10,000 284 180 0
2021-12-08 09:20:26 GMT 53.596008 -3.316417 10,000 284 180 -64
2021-12-08 09:20:25 GMT 53.595825 -3.315044 10,000 284 180 -64
2021-12-08 09:20:24 GMT 53.595657 -3.313790 10,000 284 180 -64
2021-12-08 09:20:23 GMT 53.595360 -3.311732 10,000 284 180 -64
2021-12-08 09:20:22 GMT 53.595200 -3.310573 10,000 284 180 -64
2021-12-08 09:20:21 GMT 53.594894 -3.308177 10,000 284 180 -64
2021-12-08 09:20:18 GMT 53.594475 -3.305188 10,000 284 180 0
2021-12-08 09:20:16 GMT 53.594147 -3.302883 10,000 283 180 0
2021-12-08 09:20:15 GMT 53.593964 -3.301634 10,000 283 180 0
2021-12-08 09:20:14 GMT 53.593727 -3.299695 10,000 283 180 0
2021-12-08 09:20:13 GMT 53.593498 -3.298080 10,000 283 180 0
2021-12-08 09:20:12 GMT 53.593323 -3.296840 10,000 283 180 64
2021-12-08 09:20:11 GMT 53.593140 -3.295506 10,000 283 180 64
2021-12-08 09:20:10 GMT 53.592983 -3.294283 10,000 283 180 64
2021-12-08 09:20:09 GMT 53.592590 -3.291347 10,000 283 181 0
2021-12-08 09:20:07 GMT 53.592407 -3.290013 10,000 283 181 0
2021-12-08 09:20:06 GMT 53.592239 -3.288790 9,975 283 181 -64
2021-12-08 09:20:05 GMT 53.592087 -3.287502 10,000 283 181 -64
2021-12-08 09:20:04 GMT 53.591904 -3.286168 10,000 283 181 -64
2021-12-08 09:20:02 GMT 53.591492 -3.282872 10,000 283 181 -64
2021-12-08 09:20:01 GMT 53.591309 -3.281459 10,000 283 181 -64
2021-12-08 09:20:00 GMT 53.591167 -3.280227 10,000 282 180 0
2021-12-08 09:19:59 GMT 53.590988 -3.278713 10,000 282 180 0
2021-12-08 09:19:58 GMT 53.590797 -3.277480 10,000 282 180 0
2021-12-08 09:19:56 GMT 53.590347 -3.273769 10,000 282 180 64
2021-12-08 09:19:55 GMT 53.590347 -3.273769 10,000 282 180 64
2021-12-08 09:19:54 GMT 53.590164 -3.272435 10,000 282 180 0
2021-12-08 09:19:53 GMT 53.590004 -3.270856 10,000 282 179 0
2021-12-08 09:19:52 GMT 53.589821 -3.269483 10,000 282 179 0
2021-12-08 09:19:51 GMT 53.589661 -3.268040 10,000 282 179 64
2021-12-08 09:19:48 GMT 53.589294 -3.265294 9,975 282 179 64
2021-12-08 09:19:47 GMT 53.589157 -3.263881 9,975 282 179 0
2021-12-08 09:19:45 GMT 53.588703 -3.260193 10,000 282 180 0
2021-12-08 09:19:44 GMT 53.588516 -3.258702 9,975 282 180 -64
2021-12-08 09:19:43 GMT 53.588379 -3.257289 9,975 282 180 -64
2021-12-08 09:19:41 GMT 53.588013 -3.254543 9,975 282 180 -64
2021-12-08 09:19:39 GMT 53.587692 -3.251796 10,000 282 180 -64
2021-12-08 09:19:38 GMT 53.587353 -3.249207 9,975 282 179 -64
2021-12-08 09:19:35 GMT 53.587006 -3.246381 10,000 283 180 -64
2021-12-08 09:19:34 GMT 53.586777 -3.244734 10,000 283 180 -64
2021-12-08 09:19:33 GMT 53.586411 -3.241673 10,000 283 180 -64
2021-12-08 09:19:30 GMT 53.586044 -3.239005 10,000 284 180 -64
2021-12-08 09:19:29 GMT 53.585861 -3.237736 10,000 285 179 -64
2021-12-08 09:19:27 GMT 53.585583 -3.236120 10,000 285 179 -64
2021-12-08 09:19:26 GMT 53.585403 -3.234924 10,000 286 179 -64
2021-12-08 09:19:25 GMT 53.584976 -3.232323 10,000 287 179 -64
2021-12-08 09:19:23 GMT 53.584606 -3.230223 10,000 288 179 -64
2021-12-08 09:19:21 GMT 53.584091 -3.227557 10,000 290 178 0
2021-12-08 09:19:19 GMT 53.583534 -3.224972 10,000 293 178 64
2021-12-08 09:19:17 GMT 53.582745 -3.221902 10,000 298 177 64
2021-12-08 09:19:15 GMT 53.582199 -3.220093 10,000 300 177 64
2021-12-08 09:19:14 GMT 53.581577 -3.218267 10,000 303 177 64
2021-12-08 09:19:13 GMT 53.581161 -3.217136 10,000 305 176 64
2021-12-08 09:19:12 GMT 53.580647 -3.216005 10,000 311 176 64
2021-12-08 09:19:11 GMT 53.580181 -3.214955 10,000 313 176 64
2021-12-08 09:19:10 GMT 53.579624 -3.213905 10,000 313 176 64
2021-12-08 09:19:08 GMT 53.578491 -3.212088 10,000 321 177 64
2021-12-08 09:19:07 GMT 53.577896 -3.211147 10,000 321 177 64
2021-12-08 09:19:06 GMT 53.577202 -3.210189 9,975 327 179 0
2021-12-08 09:19:03 GMT 53.575012 -3.207851 9,975 335 182 -64
2021-12-08 09:19:02 GMT 53.574642 -3.207523 10,000 335 182 -64
2021-12-08 09:19:01 GMT 53.573898 -3.206958 9,975 340 184 0
2021-12-08 09:18:59 GMT 53.571899 -3.205575 9,975 345 187 -64
2021-12-08 09:18:58 GMT 53.571075 -3.205183 10,000 347 187 -64
2021-12-08 09:18:56 GMT 53.570068 -3.204790 9,975 347 187 -64
2021-12-08 09:18:55 GMT 53.569149 -3.204453 9,975 352 190 -64
2021-12-08 09:18:54 GMT 53.567940 -3.204130 9,975 358 194 -64
2021-12-08 09:18:52 GMT 53.566223 -3.203849 10,000 0 196 -64
2021-12-08 09:18:51 GMT 53.564987 -3.203770 10,000 1 197 -64
2021-12-08 09:18:49 GMT 53.563156 -3.203849 10,000 2 197 -64
2021-12-08 09:18:48 GMT 53.562241 -3.203927 10,000 5 199 -64
2021-12-08 09:18:46 GMT 53.560677 -3.204130 10,000 5 200 -64
2021-12-08 09:18:45 GMT 53.559792 -3.204292 10,000 6 200 -64
2021-12-08 09:18:44 GMT 53.558861 -3.204534 10,000 6 200 -64
2021-12-08 09:18:43 GMT 53.558029 -3.204712 10,000 7 200 -64
2021-12-08 09:18:41 GMT 53.556381 -3.205026 10,000 7 200 0
2021-12-08 09:18:40 GMT 53.555466 -3.205183 10,000 7 200 0
2021-12-08 09:18:39 GMT 53.552673 -3.205811 10,000 7 200 0
2021-12-08 09:18:37 GMT 53.552673 -3.205811 10,000 7 200 -64
2021-12-08 09:18:36 GMT 53.551758 -3.205967 10,000 7 200 -64
2021-12-08 09:18:35 GMT 53.549644 -3.206473 10,000 7 200 -64
2021-12-08 09:18:32 GMT 53.548462 -3.206674 10,000 7 200 -64
2021-12-08 09:18:31 GMT 53.546711 -3.207038 10,000 7 200 -64
2021-12-08 09:18:30 GMT 53.545898 -3.207223 10,000 7 200 -64
2021-12-08 09:18:28 GMT 53.544617 -3.207537 10,000 7 199 0
2021-12-08 09:18:27 GMT 53.543701 -3.207694 10,000 7 199 0
2021-12-08 09:18:26 GMT 53.542847 -3.207846 10,000 7 199 0
2021-12-08 09:18:24 GMT 53.540588 -3.208322 10,000 7 199 0
2021-12-08 09:18:23 GMT 53.538757 -3.208714 10,000 7 199 0
2021-12-08 09:18:21 GMT 53.537914 -3.208896 10,000 7 199 0
2021-12-08 09:18:20 GMT 53.537109 -3.209106 10,000 7 199 -64
2021-12-08 09:18:18 GMT 53.535168 -3.209462 10,000 7 199 0
2021-12-08 09:18:16 GMT 53.533264 -3.209891 9,975 7 199 -64
2021-12-08 09:18:15 GMT 53.532280 -3.210108 9,975 7 199 -64
2021-12-08 09:18:14 GMT 53.531536 -3.210270 10,000 7 199 -64
2021-12-08 09:18:12 GMT 53.529602 -3.210676 9,975 7 200 -64
2021-12-08 09:18:10 GMT 53.526855 -3.211304 10,000 7 200 -64
2021-12-08 09:18:09 GMT 53.526855 -3.211304 10,000 7 200 -64
2021-12-08 09:18:07 GMT 53.524925 -3.211724 10,000 7 200 0
2021-12-08 09:18:04 GMT 53.522232 -3.212245 10,000 7 201 0
2021-12-08 09:18:03 GMT 53.521317 -3.212481 10,000 7 201 -64
2021-12-08 09:18:02 GMT 53.520130 -3.212774 10,000 7 201 -64
2021-12-08 09:18:00 GMT 53.518456 -3.213097 10,000 7 201 -64
2021-12-08 09:17:59 GMT 53.517609 -3.213266 10,000 7 202 -64
2021-12-08 09:17:58 GMT 53.516693 -3.213501 10,000 7 202 -64
2021-12-08 09:17:56 GMT 53.514862 -3.213972 10,000 7 202 -64
2021-12-08 09:17:54 GMT 53.512917 -3.214390 10,000 7 202 0
2021-12-08 09:17:53 GMT 53.512070 -3.214600 10,000 7 202 0
2021-12-08 09:17:52 GMT 53.510120 -3.215036 10,000 8 203 0
2021-12-08 09:17:49 GMT 53.508259 -3.215440 10,000 8 202 -64
2021-12-08 09:17:48 GMT 53.507328 -3.215682 10,000 8 202 -64
2021-12-08 09:17:46 GMT 53.504581 -3.216328 10,000 8 202 -64
2021-12-08 09:17:45 GMT 53.504581 -3.216328 10,000 8 202 -64
2021-12-08 09:17:43 GMT 53.502640 -3.216875 10,000 8 202 -64
2021-12-08 09:17:41 GMT 53.500580 -3.217346 10,000 8 202 -64
2021-12-08 09:17:39 GMT 53.499229 -3.217702 10,000 8 202 -64
2021-12-08 09:17:37 GMT 53.497467 -3.218131 10,000 8 202 0
2021-12-08 09:17:36 GMT 53.495502 -3.218590 10,000 8 202 0
2021-12-08 09:17:33 GMT 53.494061 -3.218913 10,000 8 201 0
2021-12-08 09:17:32 GMT 53.493027 -3.219151 10,000 8 201 0
2021-12-08 09:17:31 GMT 53.491638 -3.219479 10,000 8 201 0
2021-12-08 09:17:29 GMT 53.490280 -3.219857 10,000 8 201 -64
2021-12-08 09:17:28 GMT 53.488449 -3.220250 10,000 8 201 -64
2021-12-08 09:17:26 GMT 53.486660 -3.220691 10,000 8 201 -64
2021-12-08 09:17:24 GMT 53.485214 -3.221014 10,000 8 200 0
2021-12-08 09:17:22 GMT 53.483459 -3.221427 10,000 8 200 0
2021-12-08 09:17:21 GMT 53.482468 -3.221660 10,000 8 200 0
2021-12-08 09:17:19 GMT 53.480530 -3.222133 10,000 7 201 -64
2021-12-08 09:17:18 GMT 53.479752 -3.222369 10,000 7 201 -64
2021-12-08 09:17:16 GMT 53.477489 -3.222872 10,000 7 201 -64
2021-12-08 09:17:15 GMT 53.477005 -3.222996 10,000 7 201 -64
2021-12-08 09:17:13 GMT 53.475174 -3.223467 10,000 7 201 -64
2021-12-08 09:17:12 GMT 53.474323 -3.223599 10,000 7 202 -64
2021-12-08 09:17:11 GMT 53.473392 -3.223841 10,000 7 202 -64
2021-12-08 09:17:10 GMT 53.472462 -3.224083 10,000 7 202 -64
2021-12-08 09:17:09 GMT 53.471531 -3.224245 10,000 7 202 -64
2021-12-08 09:17:07 GMT 53.469296 -3.224810 10,000 7 202 -64
2021-12-08 09:17:06 GMT 53.468365 -3.225053 10,000 7 202 0
2021-12-08 09:17:05 GMT 53.467480 -3.225214 10,000 7 202 0
2021-12-08 09:17:03 GMT 53.465698 -3.225664 10,000 7 202 0
2021-12-08 09:17:01 GMT 53.463821 -3.226057 10,000 7 202 0
2021-12-08 09:17:00 GMT 53.462723 -3.226292 10,000 7 202 -64
2021-12-08 09:16:58 GMT 53.460114 -3.226920 10,000 7 202 -64
2021-12-08 09:16:56 GMT 53.459198 -3.227155 10,000 7 202 -64
2021-12-08 09:16:55 GMT 53.458355 -3.227315 10,000 7 202 -64
2021-12-08 09:16:54 GMT 53.457321 -3.227548 10,000 7 202 -64
2021-12-08 09:16:52 GMT 53.455856 -3.227862 10,000 7 203 -64
2021-12-08 09:16:51 GMT 53.454941 -3.228097 10,000 7 203 -64
2021-12-08 09:16:50 GMT 53.453884 -3.228284 10,000 7 203 -64
2021-12-08 09:16:49 GMT 53.452953 -3.228526 10,000 7 203 -64
2021-12-08 09:16:48 GMT 53.451920 -3.228725 10,000 7 203 -64
2021-12-08 09:16:46 GMT 53.450161 -3.229173 10,000 7 203 -64
2021-12-08 09:16:45 GMT 53.449127 -3.229353 10,000 7 203 -64
2021-12-08 09:16:44 GMT 53.448212 -3.229588 10,000 7 203 0
2021-12-08 09:16:43 GMT 53.447296 -3.229824 10,000 7 203 0
2021-12-08 09:16:42 GMT 53.446438 -3.229980 10,000 7 203 0
2021-12-08 09:16:41 GMT 53.444202 -3.230465 9,975 7 202 -64
2021-12-08 09:16:39 GMT 53.443272 -3.230708 10,000 7 202 -64
2021-12-08 09:16:38 GMT 53.442341 -3.230950 10,000 7 202 -64
2021-12-08 09:16:36 GMT 53.440567 -3.231315 10,000 7 202 -64
2021-12-08 09:16:35 GMT 53.439651 -3.231471 10,000 7 202 -64
2021-12-08 09:16:34 GMT 53.438805 -3.231677 10,000 7 202 -64
2021-12-08 09:16:33 GMT 53.437874 -3.231919 10,000 7 202 -64
2021-12-08 09:16:32 GMT 53.436008 -3.232323 10,000 7 202 -64
2021-12-08 09:16:30 GMT 53.434982 -3.232570 10,000 7 202 -64
2021-12-08 09:16:29 GMT 53.434147 -3.232727 10,000 7 202 -64
2021-12-08 09:16:28 GMT 53.433216 -3.232969 10,000 7 202 0
2021-12-08 09:16:27 GMT 53.432373 -3.233119 10,000 7 202 0
2021-12-08 09:16:25 GMT 53.430542 -3.233512 10,000 7 202 -64
2021-12-08 09:16:24 GMT 53.429626 -3.233747 10,000 7 202 -64
2021-12-08 09:16:22 GMT 53.427750 -3.234140 10,000 7 202 0
2021-12-08 09:16:20 GMT 53.426003 -3.234504 10,000 7 201 -64
2021-12-08 09:16:19 GMT 53.425072 -3.234666 10,000 7 201 0
2021-12-08 09:16:17 GMT 53.423309 -3.235081 10,000 7 201 0
2021-12-08 09:16:14 GMT 53.420334 -3.235709 10,000 7 201 0
2021-12-08 09:16:12 GMT 53.418598 -3.236039 9,975 7 201 0
2021-12-08 09:16:10 GMT 53.415436 -3.236766 9,975 7 201 -64
2021-12-08 09:16:08 GMT 53.414612 -3.236886 9,975 7 201 -64
2021-12-08 09:16:06 GMT 53.412781 -3.237279 9,975 7 202 -64
2021-12-08 09:16:03 GMT 53.410172 -3.237828 9,975 7 202 -64
2021-12-08 09:16:02 GMT 53.409256 -3.238063 10,000 7 202 -64
2021-12-08 09:16:01 GMT 53.408112 -3.238299 10,000 7 202 -64
2021-12-08 09:16:00 GMT 53.407288 -3.238463 10,000 7 202 -64
2021-12-08 09:15:58 GMT 53.405426 -3.238866 10,000 7 202 -64
2021-12-08 09:15:57 GMT 53.404404 -3.239083 10,000 7 202 -64
2021-12-08 09:15:55 GMT 53.402573 -3.239554 10,000 7 202 -64
2021-12-08 09:15:53 GMT 53.400585 -3.239997 10,000 8 203 0
2021-12-08 09:15:52 GMT 53.400146 -3.240182 10,000 8 203 0
2021-12-08 09:15:51 GMT 53.399139 -3.240401 10,000 9 203 -64
2021-12-08 09:15:50 GMT 53.396160 -3.241290 10,000 10 204 -64
2021-12-08 09:15:48 GMT 53.396160 -3.241290 10,000 11 204 -128
2021-12-08 09:15:47 GMT 53.395340 -3.241516 10,000 11 204 -128
2021-12-08 09:15:46 GMT 53.394379 -3.241830 10,000 11 205 -128
2021-12-08 09:15:44 GMT 53.392548 -3.242536 10,000 13 206 -64
2021-12-08 09:15:42 GMT 53.391403 -3.242929 10,000 14 207 -64
2021-12-08 09:15:41 GMT 53.390488 -3.243321 10,000 16 208 0
2021-12-08 09:15:40 GMT 53.389088 -3.243956 10,000 16 208 0
2021-12-08 09:15:39 GMT 53.388107 -3.244498 10,000 18 210 64
2021-12-08 09:15:38 GMT 53.386780 -3.245283 10,000 20 212 64
2021-12-08 09:15:37 GMT 53.385967 -3.245814 10,000 22 213 64
2021-12-08 09:15:36 GMT 53.385223 -3.246298 10,000 24 214 0
2021-12-08 09:15:35 GMT 53.383163 -3.247951 10,000 28 218 -64
2021-12-08 09:15:33 GMT 53.382660 -3.248422 10,000 30 219 0
2021-12-08 09:15:32 GMT 53.381870 -3.249126 10,000 32 220 -64
2021-12-08 09:15:31 GMT 53.380554 -3.250541 10,000 34 222 0
2021-12-08 09:15:29 GMT 53.378220 -3.253523 10,000 43 229 0
2021-12-08 09:15:26 GMT 53.377121 -3.255092 10,000 45 231 0
2021-12-08 09:15:25 GMT 53.376003 -3.257042 9,975 47 232 0
2021-12-08 09:15:24 GMT 53.375259 -3.258335 10,000 49 234 0
2021-12-08 09:15:21 GMT 53.373505 -3.261841 10,000 55 239 0
2021-12-08 09:15:20 GMT 53.372498 -3.264274 9,975 57 241 -64
2021-12-08 09:15:19 GMT 53.371956 -3.265686 9,975 59 243 -64
2021-12-08 09:15:18 GMT 53.371395 -3.267302 9,975 60 244 -64
2021-12-08 09:15:16 GMT 53.370090 -3.271341 10,000 66 249 0
2021-12-08 09:15:15 GMT 53.369629 -3.273037 10,000 68 250 0
2021-12-08 09:15:13 GMT 53.369156 -3.275024 10,000 70 251 64
2021-12-08 09:15:12 GMT 53.368370 -3.278450 10,000 74 253 -64
2021-12-08 09:15:10 GMT 53.367764 -3.282246 9,975 81 257 -64
2021-12-08 09:15:09 GMT 53.367485 -3.284185 10,000 81 257 -64
2021-12-08 09:15:07 GMT 53.367004 -3.288679 9,975 82 258 -64
2021-12-08 09:15:05 GMT 53.366787 -3.291617 10,000 85 260 -64
2021-12-08 09:15:03 GMT 53.366600 -3.294848 10,000 85 260 -64
2021-12-08 09:15:02 GMT 53.366501 -3.297860 10,000 89 262 -64
2021-12-08 09:15:01 GMT 53.366501 -3.300293 10,000 90 262 -64
2021-12-08 09:15:00 GMT 53.366463 -3.302119 10,000 90 262 -64
2021-12-08 09:14:58 GMT 53.366508 -3.304138 10,000 91 263 -64
2021-12-08 09:14:57 GMT 53.366501 -3.307199 10,000 91 263 -64
2021-12-08 09:14:55 GMT 53.366547 -3.310024 9,975 91 262 0
2021-12-08 09:14:54 GMT 53.366638 -3.314104 10,000 91 262 64
2021-12-08 09:14:53 GMT 53.366684 -3.315674 10,000 91 262 64
2021-12-08 09:14:52 GMT 53.366695 -3.317548 9,975 91 262 64
2021-12-08 09:14:51 GMT 53.366776 -3.319754 9,975 91 262 -64
2021-12-08 09:14:49 GMT 53.366833 -3.324011 10,000 91 261 -64
2021-12-08 09:14:48 GMT 53.366879 -3.325626 10,000 91 261 -64
2021-12-08 09:14:47 GMT 53.366928 -3.328050 10,000 91 261 0
2021-12-08 09:14:46 GMT 53.366974 -3.330069 10,000 92 261 0
2021-12-08 09:14:45 GMT 53.367050 -3.333880 10,000 91 260 -64
2021-12-08 09:14:43 GMT 53.367142 -3.336705 10,000 91 260 0
2021-12-08 09:14:42 GMT 53.367161 -3.337663 10,000 91 260 0
2021-12-08 09:14:41 GMT 53.367188 -3.339922 10,000 91 260 128
2021-12-08 09:14:40 GMT 53.367233 -3.341884 9,975 92 260 128
2021-12-08 09:14:39 GMT 53.367298 -3.344125 9,975 92 260 128
2021-12-08 09:14:37 GMT 53.367393 -3.348164 9,975 92 260 -64
2021-12-08 09:14:36 GMT 53.367416 -3.350359 9,975 92 260 -64
2021-12-08 09:14:35 GMT 53.367485 -3.352526 9,975 92 261 -128
2021-12-08 09:14:34 GMT 53.367508 -3.354361 9,975 91 261 -128
2021-12-08 09:14:33 GMT 53.367580 -3.356566 9,975 91 261 -128
2021-12-08 09:14:31 GMT 53.367737 -3.364485 9,975 91 261 -64
2021-12-08 09:14:29 GMT 53.367737 -3.364485 9,975 91 262 -64
2021-12-08 09:14:28 GMT 53.367783 -3.366446 9,975 91 262 -192
2021-12-08 09:14:26 GMT 53.367828 -3.370135 10,000 91 262 -192
2021-12-08 09:14:25 GMT 53.367859 -3.372318 10,000 91 262 -64
2021-12-08 09:14:24 GMT 53.367905 -3.374338 10,000 91 262 0
2021-12-08 09:14:22 GMT 53.367920 -3.378610 10,000 90 262 64
2021-12-08 09:14:20 GMT 53.367950 -3.382497 10,000 90 262 64
2021-12-08 09:14:19 GMT 53.367966 -3.384260 10,000 90 262 64
2021-12-08 09:14:18 GMT 53.367996 -3.386536 10,000 90 262 64
2021-12-08 09:14:17 GMT 53.368011 -3.388733 9,975 90 263 128
2021-12-08 09:14:16 GMT 53.367996 -3.392594 9,975 90 263 64
2021-12-08 09:14:14 GMT 53.368011 -3.394461 9,975 90 263 -128
2021-12-08 09:14:13 GMT 53.368011 -3.396423 9,975 90 263 -192
2021-12-08 09:14:12 GMT 53.368057 -3.398464 10,000 90 263 -192
2021-12-08 09:14:11 GMT 53.368046 -3.400753 10,000 90 263 -192
2021-12-08 09:14:10 GMT 53.368092 -3.404792 10,000 90 263 64
2021-12-08 09:14:08 GMT 53.368092 -3.406812 10,000 90 263 64
2021-12-08 09:14:07 GMT 53.368092 -3.408831 10,000 90 263 0
2021-12-08 09:14:06 GMT 53.368103 -3.410706 10,000 90 263 -64
2021-12-08 09:14:05 GMT 53.368092 -3.412951 10,000 90 263 -64
2021-12-08 09:14:03 GMT 53.368149 -3.416748 10,000 90 262 -64
2021-12-08 09:14:02 GMT 53.368149 -3.418788 10,000 90 262 -64
2021-12-08 09:14:01 GMT 53.368195 -3.420829 10,000 90 262 0
2021-12-08 09:13:59 GMT 53.368195 -3.424909 10,000 90 262 64
2021-12-08 09:13:57 GMT 53.368240 -3.428911 10,000 90 262 64
2021-12-08 09:13:56 GMT 53.368286 -3.430952 10,000 90 262 64
2021-12-08 09:13:55 GMT 53.368286 -3.432992 10,000 90 262 -64
2021-12-08 09:13:53 GMT 53.368332 -3.435817 9,975 90 262 -64
2021-12-08 09:13:52 GMT 53.368370 -3.438801 9,975 90 262 -128
2021-12-08 09:13:50 GMT 53.368370 -3.442114 10,000 90 262 -128
2021-12-08 09:13:49 GMT 53.368423 -3.445077 10,000 90 262 0
2021-12-08 09:13:48 GMT 53.368423 -3.447117 10,000 90 262 0
2021-12-08 09:13:46 GMT 53.368469 -3.451198 10,000 90 262 0
2021-12-08 09:13:45 GMT 53.368462 -3.453423 10,000 90 262 -64
2021-12-08 09:13:44 GMT 53.368511 -3.455443 10,000 90 262 -64
2021-12-08 09:13:43 GMT 53.368515 -3.457241 10,000 91 262 -64
2021-12-08 09:13:42 GMT 53.368515 -3.459281 10,000 91 262 -64
2021-12-08 09:13:40 GMT 53.368557 -3.463117 10,000 91 261 -64
2021-12-08 09:13:39 GMT 53.368603 -3.465136 10,000 91 261 64
2021-12-08 09:13:38 GMT 53.368649 -3.467156 10,000 91 261 0
2021-12-08 09:13:35 GMT 53.368698 -3.472229 10,000 91 261 64
2021-12-08 09:13:34 GMT 53.368744 -3.475446 10,000 91 261 64
2021-12-08 09:13:33 GMT 53.368790 -3.477658 10,000 91 261 64
2021-12-08 09:13:30 GMT 53.368835 -3.483058 9,975 91 261 64
2021-12-08 09:13:29 GMT 53.368881 -3.485099 9,975 91 261 0
2021-12-08 09:13:27 GMT 53.368927 -3.489493 10,000 91 261 -192
2021-12-08 09:13:26 GMT 53.368973 -3.491534 10,000 91 261 -192
2021-12-08 09:13:25 GMT 53.368977 -3.493733 10,000 91 261 -64
2021-12-08 09:13:24 GMT 53.369022 -3.495753 10,000 91 261 -64
2021-12-08 09:13:23 GMT 53.369068 -3.499792 10,000 91 261 0
2021-12-08 09:13:21 GMT 53.369110 -3.501657 10,000 91 261 128
2021-12-08 09:13:20 GMT 53.369114 -3.503427 10,000 91 260 64
2021-12-08 09:13:19 GMT 53.369160 -3.505446 10,000 91 260 -64
2021-12-08 09:13:18 GMT 53.369160 -3.507466 10,000 91 260 -64
2021-12-08 09:13:17 GMT 53.369247 -3.512094 10,000 91 260 -64
2021-12-08 09:13:15 GMT 53.369247 -3.514056 10,000 91 260 -128
2021-12-08 09:13:14 GMT 53.369301 -3.516271 10,000 91 259 0
2021-12-08 09:13:13 GMT 53.369347 -3.521522 10,000 91 259 -128
2021-12-08 09:13:11 GMT 53.369347 -3.521522 9,975 91 259 -128
2021-12-08 09:13:10 GMT 53.369385 -3.524100 10,000 91 259 -192
2021-12-08 09:13:09 GMT 53.369442 -3.526288 10,000 91 259 0
2021-12-08 09:13:07 GMT 53.369476 -3.530064 10,000 91 259 64
2021-12-08 09:13:05 GMT 53.369534 -3.533478 10,000 91 259 64
2021-12-08 09:13:04 GMT 53.369534 -3.535901 10,000 91 259 -128
2021-12-08 09:13:03 GMT 53.369568 -3.537676 10,000 91 259 -128
2021-12-08 09:13:01 GMT 53.369629 -3.541475 10,000 91 259 -128
2021-12-08 09:13:00 GMT 53.369629 -3.543495 10,000 91 260 -128
2021-12-08 09:12:58 GMT 53.369705 -3.547328 10,000 91 260 -128
2021-12-08 09:12:57 GMT 53.369720 -3.549149 10,000 91 260 64
2021-12-08 09:12:56 GMT 53.369720 -3.551088 10,000 91 260 64
2021-12-08 09:12:55 GMT 53.369751 -3.552900 10,000 91 260 64
2021-12-08 09:12:54 GMT 53.369812 -3.555127 10,000 91 260 0
2021-12-08 09:12:52 GMT 53.369862 -3.559570 10,000 91 260 -64
2021-12-08 09:12:51 GMT 53.369907 -3.561590 10,000 91 260 -64
2021-12-08 09:12:50 GMT 53.369907 -3.563609 10,000 91 260 -64
2021-12-08 09:12:49 GMT 53.369934 -3.565377 10,000 91 260 64
2021-12-08 09:12:47 GMT 53.370026 -3.569380 10,000 91 260 128
2021-12-08 09:12:46 GMT 53.370045 -3.571607 10,000 91 260 0
2021-12-08 09:12:44 GMT 53.370117 -3.575814 10,000 91 260 -64
2021-12-08 09:12:43 GMT 53.370117 -3.577855 10,000 91 260 -64
2021-12-08 09:12:41 GMT 53.370209 -3.581857 10,000 91 260 -64
2021-12-08 09:12:40 GMT 53.370232 -3.583643 10,000 91 260 0
2021-12-08 09:12:39 GMT 53.370277 -3.585663 9,975 91 260 0
2021-12-08 09:12:38 GMT 53.370346 -3.589861 10,000 91 259 0
2021-12-08 09:12:35 GMT 53.370392 -3.593863 10,000 91 259 0
2021-12-08 09:12:34 GMT 53.370438 -3.595904 10,000 91 259 0
2021-12-08 09:12:32 GMT 53.370510 -3.600123 10,000 91 259 -64
2021-12-08 09:12:31 GMT 53.370529 -3.601868 10,000 91 259 0
2021-12-08 09:12:29 GMT 53.370575 -3.605085 10,000 91 259 -64
2021-12-08 09:12:28 GMT 53.370605 -3.607716 10,000 91 258 0
2021-12-08 09:12:26 GMT 53.370667 -3.611520 10,000 91 258 0
2021-12-08 09:12:25 GMT 53.370667 -3.613089 10,000 91 258 0
2021-12-08 09:12:24 GMT 53.370743 -3.616037 10,000 91 258 -64
2021-12-08 09:12:22 GMT 53.370792 -3.620076 9,975 91 258 -64
2021-12-08 09:12:21 GMT 53.370792 -3.622015 10,000 91 258 -64
2021-12-08 09:12:20 GMT 53.370838 -3.624034 10,000 91 258 0
2021-12-08 09:12:18 GMT 53.370884 -3.627993 10,000 91 258 0
2021-12-08 09:12:17 GMT 53.370884 -3.630012 9,975 91 258 -64
2021-12-08 09:12:16 GMT 53.370930 -3.632032 10,000 91 258 -64
2021-12-08 09:12:14 GMT 53.371033 -3.640163 9,975 91 258 -64
2021-12-08 09:12:12 GMT 53.371033 -3.640163 10,000 91 258 -64
2021-12-08 09:12:10 GMT 53.371071 -3.644391 10,000 91 258 -64
2021-12-08 09:12:08 GMT 53.371124 -3.648167 10,000 91 258 -64
2021-12-08 09:12:06 GMT 53.371216 -3.652169 10,000 91 258 -64
2021-12-08 09:12:05 GMT 53.371216 -3.654131 10,000 91 258 -64
2021-12-08 09:12:03 GMT 53.371349 -3.661921 10,000 91 259 0
2021-12-08 09:12:01 GMT 53.371349 -3.661921 10,000 91 259 -64
2021-12-08 09:12:00 GMT 53.371353 -3.663705 10,000 91 259 -64
2021-12-08 09:11:59 GMT 53.371399 -3.665745 10,000 91 259 -64
2021-12-08 09:11:57 GMT 53.371490 -3.669747 10,000 91 259 -64
2021-12-08 09:11:56 GMT 53.371536 -3.671709 10,000 92 259 -64
2021-12-08 09:11:54 GMT 53.371628 -3.674684 10,000 93 259 -128
2021-12-08 09:11:53 GMT 53.371719 -3.677752 10,000 93 259 0
2021-12-08 09:11:52 GMT 53.371765 -3.679714 10,000 93 259 0
2021-12-08 09:11:51 GMT 53.372002 -3.684701 10,000 96 259 64
2021-12-08 09:11:48 GMT 53.372189 -3.687933 10,000 96 259 64
2021-12-08 09:11:47 GMT 53.372326 -3.689952 10,000 97 260 64
2021-12-08 09:11:45 GMT 53.372700 -3.693910 10,000 98 260 64
2021-12-08 09:11:43 GMT 53.373165 -3.697869 10,000 103 260 -64
2021-12-08 09:11:42 GMT 53.373444 -3.699808 10,000 105 261 -64
2021-12-08 09:11:41 GMT 53.374142 -3.703685 10,000 108 261 0
2021-12-08 09:11:39 GMT 53.374516 -3.705624 10,000 110 262 0
2021-12-08 09:11:37 GMT 53.375355 -3.709017 10,000 117 262 64
2021-12-08 09:11:35 GMT 53.376526 -3.713222 10,000 117 262 64
2021-12-08 09:11:34 GMT 53.377029 -3.714833 10,000 119 262 0
2021-12-08 09:11:33 GMT 53.377632 -3.716610 10,000 125 261 64
2021-12-08 09:11:31 GMT 53.378567 -3.719034 10,000 125 261 64
2021-12-08 09:11:28 GMT 53.381104 -3.724679 10,000 130 260 0
2021-12-08 09:11:27 GMT 53.381962 -3.726304 10,000 132 260 0
2021-12-08 09:11:26 GMT 53.382801 -3.727758 9,975 134 260 0
2021-12-08 09:11:25 GMT 53.383530 -3.729074 9,975 136 259 64
2021-12-08 09:11:24 GMT 53.385132 -3.731506 9,975 140 259 -64
2021-12-08 09:11:21 GMT 53.386898 -3.733897 9,975 142 258 -64
2021-12-08 09:11:20 GMT 53.388336 -3.735665 9,975 147 256 64
2021-12-08 09:11:19 GMT 53.389225 -3.736725 9,975 147 256 64
2021-12-08 09:11:17 GMT 53.392063 -3.739552 9,975 152 254 -64
2021-12-08 09:11:16 GMT 53.392063 -3.739552 9,975 154 253 -64
2021-12-08 09:11:14 GMT 53.394058 -3.741159 10,000 156 253 -64
2021-12-08 09:11:12 GMT 53.396347 -3.742783 10,000 159 251 -64
2021-12-08 09:11:11 GMT 53.397419 -3.743430 10,000 161 250 0
2021-12-08 09:11:09 GMT 53.399506 -3.744611 10,000 163 249 -64
2021-12-08 09:11:08 GMT 53.400490 -3.745126 10,000 164 248 0
2021-12-08 09:11:07 GMT 53.401608 -3.745611 10,000 165 248 0
2021-12-08 09:11:06 GMT 53.403145 -3.746257 10,000 167 247 -64
2021-12-08 09:11:04 GMT 53.405045 -3.747044 10,000 167 247 -64
2021-12-08 09:11:03 GMT 53.406494 -3.747550 10,000 167 247 0
2021-12-08 09:11:02 GMT 53.407745 -3.747986 10,000 167 247 0
2021-12-08 09:11:00 GMT 53.409988 -3.748771 10,000 168 247 0
2021-12-08 09:10:59 GMT 53.410965 -3.749165 10,000 168 247 -64
2021-12-08 09:10:57 GMT 53.414551 -3.750377 10,000 168 247 -64
2021-12-08 09:10:55 GMT 53.415482 -3.750700 10,000 168 247 -64
2021-12-08 09:10:54 GMT 53.416599 -3.751104 10,000 168 248 0
2021-12-08 09:10:52 GMT 53.419830 -3.752302 10,000 168 248 0
2021-12-08 09:10:50 GMT 53.421066 -3.752720 10,000 168 248 0
2021-12-08 09:10:49 GMT 53.422302 -3.753165 10,000 168 248 0
2021-12-08 09:10:48 GMT 53.423302 -3.753447 10,000 168 248 0
2021-12-08 09:10:47 GMT 53.424316 -3.753871 10,000 168 248 0
2021-12-08 09:10:46 GMT 53.425583 -3.754255 10,000 168 248 0
2021-12-08 09:10:43 GMT 53.428703 -3.755385 10,000 168 248 0
2021-12-08 09:10:41 GMT 53.430935 -3.756112 10,000 168 248 0
2021-12-08 09:10:39 GMT 53.433334 -3.757010 10,000 168 248 0
2021-12-08 09:10:38 GMT 53.436802 -3.758213 10,000 168 249 0
2021-12-08 09:10:36 GMT 53.436802 -3.758213 10,000 168 249 64
2021-12-08 09:10:35 GMT 53.437820 -3.758580 10,000 168 249 64
2021-12-08 09:10:34 GMT 53.438965 -3.758972 10,000 168 249 64
2021-12-08 09:10:32 GMT 53.441208 -3.759757 10,000 168 249 0
2021-12-08 09:10:31 GMT 53.442307 -3.760149 10,000 168 249 -64
2021-12-08 09:10:30 GMT 53.443317 -3.760475 10,000 168 249 0
2021-12-08 09:10:29 GMT 53.444485 -3.760879 10,000 168 249 -64
2021-12-08 09:10:28 GMT 53.446609 -3.761640 10,000 168 249 0
2021-12-08 09:10:26 GMT 53.448212 -3.762190 10,000 168 249 0
2021-12-08 09:10:25 GMT 53.449184 -3.762575 10,000 168 249 64
2021-12-08 09:10:24 GMT 53.450348 -3.762898 10,000 168 249 0
2021-12-08 09:10:23 GMT 53.452469 -3.763681 10,000 168 249 0
2021-12-08 09:10:21 GMT 53.453842 -3.764151 10,000 168 249 64
2021-12-08 09:10:20 GMT 53.454865 -3.764514 10,000 168 249 64
2021-12-08 09:10:19 GMT 53.455982 -3.764918 10,000 168 249 64
2021-12-08 09:10:17 GMT 53.458218 -3.765726 10,000 168 249 0
2021-12-08 09:10:16 GMT 53.459332 -3.766129 9,975 168 249 0
2021-12-08 09:10:15 GMT 53.460499 -3.766453 10,000 168 249 -64
2021-12-08 09:10:14 GMT 53.461845 -3.766937 10,000 168 249 -64
2021-12-08 09:10:12 GMT 53.463661 -3.767584 10,000 167 249 -64
2021-12-08 09:10:11 GMT 53.464779 -3.767987 10,000 167 249 -64
2021-12-08 09:10:10 GMT 53.466019 -3.768467 10,000 167 249 -64
2021-12-08 09:10:09 GMT 53.467163 -3.768860 10,000 167 249 -64
2021-12-08 09:10:08 GMT 53.469715 -3.769765 10,000 167 249 64
2021-12-08 09:10:06 GMT 53.470963 -3.770194 10,000 167 249 64
2021-12-08 09:10:05 GMT 53.471649 -3.770429 10,000 167 249 64
2021-12-08 09:10:04 GMT 53.472881 -3.770896 10,000 167 249 0
2021-12-08 09:10:03 GMT 53.474121 -3.771293 10,000 167 249 0
2021-12-08 09:10:02 GMT 53.476364 -3.772077 10,000 167 249 0
2021-12-08 09:10:00 GMT 53.477394 -3.772511 10,000 167 249 -64
2021-12-08 09:09:59 GMT 53.478512 -3.772915 10,000 167 249 -64
2021-12-08 09:09:57 GMT 53.480667 -3.773647 9,975 167 249 -64
2021-12-08 09:09:56 GMT 53.484055 -3.774824 10,000 167 249 -64
2021-12-08 09:09:54 GMT 53.484055 -3.774824 10,000 167 249 -64
2021-12-08 09:09:52 GMT 53.487778 -3.776146 10,000 167 249 0
2021-12-08 09:09:50 GMT 53.488770 -3.776550 10,000 167 249 0
2021-12-08 09:09:49 GMT 53.489914 -3.776943 10,000 168 250 0
2021-12-08 09:09:48 GMT 53.491058 -3.777335 10,000 168 250 0
2021-12-08 09:09:47 GMT 53.492058 -3.777681 10,000 168 250 0
2021-12-08 09:09:45 GMT 53.494446 -3.778512 10,000 168 250 0
2021-12-08 09:09:44 GMT 53.495457 -3.778893 10,000 168 250 64
2021-12-08 09:09:42 GMT 53.497147 -3.779532 10,000 168 250 0
2021-12-08 09:09:41 GMT 53.498623 -3.780024 10,000 168 251 -64
2021-12-08 09:09:40 GMT 53.501266 -3.780945 10,000 168 251 0
2021-12-08 09:09:38 GMT 53.502365 -3.781337 10,000 168 251 0
2021-12-08 09:09:37 GMT 53.503651 -3.781801 10,000 168 251 0
2021-12-08 09:09:35 GMT 53.505466 -3.782447 10,000 168 251 -64
2021-12-08 09:09:34 GMT 53.507050 -3.783013 10,000 168 252 0
2021-12-08 09:09:33 GMT 53.508316 -3.783456 10,000 168 252 0
2021-12-08 09:09:32 GMT 53.509331 -3.783740 10,000 168 252 0
2021-12-08 09:09:31 GMT 53.510559 -3.784241 10,000 168 252 0
2021-12-08 09:09:29 GMT 53.512730 -3.784952 10,000 168 252 0
2021-12-08 09:09:28 GMT 53.513763 -3.785339 10,000 168 252 0
2021-12-08 09:09:26 GMT 53.516174 -3.786163 10,000 168 252 64
2021-12-08 09:09:24 GMT 53.518223 -3.786890 10,000 168 252 64
2021-12-08 09:09:23 GMT 53.519485 -3.787301 10,000 168 253 0
2021-12-08 09:09:22 GMT 53.520504 -3.787617 10,000 168 253 0
2021-12-08 09:09:21 GMT 53.521667 -3.788021 10,000 168 253 0
2021-12-08 09:09:20 GMT 53.524063 -3.788871 10,000 168 253 64
2021-12-08 09:09:18 GMT 53.525208 -3.789263 10,000 168 253 64
2021-12-08 09:09:17 GMT 53.526230 -3.789637 10,000 168 253 64
2021-12-08 09:09:16 GMT 53.527393 -3.790041 10,000 168 253 64
2021-12-08 09:09:15 GMT 53.528412 -3.790362 10,000 168 253 0
2021-12-08 09:09:13 GMT 53.530605 -3.791091 10,000 168 253 0
2021-12-08 09:09:11 GMT 53.533447 -3.792088 10,000 168 253 0
2021-12-08 09:09:09 GMT 53.535168 -3.792707 10,000 168 253 -64
2021-12-08 09:09:08 GMT 53.536240 -3.793030 10,000 168 253 -64
2021-12-08 09:09:07 GMT 53.537384 -3.793422 9,975 168 253 -64
2021-12-08 09:09:04 GMT 53.541126 -3.794726 10,000 168 253 0
2021-12-08 09:09:02 GMT 53.542755 -3.795292 10,000 168 253 -64
2021-12-08 09:09:01 GMT 53.543873 -3.795696 10,000 168 253 -64
2021-12-08 09:09:00 GMT 53.545502 -3.796261 10,000 168 252 -64
2021-12-08 09:08:57 GMT 53.548248 -3.797230 10,000 168 252 -64
2021-12-08 09:08:56 GMT 53.550529 -3.797957 10,000 168 252 -64
2021-12-08 09:08:55 GMT 53.551529 -3.798288 10,000 168 252 -64
2021-12-08 09:08:54 GMT 53.552578 -3.798685 10,000 168 252 -64
2021-12-08 09:08:52 GMT 53.554733 -3.799386 10,000 169 251 -128
2021-12-08 09:08:51 GMT 53.555790 -3.799735 10,000 169 251 -64
2021-12-08 09:08:50 GMT 53.556908 -3.800139 10,000 169 251 -64
2021-12-08 09:08:49 GMT 53.558491 -3.800623 10,000 169 250 -64
2021-12-08 09:08:47 GMT 53.561470 -3.801512 10,000 170 249 0
2021-12-08 09:08:45 GMT 53.563049 -3.801916 10,000 172 248 0
2021-12-08 09:08:44 GMT 53.564072 -3.802133 10,000 172 248 0
2021-12-08 09:08:43 GMT 53.565216 -3.802447 10,000 173 247 64
2021-12-08 09:08:42 GMT 53.566498 -3.802724 10,000 174 246 64
2021-12-08 09:08:41 GMT 53.567383 -3.802804 10,000 175 245 64
2021-12-08 09:08:39 GMT 53.569748 -3.803153 10,000 177 244 64
2021-12-08 09:08:38 GMT 53.570892 -3.803231 10,000 178 244 64
2021-12-08 09:08:37 GMT 53.571896 -3.803289 10,000 181 243 64
2021-12-08 09:08:35 GMT 53.573898 -3.803208 10,000 185 240 64
2021-12-08 09:08:34 GMT 53.577118 -3.802604 10,000 189 237 0
2021-12-08 09:08:32 GMT 53.577118 -3.802604 10,000 191 235 0
2021-12-08 09:08:31 GMT 53.578506 -3.802239 10,000 195 233 0
2021-12-08 09:08:30 GMT 53.579533 -3.801835 10,000 195 233 0
2021-12-08 09:08:29 GMT 53.581627 -3.800866 10,000 197 231 0
2021-12-08 09:08:27 GMT 53.582520 -3.800328 10,000 199 229 0
2021-12-08 09:08:26 GMT 53.583527 -3.799700 10,000 205 225 0
2021-12-08 09:08:25 GMT 53.584488 -3.798994 10,000 205 225 0
2021-12-08 09:08:24 GMT 53.585350 -3.798361 10,000 210 222 0
2021-12-08 09:08:21 GMT 53.588104 -3.795776 10,000 214 218 64
2021-12-08 09:08:20 GMT 53.588974 -3.794835 10,000 216 217 64
2021-12-08 09:08:19 GMT 53.589752 -3.793815 9,975 218 215 0
2021-12-08 09:08:18 GMT 53.591446 -3.791539 10,000 223 212 0
2021-12-08 09:08:16 GMT 53.592285 -3.790283 10,000 227 208 -64
2021-12-08 09:08:14 GMT 53.593311 -3.788425 10,000 230 207 0
2021-12-08 09:08:13 GMT 53.594147 -3.786830 10,000 232 205 -64
2021-12-08 09:08:12 GMT 53.594833 -3.785339 10,000 237 202 0
2021-12-08 09:08:10 GMT 53.595638 -3.783336 9,975 239 200 -64
2021-12-08 09:08:09 GMT 53.596661 -3.780428 10,000 243 197 0
2021-12-08 09:08:07 GMT 53.597122 -3.778905 10,000 246 195 0
2021-12-08 09:08:06 GMT 53.597488 -3.777492 10,000 251 193 0
2021-12-08 09:08:05 GMT 53.597809 -3.776079 10,000 251 193 0
2021-12-08 09:08:04 GMT 53.598312 -3.773568 10,000 258 188 0
2021-12-08 09:08:01 GMT 53.598618 -3.771703 10,000 258 188 0
2021-12-08 09:08:00 GMT 53.598907 -3.769252 10,000 264 186 0
2021-12-08 09:07:58 GMT 53.599129 -3.766210 10,000 266 184 0
2021-12-08 09:07:57 GMT 53.599174 -3.764837 10,000 266 184 0
2021-12-08 09:07:56 GMT 53.599220 -3.763383 9,975 270 183 0
2021-12-08 09:07:55 GMT 53.599174 -3.761929 9,975 274 182 -64
2021-12-08 09:07:54 GMT 53.599174 -3.760555 10,000 274 182 -64
2021-12-08 09:07:53 GMT 53.599037 -3.757728 10,000 276 181 -64
2021-12-08 09:07:51 GMT 53.598991 -3.756274 10,000 276 181 -64
2021-12-08 09:07:49 GMT 53.598709 -3.752073 10,000 278 181 -64
2021-12-08 09:07:47 GMT 53.598618 -3.750942 10,000 278 181 0
2021-12-08 09:07:46 GMT 53.598495 -3.749398 10,000 278 181 -64
2021-12-08 09:07:45 GMT 53.598404 -3.748300 10,000 278 181 64
2021-12-08 09:07:44 GMT 53.598244 -3.746176 10,000 278 181 64
2021-12-08 09:07:42 GMT 53.598061 -3.743995 10,000 278 181 0
2021-12-08 09:07:41 GMT 53.597965 -3.742541 10,000 278 181 0
2021-12-08 09:07:39 GMT 53.597733 -3.739471 10,000 278 181 -64
2021-12-08 09:07:38 GMT 53.597534 -3.736843 9,975 278 181 0
2021-12-08 09:07:36 GMT 53.597408 -3.735594 10,000 278 181 64
2021-12-08 09:07:35 GMT 53.597267 -3.733897 10,000 278 181 64
2021-12-08 09:07:34 GMT 53.597080 -3.731393 10,000 278 181 -64
2021-12-08 09:07:32 GMT 53.596989 -3.729939 10,000 278 181 -64
2021-12-08 09:07:31 GMT 53.596848 -3.728566 10,000 278 181 -64
2021-12-08 09:07:30 GMT 53.596756 -3.727033 10,000 278 181 -64
2021-12-08 09:07:29 GMT 53.596661 -3.725819 10,000 278 181 -64
2021-12-08 09:07:28 GMT 53.596527 -3.724208 10,000 278 181 -64
2021-12-08 09:07:26 GMT 53.596298 -3.721462 10,000 278 181 -64
2021-12-08 09:07:25 GMT 53.596207 -3.720049 10,000 278 181 0
2021-12-08 09:07:24 GMT 53.596115 -3.718637 10,000 278 181 0
2021-12-08 09:07:23 GMT 53.595978 -3.717224 10,000 278 181 64
2021-12-08 09:07:22 GMT 53.595795 -3.714478 10,000 278 180 64
2021-12-08 09:07:20 GMT 53.595657 -3.713065 10,000 278 180 64
2021-12-08 09:07:19 GMT 53.595592 -3.711844 10,000 278 180 64
2021-12-08 09:07:18 GMT 53.595474 -3.710318 10,000 278 180 64
2021-12-08 09:07:17 GMT 53.595383 -3.708906 10,000 278 180 0
2021-12-08 09:07:15 GMT 53.595108 -3.705845 10,000 278 180 -64
2021-12-08 09:07:14 GMT 53.595016 -3.704433 9,975 278 180 -64
2021-12-08 09:07:13 GMT 53.594925 -3.703020 10,000 278 180 -64
2021-12-08 09:07:12 GMT 53.594799 -3.701504 10,000 278 180 -64
2021-12-08 09:07:11 GMT 53.594707 -3.700131 10,000 278 180 -64
2021-12-08 09:07:09 GMT 53.594475 -3.697303 10,000 278 180 0
2021-12-08 09:07:08 GMT 53.594379 -3.695930 10,000 278 180 0
2021-12-08 09:07:07 GMT 53.594284 -3.694702 10,000 278 180 0
2021-12-08 09:07:06 GMT 53.594196 -3.693426 10,000 278 180 0
2021-12-08 09:07:04 GMT 53.593918 -3.690356 10,000 278 180 64
2021-12-08 09:07:03 GMT 53.593826 -3.689131 10,000 278 180 64
2021-12-08 09:07:02 GMT 53.593727 -3.687610 10,000 278 180 0
2021-12-08 09:07:01 GMT 53.593643 -3.686305 10,000 278 180 0
2021-12-08 09:07:00 GMT 53.593544 -3.685105 10,000 278 180 0
2021-12-08 09:06:59 GMT 53.593323 -3.682460 10,000 278 180 -64
2021-12-08 09:06:57 GMT 53.593231 -3.681048 10,000 278 180 -64
2021-12-08 09:06:56 GMT 53.593079 -3.679531 10,000 278 180 -64
2021-12-08 09:06:55 GMT 53.592865 -3.676575 10,000 278 180 0
2021-12-08 09:06:53 GMT 53.592728 -3.674927 10,000 278 181 64
2021-12-08 09:06:52 GMT 53.592590 -3.673514 10,000 278 181 0
2021-12-08 09:06:51 GMT 53.592499 -3.672102 10,000 278 181 0
2021-12-08 09:06:49 GMT 53.592270 -3.669355 10,000 278 180 -64
2021-12-08 09:06:48 GMT 53.592178 -3.667943 10,000 278 180 -64
2021-12-08 09:06:47 GMT 53.592052 -3.666687 10,000 278 180 0
2021-12-08 09:06:45 GMT 53.591904 -3.664333 10,000 278 180 -64
2021-12-08 09:06:43 GMT 53.591629 -3.660958 10,000 278 180 -64
2021-12-08 09:06:41 GMT 53.591400 -3.658212 10,000 278 181 -64
2021-12-08 09:06:40 GMT 53.591309 -3.656912 10,000 278 181 -64
2021-12-08 09:06:38 GMT 53.591080 -3.653974 10,000 278 181 0
2021-12-08 09:06:37 GMT 53.590984 -3.652469 10,000 278 181 0
2021-12-08 09:06:35 GMT 53.590889 -3.651096 10,000 278 181 0
2021-12-08 09:06:34 GMT 53.590702 -3.648834 10,000 278 182 0
2021-12-08 09:06:32 GMT 53.590469 -3.646007 10,000 278 182 -64
2021-12-08 09:06:30 GMT 53.590256 -3.643380 10,000 278 182 -64
2021-12-08 09:06:29 GMT 53.590191 -3.642049 10,000 278 182 -64
2021-12-08 09:06:27 GMT 53.589958 -3.639302 10,000 278 182 -64
2021-12-08 09:06:26 GMT 53.589867 -3.637848 10,000 278 182 -64
2021-12-08 09:06:24 GMT 53.589615 -3.634905 10,000 278 182 -64
2021-12-08 09:06:23 GMT 53.589386 -3.632080 10,000 278 182 -64
2021-12-08 09:06:21 GMT 53.589294 -3.630668 10,000 278 182 0
2021-12-08 09:06:20 GMT 53.589169 -3.629123 10,000 278 182 0
2021-12-08 09:06:19 GMT 53.589073 -3.627750 10,000 278 182 0
2021-12-08 09:06:18 GMT 53.588936 -3.626296 10,000 278 182 0
2021-12-08 09:06:16 GMT 53.588745 -3.623605 10,000 278 182 64
2021-12-08 09:06:15 GMT 53.588654 -3.622192 10,000 278 182 0
2021-12-08 09:06:14 GMT 53.588516 -3.620780 10,000 278 182 0
2021-12-08 09:06:13 GMT 53.588425 -3.619367 10,000 278 182 0
2021-12-08 09:06:11 GMT 53.588196 -3.616621 10,000 278 182 -64
2021-12-08 09:06:10 GMT 53.588104 -3.615208 10,000 278 182 -64
2021-12-08 09:06:09 GMT 53.588001 -3.613936 10,000 278 182 -64
2021-12-08 09:06:08 GMT 53.587864 -3.612482 10,000 278 182 0
2021-12-08 09:06:07 GMT 53.587509 -3.607832 10,000 278 182 0
2021-12-08 09:06:05 GMT 53.587509 -3.607832 10,000 278 182 0
2021-12-08 09:06:03 GMT 53.587326 -3.605634 10,000 278 182 0
2021-12-08 09:06:02 GMT 53.587189 -3.604222 10,000 278 182 0
2021-12-08 09:06:00 GMT 53.586868 -3.599984 10,000 278 181 0
2021-12-08 09:05:59 GMT 53.586868 -3.599984 10,000 278 181 0
2021-12-08 09:05:58 GMT 53.586777 -3.598572 10,000 278 181 0
2021-12-08 09:05:56 GMT 53.586514 -3.595680 10,000 278 181 64
2021-12-08 09:05:55 GMT 53.586273 -3.592686 10,000 278 181 0
2021-12-08 09:05:53 GMT 53.586189 -3.591479 10,000 278 181 -64
2021-12-08 09:05:52 GMT 53.586094 -3.590025 10,000 278 181 -64
2021-12-08 09:05:51 GMT 53.585911 -3.588086 10,000 278 180 -64
2021-12-08 09:05:50 GMT 53.585815 -3.586879 10,000 278 180 -64
2021-12-08 09:05:48 GMT 53.585629 -3.584451 10,000 278 180 -64
2021-12-08 09:05:46 GMT 53.585449 -3.582092 10,000 278 180 -64
2021-12-08 09:05:45 GMT 53.585350 -3.580897 10,000 278 180 -64
2021-12-08 09:05:44 GMT 53.585258 -3.579523 10,000 278 180 0
2021-12-08 09:05:43 GMT 53.585117 -3.577585 10,000 278 180 0
2021-12-08 09:05:42 GMT 53.584976 -3.576131 10,000 278 180 0
2021-12-08 09:05:40 GMT 53.584808 -3.573539 10,000 278 180 0
2021-12-08 09:05:39 GMT 53.584698 -3.572253 10,000 278 180 0
2021-12-08 09:05:38 GMT 53.584625 -3.570714 10,000 278 180 0
2021-12-08 09:05:37 GMT 53.584511 -3.569506 10,000 278 180 0
2021-12-08 09:05:35 GMT 53.584305 -3.566319 10,000 277 180 0
2021-12-08 09:05:34 GMT 53.584213 -3.564907 10,000 277 181 -64
2021-12-08 09:05:33 GMT 53.584091 -3.563609 10,000 277 181 -64
2021-12-08 09:05:32 GMT 53.583954 -3.561671 10,000 277 181 -64
2021-12-08 09:05:30 GMT 53.583767 -3.558924 10,000 277 181 -64
2021-12-08 09:05:28 GMT 53.583618 -3.556824 10,000 277 181 -64
2021-12-08 09:05:25 GMT 53.583393 -3.553027 10,000 277 181 0
2021-12-08 09:05:24 GMT 53.583256 -3.551088 10,000 277 181 0
2021-12-08 09:05:23 GMT 53.583115 -3.549212 10,000 277 181 0
2021-12-08 09:05:22 GMT 53.583069 -3.548019 10,000 277 181 0
2021-12-08 09:05:19 GMT 53.582794 -3.544189 10,000 277 181 -64
2021-12-08 09:05:17 GMT 53.582565 -3.540894 10,000 277 181 -64
2021-12-08 09:05:16 GMT 53.582474 -3.539716 10,000 277 181 0
2021-12-08 09:05:15 GMT 53.582291 -3.536970 10,000 277 181 0
2021-12-08 09:05:13 GMT 53.582230 -3.535659 10,000 278 180 0
2021-12-08 09:05:12 GMT 53.582047 -3.533720 10,000 278 180 0
2021-12-08 09:05:11 GMT 53.581970 -3.532183 10,000 278 180 -64
2021-12-08 09:05:10 GMT 53.581860 -3.530974 10,000 278 180 -64
2021-12-08 09:05:07 GMT 53.581558 -3.527161 10,000 279 180 -64
2021-12-08 09:05:06 GMT 53.581421 -3.525827 10,000 279 180 -64
2021-12-08 09:05:05 GMT 53.581329 -3.524414 10,000 279 180 0
2021-12-08 09:05:04 GMT 53.581207 -3.523218 10,000 280 179 0
2021-12-08 09:05:03 GMT 53.581066 -3.521845 10,000 280 179 0
2021-12-08 09:05:01 GMT 53.580788 -3.519099 10,000 281 179 -64
2021-12-08 09:05:00 GMT 53.580597 -3.517587 10,000 282 178 -64
2021-12-08 09:04:59 GMT 53.580460 -3.516174 9,975 282 178 0
2021-12-08 09:04:58 GMT 53.580322 -3.515076 10,000 283 178 0
2021-12-08 09:04:57 GMT 53.580093 -3.513192 10,000 283 178 0
2021-12-08 09:04:56 GMT 53.579670 -3.510374 10,000 286 177 -64
2021-12-08 09:04:54 GMT 53.579483 -3.509324 10,000 286 177 -64
2021-12-08 09:04:53 GMT 53.579296 -3.508032 10,000 287 176 -64
2021-12-08 09:04:52 GMT 53.579041 -3.506522 10,000 288 177 0
2021-12-08 09:04:51 GMT 53.578785 -3.505123 10,000 289 176 64
2021-12-08 09:04:50 GMT 53.578648 -3.504316 10,000 289 176 64
2021-12-08 09:04:47 GMT 53.577805 -3.500244 10,000 290 176 0
2021-12-08 09:04:46 GMT 53.577530 -3.498822 10,000 290 176 64
2021-12-08 09:04:45 GMT 53.577301 -3.497655 9,975 290 176 64
2021-12-08 09:04:44 GMT 53.576752 -3.495065 9,975 290 176 64
2021-12-08 09:04:42 GMT 53.576458 -3.493652 9,975 290 177 128
2021-12-08 09:04:41 GMT 53.576180 -3.492360 9,975 290 177 128
2021-12-08 09:04:40 GMT 53.575882 -3.490906 9,975 290 177 128
2021-12-08 09:04:39 GMT 53.575619 -3.489775 9,975 290 177 192
2021-12-08 09:04:36 GMT 53.574829 -3.485897 9,975 290 177 320
2021-12-08 09:04:35 GMT 53.574551 -3.484605 9,950 290 177 384
2021-12-08 09:04:34 GMT 53.574326 -3.483372 9,950 290 177 512
2021-12-08 09:04:33 GMT 53.573593 -3.479998 9,950 290 177 768
2021-12-08 09:04:31 GMT 53.573502 -3.479527 9,925 290 177 768
2021-12-08 09:04:29 GMT 53.572922 -3.476769 9,900 290 176 832
2021-12-08 09:04:28 GMT 53.572678 -3.475603 9,875 290 176 768
2021-12-08 09:04:27 GMT 53.572361 -3.474184 9,875 290 176 768
2021-12-08 09:04:24 GMT 53.571579 -3.470503 9,825 290 176 768
2021-12-08 09:04:23 GMT 53.571304 -3.469169 9,825 290 176 768
2021-12-08 09:04:22 GMT 53.570755 -3.466579 9,800 290 176 768
2021-12-08 09:04:19 GMT 53.570206 -3.464068 9,775 291 175 704
2021-12-08 09:04:18 GMT 53.569931 -3.462734 9,750 291 175 704
2021-12-08 09:04:17 GMT 53.569611 -3.461478 9,750 291 175 704
2021-12-08 09:04:15 GMT 53.568871 -3.458028 9,725 291 176 704
2021-12-08 09:04:14 GMT 53.568871 -3.458028 9,700 291 176 704
2021-12-08 09:04:13 GMT 53.568592 -3.456735 9,700 291 176 704
2021-12-08 09:04:11 GMT 53.568146 -3.454808 9,675 291 176 704
2021-12-08 09:04:10 GMT 53.567287 -3.451080 9,650 291 176 768
2021-12-08 09:04:07 GMT 53.566822 -3.449061 9,600 291 176 832
2021-12-08 09:04:06 GMT 53.566498 -3.447667 9,600 291 176 768
2021-12-08 09:04:05 GMT 53.565948 -3.445077 9,575 292 176 832
2021-12-08 09:04:03 GMT 53.565628 -3.443821 9,550 292 176 832
2021-12-08 09:04:02 GMT 53.565216 -3.442017 9,550 292 176 832
2021-12-08 09:04:00 GMT 53.564621 -3.439427 9,525 292 176 832
2021-12-08 09:03:59 GMT 53.564392 -3.438407 9,500 292 176 832
2021-12-08 09:03:58 GMT 53.564121 -3.437267 9,475 292 176 832
2021-12-08 09:03:57 GMT 53.563843 -3.435974 9,475 292 176 832
2021-12-08 09:03:56 GMT 53.563519 -3.434762 9,475 292 176 832
2021-12-08 09:03:54 GMT 53.562927 -3.432050 9,450 292 176 768
2021-12-08 09:03:53 GMT 53.562588 -3.430643 9,425 292 176 768
2021-12-08 09:03:52 GMT 53.562241 -3.429225 9,400 292 176 704
2021-12-08 09:03:51 GMT 53.561966 -3.427970 9,400 292 176 640
2021-12-08 09:03:49 GMT 53.561375 -3.425553 9,375 292 176 576
2021-12-08 09:03:48 GMT 53.561096 -3.424261 9,375 292 175 576
2021-12-08 09:03:47 GMT 53.560776 -3.422869 9,350 292 175 576
2021-12-08 09:03:46 GMT 53.560135 -3.420122 9,350 292 175 512
2021-12-08 09:03:44 GMT 53.559978 -3.419495 9,325 292 175 512
2021-12-08 09:03:43 GMT 53.559586 -3.417847 9,325 292 175 512
2021-12-08 09:03:42 GMT 53.559219 -3.416356 9,300 292 175 512
2021-12-08 09:03:41 GMT 53.559093 -3.415698 9,300 292 175 512
2021-12-08 09:03:39 GMT 53.558350 -3.412510 9,275 292 175 640
2021-12-08 09:03:37 GMT 53.557892 -3.410549 9,250 292 175 640
2021-12-08 09:03:36 GMT 53.557556 -3.409155 9,250 292 175 640
2021-12-08 09:03:35 GMT 53.557045 -3.406812 9,225 292 176 704
2021-12-08 09:03:33 GMT 53.556625 -3.405035 9,225 292 176 704
2021-12-08 09:03:32 GMT 53.556301 -3.403823 9,200 292 176 0
2021-12-08 09:03:31 GMT 53.555695 -3.401132 9,175 292 176 768
2021-12-08 09:03:29 GMT 53.555466 -3.400112 9,175 292 176 768
2021-12-08 09:03:28 GMT 53.555145 -3.398778 9,150 292 176 704
2021-12-08 09:03:27 GMT 53.554871 -3.397522 9,150 292 176 704
2021-12-08 09:03:26 GMT 53.554596 -3.396266 9,125 292 176 704
2021-12-08 09:03:25 GMT 53.554298 -3.395099 9,125 291 177 704
2021-12-08 09:03:23 GMT 53.553833 -3.393079 9,100 291 177 704
2021-12-08 09:03:22 GMT 53.553589 -3.391872 9,100 291 177 640
2021-12-08 09:03:21 GMT 53.553276 -3.390494 9,075 292 177 576
2021-12-08 09:03:20 GMT 53.552578 -3.387343 9,050 292 177 512
2021-12-08 09:03:18 GMT 53.552250 -3.386051 9,050 292 177 448
2021-12-08 09:03:17 GMT 53.551971 -3.384758 9,050 292 177 448
2021-12-08 09:03:15 GMT 53.551392 -3.382298 9,025 292 177 448
2021-12-08 09:03:14 GMT 53.550529 -3.378619 9,000 292 178 320
2021-12-08 09:03:12 GMT 53.550529 -3.378619 9,000 292 178 320
2021-12-08 09:03:11 GMT 53.550110 -3.376761 9,000 292 178 192
2021-12-08 09:03:10 GMT 53.549831 -3.375469 9,000 292 178 128
2021-12-08 09:03:08 GMT 53.549377 -3.373587 9,000 292 177 0
2021-12-08 09:03:07 GMT 53.549038 -3.372156 9,000 292 177 -64
2021-12-08 09:03:05 GMT 53.548435 -3.369571 9,000 292 177 -64
2021-12-08 09:03:03 GMT 53.547920 -3.367310 9,000 292 177 -64
2021-12-08 09:03:02 GMT 53.547596 -3.366017 9,000 292 177 -64
2021-12-08 09:03:01 GMT 53.547318 -3.364877 8,975 292 177 64
2021-12-08 09:03:00 GMT 53.546989 -3.363432 8,975 292 177 64
2021-12-08 09:02:59 GMT 53.546722 -3.362287 9,000 292 176 64
2021-12-08 09:02:56 GMT 53.545715 -3.357971 9,000 292 176 -64
2021-12-08 09:02:55 GMT 53.545456 -3.356808 9,000 292 176 -128
2021-12-08 09:02:54 GMT 53.545174 -3.355515 9,000 292 176 64
2021-12-08 09:02:52 GMT 53.543930 -3.350045 9,000 292 176 64
2021-12-08 09:02:50 GMT 53.543930 -3.350045 9,000 292 176 64
2021-12-08 09:02:48 GMT 53.543362 -3.347599 9,000 292 176 64
2021-12-08 09:02:47 GMT 53.543125 -3.346549 9,000 292 176 64
2021-12-08 09:02:45 GMT 53.542522 -3.344044 9,000 292 176 -64
2021-12-08 09:02:43 GMT 53.541962 -3.341570 9,000 292 176 -64
2021-12-08 09:02:40 GMT 53.541138 -3.338039 9,000 292 176 -64
2021-12-08 09:02:39 GMT 53.540817 -3.336783 9,000 292 175 0
2021-12-08 09:02:38 GMT 53.540520 -3.335320 9,000 292 175 0
2021-12-08 09:02:37 GMT 53.540176 -3.333958 9,000 292 175 -64
2021-12-08 09:02:36 GMT 53.539635 -3.331523 9,000 292 175 -64
2021-12-08 09:02:33 GMT 53.539124 -3.329328 9,000 292 175 -64
2021-12-08 09:02:32 GMT 53.538750 -3.327726 9,000 292 175 64
2021-12-08 09:02:30 GMT 53.537704 -3.322972 9,000 292 175 0
2021-12-08 09:02:27 GMT 53.537292 -3.321245 8,975 292 174 0
2021-12-08 09:02:26 GMT 53.536926 -3.319676 9,000 292 174 0
2021-12-08 09:02:25 GMT 53.536610 -3.318356 9,000 292 175 -64
2021-12-08 09:02:24 GMT 53.536331 -3.317063 9,000 292 175 -64
2021-12-08 09:02:21 GMT 53.535492 -3.313509 9,000 292 173 -64
2021-12-08 09:02:20 GMT 53.535187 -3.312143 9,000 292 174 0
2021-12-08 09:02:19 GMT 53.534866 -3.310887 9,000 292 174 0
2021-12-08 09:02:18 GMT 53.534271 -3.308376 8,975 292 174 -64
2021-12-08 09:02:16 GMT 53.534050 -3.307208 9,000 292 174 0
2021-12-08 09:02:15 GMT 53.533722 -3.305865 9,000 292 174 0
2021-12-08 09:02:13 GMT 53.533127 -3.303353 9,000 292 174 0
2021-12-08 09:02:11 GMT 53.532532 -3.300842 9,000 292 174 0
2021-12-08 09:02:10 GMT 53.532211 -3.299587 9,000 292 174 -64
2021-12-08 09:02:08 GMT 53.531296 -3.295585 9,000 292 175 0
2021-12-08 09:02:05 GMT 53.530743 -3.293152 9,000 292 175 -64
2021-12-08 09:02:04 GMT 53.530472 -3.291975 9,000 292 175 -64
2021-12-08 09:02:03 GMT 53.530243 -3.291033 9,000 292 175 -64
2021-12-08 09:02:02 GMT 53.529648 -3.288443 9,000 292 176 -64
2021-12-08 09:02:00 GMT 53.529327 -3.287188 9,000 292 176 -64
2021-12-08 09:01:59 GMT 53.529007 -3.285697 9,000 292 176 -64
2021-12-08 09:01:58 GMT 53.528687 -3.284441 9,000 292 175 0
2021-12-08 09:01:57 GMT 53.528370 -3.282973 9,000 292 175 64
2021-12-08 09:01:56 GMT 53.528091 -3.281762 9,000 292 176 64
2021-12-08 09:01:54 GMT 53.527451 -3.279027 8,975 292 176 64
2021-12-08 09:01:53 GMT 53.527206 -3.277884 9,000 292 176 64
2021-12-08 09:01:52 GMT 53.526901 -3.276515 9,000 292 176 -64
2021-12-08 09:01:51 GMT 53.526627 -3.275495 9,000 292 176 -64
2021-12-08 09:01:50 GMT 53.526352 -3.274240 9,000 292 177 -64
2021-12-08 09:01:49 GMT 53.525997 -3.272795 9,000 292 177 0
2021-12-08 09:01:47 GMT 53.525436 -3.270291 9,000 292 176 -64
2021-12-08 09:01:46 GMT 53.525112 -3.268998 9,000 292 176 0
2021-12-08 09:01:45 GMT 53.524841 -3.267805 9,000 292 177 0
2021-12-08 09:01:44 GMT 53.524506 -3.266413 9,000 292 177 0
2021-12-08 09:01:42 GMT 53.523949 -3.263909 9,000 292 176 -64
2021-12-08 09:01:41 GMT 53.523651 -3.262704 9,000 292 176 -64
2021-12-08 09:01:40 GMT 53.523388 -3.261566 9,000 292 176 -64
2021-12-08 09:01:39 GMT 53.523056 -3.260193 9,000 292 176 -64
2021-12-08 09:01:37 GMT 53.522461 -3.257603 9,000 292 176 64
2021-12-08 09:01:36 GMT 53.522083 -3.255992 9,000 292 176 0
2021-12-08 09:01:35 GMT 53.521774 -3.254543 9,000 292 176 -64
2021-12-08 09:01:32 GMT 53.521179 -3.252032 9,000 292 175 0
2021-12-08 09:01:31 GMT 53.520905 -3.250776 9,000 292 175 64
2021-12-08 09:01:30 GMT 53.520317 -3.248318 9,000 292 175 0
2021-12-08 09:01:28 GMT 53.519852 -3.246298 9,000 292 175 -64
2021-12-08 09:01:26 GMT 53.519199 -3.243552 9,000 292 175 0
2021-12-08 09:01:25 GMT 53.518936 -3.242379 9,000 292 175 0
2021-12-08 09:01:24 GMT 53.518616 -3.241124 9,000 292 174 -64
2021-12-08 09:01:23 GMT 53.518314 -3.239755 9,000 292 174 -64
2021-12-08 09:01:22 GMT 53.517746 -3.237357 9,000 292 175 0
2021-12-08 09:01:20 GMT 53.517426 -3.236101 9,000 292 175 0
2021-12-08 09:01:19 GMT 53.517151 -3.234846 9,000 292 175 0
2021-12-08 09:01:18 GMT 53.516872 -3.233696 9,000 292 174 64
2021-12-08 09:01:16 GMT 53.516190 -3.230844 9,000 292 175 0
2021-12-08 09:01:15 GMT 53.515869 -3.229588 9,000 292 175 -64
2021-12-08 09:01:13 GMT 53.515274 -3.226998 8,975 292 175 -64
2021-12-08 09:01:12 GMT 53.515011 -3.225861 9,000 292 175 0
2021-12-08 09:01:11 GMT 53.514729 -3.224649 8,975 292 176 0
2021-12-08 09:01:09 GMT 53.514175 -3.222212 9,000 292 176 0
2021-12-08 09:01:07 GMT 53.513615 -3.219802 9,000 291 176 -64
2021-12-08 09:01:05 GMT 53.513008 -3.217217 8,975 291 176 -64
2021-12-08 09:01:03 GMT 53.512436 -3.214521 9,000 291 177 -64
2021-12-08 09:01:02 GMT 53.511475 -3.210440 9,000 291 176 -64
2021-12-08 09:01:00 GMT 53.511475 -3.210440 9,000 291 176 -64
2021-12-08 09:00:59 GMT 53.511147 -3.209058 9,000 291 176 -64
2021-12-08 09:00:58 GMT 53.510834 -3.207615 9,000 291 176 0
2021-12-08 09:00:57 GMT 53.510727 -3.206958 9,000 291 176 0
2021-12-08 09:00:55 GMT 53.510029 -3.203888 9,000 292 175 128
2021-12-08 09:00:54 GMT 53.509705 -3.202676 9,000 292 175 64
2021-12-08 09:00:53 GMT 53.509422 -3.201384 9,000 292 175 64
2021-12-08 09:00:52 GMT 53.509094 -3.200003 9,000 292 174 0
2021-12-08 09:00:50 GMT 53.508636 -3.197963 9,000 292 174 0
2021-12-08 09:00:49 GMT 53.508362 -3.196708 9,000 292 174 -64
2021-12-08 09:00:48 GMT 53.507980 -3.195083 9,000 292 175 -64
2021-12-08 09:00:47 GMT 53.507652 -3.193790 9,000 292 174 0
2021-12-08 09:00:46 GMT 53.507172 -3.191685 9,000 292 173 64
2021-12-08 09:00:43 GMT 53.506577 -3.189096 8,975 292 173 0
2021-12-08 09:00:41 GMT 53.506027 -3.186584 9,000 292 173 -64
2021-12-08 09:00:40 GMT 53.505047 -3.182481 9,000 291 173 -64
2021-12-08 09:00:38 GMT 53.505047 -3.182481 9,000 291 173 -64
2021-12-08 09:00:36 GMT 53.504768 -3.181188 9,000 291 173 -64
2021-12-08 09:00:35 GMT 53.504242 -3.178816 9,000 291 173 -64
2021-12-08 09:00:34 GMT 53.503922 -3.177560 9,000 292 172 -64
2021-12-08 09:00:32 GMT 53.503464 -3.175598 9,000 292 172 -64
2021-12-08 09:00:31 GMT 53.503094 -3.173918 9,000 292 172 -64
2021-12-08 09:00:29 GMT 53.502686 -3.172067 9,000 292 171 0
2021-12-08 09:00:28 GMT 53.502254 -3.170202 9,000 292 171 0
2021-12-08 09:00:27 GMT 53.501743 -3.168263 9,000 292 171 0
2021-12-08 09:00:25 GMT 53.501450 -3.166888 9,000 292 171 0
2021-12-08 09:00:24 GMT 53.501183 -3.165759 9,000 292 171 0
2021-12-08 09:00:23 GMT 53.500809 -3.164141 9,000 292 171 0
2021-12-08 09:00:22 GMT 53.500488 -3.162885 9,000 292 171 0
2021-12-08 09:00:21 GMT 53.499939 -3.160453 9,000 292 172 -64
2021-12-08 09:00:19 GMT 53.499645 -3.159296 9,000 292 172 -64
2021-12-08 09:00:18 GMT 53.499367 -3.158085 9,000 292 172 -64
2021-12-08 09:00:16 GMT 53.498531 -3.154288 9,000 292 172 0
2021-12-08 09:00:15 GMT 53.498203 -3.153076 9,000 292 172 64
2021-12-08 09:00:12 GMT 53.497787 -3.151193 9,000 292 172 64
2021-12-08 09:00:11 GMT 53.497513 -3.149937 9,000 292 173 64
2021-12-08 09:00:10 GMT 53.497192 -3.148682 8,975 292 173 64
2021-12-08 09:00:09 GMT 53.496902 -3.147341 8,975 292 173 64
2021-12-08 09:00:07 GMT 53.496094 -3.143895 8,975 292 173 64
2021-12-08 09:00:05 GMT 53.495590 -3.141619 8,975 292 173 128
2021-12-08 09:00:04 GMT 53.495319 -3.140555 8,975 292 173 384
2021-12-08 09:00:03 GMT 53.495041 -3.139262 8,975 292 173 512
2021-12-08 09:00:02 GMT 53.494713 -3.137970 8,975 292 172 640
2021-12-08 09:00:01 GMT 53.494400 -3.136597 8,975 292 172 640
2021-12-08 08:59:59 GMT 53.493782 -3.134012 8,925 292 172 704
2021-12-08 08:59:56 GMT 53.493118 -3.131104 8,875 292 172 768
2021-12-08 08:59:54 GMT 53.492432 -3.128122 8,850 292 172 832
2021-12-08 08:59:52 GMT 53.491974 -3.126160 8,850 292 172 768
2021-12-08 08:59:51 GMT 53.491608 -3.124669 8,825 292 173 768
2021-12-08 08:59:50 GMT 53.491379 -3.123649 8,825 292 172 768
2021-12-08 08:59:49 GMT 53.491104 -3.122393 8,800 292 172 768
2021-12-08 08:59:47 GMT 53.490337 -3.119309 8,775 292 172 704
2021-12-08 08:59:46 GMT 53.490059 -3.118098 8,775 292 171 704
2021-12-08 08:59:44 GMT 53.489319 -3.114938 8,750 292 171 704
2021-12-08 08:59:42 GMT 53.488895 -3.113089 8,725 292 171 704
2021-12-08 08:59:40 GMT 53.488312 -3.110700 8,700 292 171 704
2021-12-08 08:59:39 GMT 53.488037 -3.109523 8,675 292 171 704
2021-12-08 08:59:37 GMT 53.487591 -3.107596 8,675 292 171 704
2021-12-08 08:59:36 GMT 53.487030 -3.105286 8,650 292 171 704
2021-12-08 08:59:35 GMT 53.486797 -3.104122 8,625 292 171 768
2021-12-08 08:59:34 GMT 53.486473 -3.102911 8,625 292 171 768
2021-12-08 08:59:33 GMT 53.486206 -3.101754 8,575 292 172 768
2021-12-08 08:59:31 GMT 53.485214 -3.097417 8,575 292 172 768
2021-12-08 08:59:29 GMT 53.485214 -3.097417 8,550 292 172 704
2021-12-08 08:59:28 GMT 53.484833 -3.095790 8,550 292 172 704
2021-12-08 08:59:26 GMT 53.484283 -3.093459 8,525 292 172 704
2021-12-08 08:59:25 GMT 53.484009 -3.092337 8,525 292 172 704
2021-12-08 08:59:24 GMT 53.483727 -3.091197 8,500 292 173 704
2021-12-08 08:59:23 GMT 53.483414 -3.089826 8,475 292 173 704
2021-12-08 08:59:22 GMT 53.483170 -3.088693 8,475 292 173 704
2021-12-08 08:59:20 GMT 53.482544 -3.086060 8,450 292 173 704
2021-12-08 08:59:19 GMT 53.482224 -3.084804 8,450 292 173 704
2021-12-08 08:59:18 GMT 53.481949 -3.083548 8,425 292 173 768
2021-12-08 08:59:17 GMT 53.481628 -3.082293 8,400 292 174 768
2021-12-08 08:59:16 GMT 53.481354 -3.081037 8,400 292 174 832
2021-12-08 08:59:14 GMT 53.480713 -3.078526 8,375 292 174 832
2021-12-08 08:59:13 GMT 53.480438 -3.077271 8,375 292 174 832
2021-12-08 08:59:12 GMT 53.480095 -3.075930 8,325 292 174 832
2021-12-08 08:59:10 GMT 53.479248 -3.072248 8,300 292 175 832
2021-12-08 08:59:08 GMT 53.478790 -3.070356 8,275 292 175 832
2021-12-08 08:59:07 GMT 53.478516 -3.069266 8,275 292 175 832
2021-12-08 08:59:05 GMT 53.477875 -3.066441 8,250 292 175 832
2021-12-08 08:59:03 GMT 53.477303 -3.064055 8,225 292 176 704
2021-12-08 08:59:01 GMT 53.476685 -3.061419 8,200 292 176 704
2021-12-08 08:58:59 GMT 53.476089 -3.058829 8,175 292 176 640
2021-12-08 08:58:58 GMT 53.475765 -3.057430 8,150 292 176 640
2021-12-08 08:58:56 GMT 53.475311 -3.055533 8,125 292 176 640
2021-12-08 08:58:54 GMT 53.474789 -3.053149 8,125 292 176 576
2021-12-08 08:58:53 GMT 53.474323 -3.051130 8,100 292 176 576
2021-12-08 08:58:52 GMT 53.473995 -3.049837 8,100 292 175 512
2021-12-08 08:58:51 GMT 53.473717 -3.048544 8,075 292 175 512
2021-12-08 08:58:49 GMT 53.473110 -3.046040 8,075 292 175 512
2021-12-08 08:58:47 GMT 53.472507 -3.043536 8,050 292 175 512
2021-12-08 08:58:45 GMT 53.471970 -3.041094 8,025 292 175 512
2021-12-08 08:58:43 GMT 53.471481 -3.039255 8,025 292 175 384
2021-12-08 08:58:42 GMT 53.471191 -3.037877 8,025 292 175 320
2021-12-08 08:58:41 GMT 53.470783 -3.036185 8,000 292 174 256
2021-12-08 08:58:39 GMT 53.470318 -3.034165 8,000 292 174 192
2021-12-08 08:58:37 GMT 53.469635 -3.031285 8,000 292 173 128
2021-12-08 08:58:36 GMT 53.469341 -3.029965 8,000 292 173 64
2021-12-08 08:58:35 GMT 53.469017 -3.028672 8,000 292 173 0
2021-12-08 08:58:34 GMT 53.468765 -3.027518 8,000 292 173 0
2021-12-08 08:58:33 GMT 53.468491 -3.026263 8,000 292 173 0
2021-12-08 08:58:32 GMT 53.467896 -3.023751 8,000 292 173 0
2021-12-08 08:58:30 GMT 53.467667 -3.022810 8,000 292 173 0
2021-12-08 08:58:29 GMT 53.467392 -3.021554 8,000 292 173 0
2021-12-08 08:58:28 GMT 53.467026 -3.020063 8,000 292 173 -64
2021-12-08 08:58:27 GMT 53.466736 -3.018655 8,000 292 173 -128
2021-12-08 08:58:26 GMT 53.466156 -3.016296 8,000 292 173 -128
2021-12-08 08:58:24 GMT 53.465881 -3.015041 8,000 292 173 -64
2021-12-08 08:58:23 GMT 53.465618 -3.013889 8,000 292 173 64
2021-12-08 08:58:22 GMT 53.465332 -3.012765 8,000 292 173 64
2021-12-08 08:58:20 GMT 53.464687 -3.009850 8,000 292 173 64
2021-12-08 08:58:19 GMT 53.464409 -3.008638 8,000 292 173 64
2021-12-08 08:58:18 GMT 53.464050 -3.007272 8,000 292 173 64
2021-12-08 08:58:17 GMT 53.463802 -3.006134 8,000 292 173 0
2021-12-08 08:58:16 GMT 53.463524 -3.004922 8,000 292 173 0
2021-12-08 08:58:15 GMT 53.463291 -3.003872 8,000 292 172 -64
2021-12-08 08:58:14 GMT 53.462685 -3.001368 8,000 292 172 -64
2021-12-08 08:58:12 GMT 53.462360 -3.000156 8,000 292 172 -64
2021-12-08 08:58:11 GMT 53.462036 -2.998797 8,000 292 172 -64
2021-12-08 08:58:10 GMT 53.461761 -2.997541 8,000 292 172 0
2021-12-08 08:58:08 GMT 53.461197 -2.995228 8,000 292 172 -128
2021-12-08 08:58:07 GMT 53.460915 -2.993936 8,000 292 172 -64
2021-12-08 08:58:06 GMT 53.460590 -2.992724 8,000 292 171 -64
2021-12-08 08:58:05 GMT 53.460312 -2.991513 8,000 292 171 -64
2021-12-08 08:58:04 GMT 53.460030 -2.990220 8,000 292 171 0
2021-12-08 08:58:03 GMT 53.459427 -2.987797 8,000 292 171 0
2021-12-08 08:58:01 GMT 53.459148 -2.986504 8,000 292 171 0
2021-12-08 08:58:00 GMT 53.458866 -2.985292 8,000 292 171 -64
2021-12-08 08:57:59 GMT 53.458542 -2.984081 8,000 292 171 -64
2021-12-08 08:57:57 GMT 53.457962 -2.981454 8,000 292 171 -64
2021-12-08 08:57:55 GMT 53.457287 -2.978587 8,000 292 171 64
2021-12-08 08:57:53 GMT 53.456726 -2.976275 8,000 292 171 64
2021-12-08 08:57:52 GMT 53.456177 -2.973999 8,000 292 171 128
2021-12-08 08:57:50 GMT 53.455902 -2.972822 7,975 292 171 128
2021-12-08 08:57:49 GMT 53.455490 -2.971095 7,975 292 171 64
2021-12-08 08:57:48 GMT 53.455376 -2.970428 7,975 292 171 64
2021-12-08 08:57:47 GMT 53.454956 -2.968732 7,975 292 171 64
2021-12-08 08:57:46 GMT 53.454620 -2.967329 7,975 292 172 64
2021-12-08 08:57:45 GMT 53.454353 -2.966228 7,975 292 172 128
2021-12-08 08:57:43 GMT 53.453884 -2.964208 7,975 292 173 192
2021-12-08 08:57:42 GMT 53.453476 -2.962385 7,975 292 174 384
2021-12-08 08:57:41 GMT 53.453190 -2.961219 7,975 292 173 512
2021-12-08 08:57:40 GMT 53.452908 -2.960008 7,975 292 173 512
2021-12-08 08:57:38 GMT 53.452423 -2.957833 7,950 292 173 832
2021-12-08 08:57:37 GMT 53.452103 -2.956656 7,925 292 172 896
2021-12-08 08:57:36 GMT 53.451794 -2.955241 7,925 292 172 896
2021-12-08 08:57:35 GMT 53.451416 -2.953674 7,900 292 172 768
2021-12-08 08:57:34 GMT 53.451187 -2.952654 7,875 292 172 768
2021-12-08 08:57:32 GMT 53.450722 -2.950798 7,875 292 171 576
2021-12-08 08:57:31 GMT 53.450409 -2.949437 7,850 292 171 576
2021-12-08 08:57:30 GMT 53.450089 -2.948181 7,850 292 171 576
2021-12-08 08:57:28 GMT 53.449558 -2.945871 7,825 292 171 576
2021-12-08 08:57:27 GMT 53.449280 -2.944659 7,800 292 170 448
2021-12-08 08:57:26 GMT 53.448944 -2.943237 7,800 292 169 448
2021-12-08 08:57:25 GMT 53.448624 -2.941825 7,800 292 169 448
2021-12-08 08:57:23 GMT 53.448067 -2.939489 7,775 292 169 512
2021-12-08 08:57:22 GMT 53.447788 -2.938277 7,775 292 168 512
2021-12-08 08:57:20 GMT 53.447136 -2.935531 7,750 292 168 512
2021-12-08 08:57:17 GMT 53.446297 -2.931896 7,725 292 168 448
2021-12-08 08:57:15 GMT 53.445786 -2.929714 7,700 292 167 448
2021-12-08 08:57:12 GMT 53.445042 -2.926564 7,675 292 167 512
2021-12-08 08:57:11 GMT 53.444763 -2.925352 7,675 292 167 576
2021-12-08 08:57:10 GMT 53.444458 -2.924011 7,650 292 167 640
2021-12-08 08:57:08 GMT 53.443954 -2.921892 7,650 292 167 640
2021-12-08 08:57:07 GMT 53.443691 -2.920748 7,625 292 167 640
2021-12-08 08:57:06 GMT 53.443413 -2.919617 7,625 292 167 704
2021-12-08 08:57:05 GMT 53.443134 -2.918405 7,600 292 167 768
2021-12-08 08:57:04 GMT 53.442108 -2.914043 7,575 292 167 768
2021-12-08 08:57:02 GMT 53.442108 -2.914043 7,575 292 167 768
2021-12-08 08:57:01 GMT 53.441986 -2.913417 7,575 292 167 768
2021-12-08 08:56:59 GMT 53.441364 -2.910892 7,550 292 167 704
2021-12-08 08:56:58 GMT 53.441071 -2.909572 7,525 292 167 704
2021-12-08 08:56:56 GMT 53.440430 -2.906904 7,500 292 167 704
2021-12-08 08:56:55 GMT 53.440201 -2.905803 7,500 292 168 704
2021-12-08 08:56:54 GMT 53.439880 -2.904471 7,475 292 168 704
2021-12-08 08:56:53 GMT 53.439560 -2.902980 7,450 292 168 640
2021-12-08 08:56:51 GMT 53.438992 -2.900714 7,450 292 168 640
2021-12-08 08:56:50 GMT 53.438690 -2.899370 7,425 292 168 640
2021-12-08 08:56:49 GMT 53.438431 -2.898290 7,425 292 168 640
2021-12-08 08:56:48 GMT 53.437874 -2.895867 7,400 292 169 576
2021-12-08 08:56:47 GMT 53.437592 -2.894655 7,400 292 169 640
2021-12-08 08:56:45 GMT 53.437267 -2.893443 7,375 292 169 640
2021-12-08 08:56:44 GMT 53.436951 -2.892072 7,375 292 169 704
2021-12-08 08:56:43 GMT 53.436630 -2.890660 7,350 292 169 704
2021-12-08 08:56:42 GMT 53.436310 -2.889404 7,350 292 169 704
2021-12-08 08:56:40 GMT 53.435760 -2.886972 7,325 292 169 704
2021-12-08 08:56:39 GMT 53.435532 -2.886030 7,300 292 169 704
2021-12-08 08:56:37 GMT 53.434895 -2.883426 7,300 292 170 640
2021-12-08 08:56:36 GMT 53.434612 -2.882215 7,275 292 170 704
2021-12-08 08:56:35 GMT 53.434334 -2.881003 7,275 292 170 704
2021-12-08 08:56:34 GMT 53.434067 -2.879909 7,250 292 170 704
2021-12-08 08:56:33 GMT 53.433746 -2.878653 7,250 292 170 704
2021-12-08 08:56:32 GMT 53.433472 -2.877476 7,225 292 170 640
2021-12-08 08:56:30 GMT 53.432938 -2.875106 7,200 292 170 576
2021-12-08 08:56:29 GMT 53.432648 -2.874023 7,200 292 170 576
2021-12-08 08:56:27 GMT 53.431961 -2.871120 7,175 292 170 576
2021-12-08 08:56:26 GMT 53.431400 -2.868805 7,150 292 170 512
2021-12-08 08:56:24 GMT 53.431122 -2.867512 7,150 292 170 512
2021-12-08 08:56:22 GMT 53.430656 -2.865574 7,125 292 170 512
2021-12-08 08:56:20 GMT 53.430084 -2.863273 7,125 292 169 512
2021-12-08 08:56:16 GMT 53.428848 -2.857858 7,075 292 169 512
2021-12-08 08:56:14 GMT 53.428299 -2.855661 7,050 292 169 448
2021-12-08 08:56:11 GMT 53.427155 -2.850795 7,025 292 168 384
2021-12-08 08:56:07 GMT 53.426285 -2.847185 7,000 292 168 320
2021-12-08 08:56:04 GMT 53.425629 -2.844328 7,000 292 168 192
2021-12-08 08:56:01 GMT 53.424465 -2.839239 7,000 292 167 -64
2021-12-08 08:55:58 GMT 53.423767 -2.836199 7,000 292 167 64
2021-12-08 08:55:55 GMT 53.422836 -2.832211 6,975 292 167 0
2021-12-08 08:55:52 GMT 53.422047 -2.828818 7,000 292 167 0
2021-12-08 08:55:50 GMT 53.421478 -2.826547 7,000 292 168 0
2021-12-08 08:55:48 GMT 53.420792 -2.823643 6,975 292 168 0
2021-12-08 08:55:45 GMT 53.420059 -2.820740 7,000 292 168 -64
2021-12-08 08:55:42 GMT 53.419250 -2.817266 6,975 292 169 -64
2021-12-08 08:55:40 GMT 53.418552 -2.814358 6,975 292 169 0
2021-12-08 08:55:38 GMT 53.418087 -2.812419 6,975 292 170 -64
2021-12-08 08:55:35 GMT 53.417084 -2.808105 7,000 292 170 -64
2021-12-08 08:55:32 GMT 53.416351 -2.805202 6,975 292 169 64
2021-12-08 08:55:30 GMT 53.415714 -2.802402 6,975 292 169 128
2021-12-08 08:55:28 GMT 53.415062 -2.799656 7,000 292 170 -64
2021-12-08 08:55:25 GMT 53.414223 -2.796021 6,975 292 170 -64
2021-12-08 08:55:22 GMT 53.413433 -2.792870 6,975 292 170 -64
2021-12-08 08:55:20 GMT 53.412735 -2.789881 7,000 292 170 -64
2021-12-08 08:55:18 GMT 53.412174 -2.787458 6,975 292 170 -64
2021-12-08 08:55:15 GMT 53.411243 -2.783580 6,975 292 170 64
2021-12-08 08:55:12 GMT 53.410545 -2.780591 6,975 293 170 -128
2021-12-08 08:55:10 GMT 53.409847 -2.777683 7,000 293 169 -128
2021-12-08 08:55:07 GMT 53.408871 -2.773806 7,000 293 172 -64
2021-12-08 08:55:04 GMT 53.408020 -2.770281 6,975 293 169 64
2021-12-08 08:55:01 GMT 53.407192 -2.767020 6,975 293 169 -64
2021-12-08 08:54:59 GMT 53.406635 -2.764596 7,000 293 169 -64
2021-12-08 08:54:57 GMT 53.405914 -2.761806 7,000 293 169 -64
2021-12-08 08:54:54 GMT 53.405239 -2.759022 7,000 293 169 0
2021-12-08 08:54:51 GMT 53.403671 -2.752625 6,975 293 169 0
2021-12-08 08:54:49 GMT 53.403671 -2.752625 6,975 293 169 -64
2021-12-08 08:54:45 GMT 53.402351 -2.747148 6,975 293 169 0
2021-12-08 08:54:42 GMT 53.401657 -2.744385 6,975 292 169 0
2021-12-08 08:54:40 GMT 53.401005 -2.741574 6,975 292 170 -64
2021-12-08 08:54:37 GMT 53.399933 -2.737131 6,975 293 170 -64
2021-12-08 08:54:34 GMT 53.399372 -2.734707 6,975 293 170 -64
2021-12-08 08:54:31 GMT 53.398315 -2.730416 7,000 293 171 -64
2021-12-08 08:54:29 GMT 53.397858 -2.728455 7,000 293 171 -64
2021-12-08 08:54:27 GMT 53.397095 -2.725417 7,000 293 171 0
2021-12-08 08:54:24 GMT 53.396210 -2.721863 7,000 293 172 -64
2021-12-08 08:54:21 GMT 53.395275 -2.717985 7,000 293 172 -64
2021-12-08 08:54:19 GMT 53.394764 -2.716047 7,000 293 171 -64
2021-12-08 08:54:17 GMT 53.394066 -2.713138 7,000 293 171 -64
2021-12-08 08:54:14 GMT 53.392204 -2.705787 6,975 293 171 64
2021-12-08 08:54:11 GMT 53.392204 -2.705787 7,000 293 171 64
2021-12-08 08:54:09 GMT 53.391785 -2.704091 7,000 293 171 0
2021-12-08 08:54:07 GMT 53.390945 -2.700753 7,000 293 172 0
2021-12-08 08:54:04 GMT 53.390018 -2.697224 6,975 294 172 0
2021-12-08 08:54:01 GMT 53.389069 -2.693377 7,000 294 172 -64
2021-12-08 08:53:59 GMT 53.388611 -2.691650 7,000 294 172 -64
2021-12-08 08:53:57 GMT 53.387875 -2.688823 7,000 293 171 64
2021-12-08 08:53:54 GMT 53.386963 -2.685294 6,975 294 172 -64
2021-12-08 08:53:51 GMT 53.385910 -2.681056 7,000 294 173 0
2021-12-08 08:53:49 GMT 53.385406 -2.679210 7,000 294 173 0
2021-12-08 08:53:47 GMT 53.384476 -2.675575 7,000 294 172 0
2021-12-08 08:53:44 GMT 53.383873 -2.673151 6,975 294 172 0
2021-12-08 08:53:42 GMT 53.383080 -2.670162 6,975 294 172 -64
2021-12-08 08:53:41 GMT 53.382751 -2.668815 6,975 294 172 -128
2021-12-08 08:53:39 GMT 53.382248 -2.666853 7,000 294 172 -128
2021-12-08 08:53:37 GMT 53.381516 -2.663949 7,000 293 172 -64
2021-12-08 08:53:34 GMT 53.380474 -2.659903 7,000 293 171 64
2021-12-08 08:53:31 GMT 53.379593 -2.656337 7,000 293 171 64
2021-12-08 08:53:28 GMT 53.378677 -2.652649 6,975 293 171 64
2021-12-08 08:53:24 GMT 53.377625 -2.648490 6,975 293 171 -64
2021-12-08 08:53:21 GMT 53.376572 -2.644331 6,975 293 172 -64
2021-12-08 08:53:19 GMT 53.376190 -2.642777 6,975 293 172 64
2021-12-08 08:53:17 GMT 53.375446 -2.639788 6,975 293 172 -64
2021-12-08 08:53:14 GMT 53.374512 -2.636012 6,975 294 172 -64
2021-12-08 08:53:11 GMT 53.373535 -2.632195 7,000 294 172 -64
2021-12-08 08:53:07 GMT 53.372452 -2.627930 7,000 294 173 64
2021-12-08 08:53:04 GMT 53.371304 -2.623632 7,000 294 172 -64
2021-12-08 08:53:01 GMT 53.370277 -2.619674 7,000 295 172 -64
2021-12-08 08:52:59 GMT 53.369953 -2.618462 7,000 295 172 -64
2021-12-08 08:52:57 GMT 53.368927 -2.614746 7,000 297 172 -64
2021-12-08 08:52:54 GMT 53.368011 -2.611607 7,000 297 172 -64
2021-12-08 08:52:51 GMT 53.366821 -2.607840 7,000 300 172 0
2021-12-08 08:52:49 GMT 53.366272 -2.606192 7,000 302 172 64
2021-12-08 08:52:47 GMT 53.365448 -2.603917 7,000 304 173 64
2021-12-08 08:52:44 GMT 53.364029 -2.600385 6,975 308 174 64
2021-12-08 08:52:41 GMT 53.362244 -2.596854 6,975 315 176 0
2021-12-08 08:52:39 GMT 53.361526 -2.595520 6,975 323 179 -64
2021-12-08 08:52:37 GMT 53.360092 -2.593558 6,975 328 180 -64
2021-12-08 08:52:34 GMT 53.357616 -2.590915 6,975 335 183 -64
2021-12-08 08:52:31 GMT 53.355057 -2.588928 6,975 341 186 -64
2021-12-08 08:52:29 GMT 53.353455 -2.587908 6,975 344 188 -128
2021-12-08 08:52:26 GMT 53.350937 -2.586731 7,000 347 189 -64
2021-12-08 08:52:23 GMT 53.349197 -2.586103 7,000 349 190 64
2021-12-08 08:52:20 GMT 53.346634 -2.585161 6,975 349 189 -64
2021-12-08 08:52:18 GMT 53.342331 -2.583749 6,975 349 189 -64
2021-12-08 08:52:16 GMT 53.342331 -2.583749 7,000 350 190 -64
2021-12-08 08:52:13 GMT 53.336903 -2.582029 7,000 350 190 0
2021-12-08 08:52:09 GMT 53.336903 -2.582029 6,975 350 190 0
2021-12-08 08:52:06 GMT 53.334293 -2.581302 6,975 350 190 -64
2021-12-08 08:52:03 GMT 53.331360 -2.580333 6,975 350 190 0
2021-12-08 08:52:00 GMT 53.329056 -2.579590 7,000 349 190 -64
2021-12-08 08:51:57 GMT 53.326382 -2.578717 7,000 348 190 -64
2021-12-08 08:51:54 GMT 53.323772 -2.577829 7,000 348 190 -64
2021-12-08 08:51:52 GMT 53.319351 -2.575971 7,000 347 189 -128
2021-12-08 08:51:49 GMT 53.319351 -2.575971 7,000 344 188 -64
2021-12-08 08:51:46 GMT 53.316883 -2.574678 7,000 341 185 0
2021-12-08 08:51:43 GMT 53.314789 -2.573386 7,000 336 182 0
2021-12-08 08:51:40 GMT 53.310368 -2.569104 7,000 318 172 -64
2021-12-08 08:51:37 GMT 53.310368 -2.569104 7,000 318 172 -64
2021-12-08 08:51:34 GMT 53.308502 -2.566196 7,000 312 169 -64
2021-12-08 08:51:32 GMT 53.307816 -2.564915 7,000 307 167 -64
2021-12-08 08:51:29 GMT 53.306076 -2.560442 7,000 295 164 64
2021-12-08 08:51:26 GMT 53.305161 -2.556911 7,000 287 163 -64
2021-12-08 08:51:23 GMT 53.304733 -2.554402 7,000 278 163 0
2021-12-08 08:51:20 GMT 53.304405 -2.550121 7,000 270 165 64
2021-12-08 08:51:17 GMT 53.304428 -2.546160 6,975 257 170 64
2021-12-08 08:51:14 GMT 53.304779 -2.542204 6,975 257 170 64
2021-12-08 08:51:10 GMT 53.305344 -2.538234 6,975 253 173 -64
2021-12-08 08:51:08 GMT 53.305851 -2.535580 7,000 252 173 64
2021-12-08 08:51:06 GMT 53.306595 -2.531783 6,975 252 174 64
2021-12-08 08:51:03 GMT 53.307060 -2.529440 6,975 253 175 64
2021-12-08 08:51:00 GMT 53.307907 -2.524972 6,975 253 176 64
2021-12-08 08:50:58 GMT 53.308502 -2.521928 6,975 253 175 64
2021-12-08 08:50:56 GMT 53.309097 -2.518694 6,975 253 175 128
2021-12-08 08:50:53 GMT 53.309574 -2.515950 6,975 254 175 192
2021-12-08 08:50:50 GMT 53.310505 -2.511022 6,950 254 174 192
2021-12-08 08:50:47 GMT 53.311668 -2.504640 6,950 254 174 320
2021-12-08 08:50:45 GMT 53.311668 -2.504640 6,925 254 172 704
2021-12-08 08:50:42 GMT 53.312229 -2.501571 6,925 254 172 704
2021-12-08 08:50:39 GMT 53.313580 -2.494220 6,875 253 170 896
2021-12-08 08:50:36 GMT 53.313580 -2.494220 6,825 253 170 960
2021-12-08 08:50:33 GMT 53.314316 -2.490051 6,775 253 169 1152
2021-12-08 08:50:30 GMT 53.314926 -2.486949 6,525 253 166 1728
2021-12-08 08:50:28 GMT 53.315369 -2.484323 6,675 253 167 1600
2021-12-08 08:50:25 GMT 53.316238 -2.479850 6,575 253 166 1728
2021-12-08 08:50:22 GMT 53.316788 -2.476946 6,500 253 166 1664
2021-12-08 08:50:19 GMT 53.317520 -2.473022 6,400 253 166 1664
2021-12-08 08:50:16 GMT 53.318161 -2.469570 6,300 254 164 1600
2021-12-08 08:50:13 GMT 53.318790 -2.466269 6,275 255 163 1600
2021-12-08 08:50:10 GMT 53.319443 -2.462036 6,150 259 162 1472
2021-12-08 08:50:08 GMT 53.319771 -2.459645 6,075 262 161 1536
2021-12-08 08:50:05 GMT 53.320129 -2.456072 6,025 269 161 448
2021-12-08 08:50:02 GMT 53.320374 -2.452294 5,975 266 161 960
2021-12-08 08:49:59 GMT 53.320560 -2.448578 5,925 269 161 448
2021-12-08 08:49:56 GMT 53.320633 -2.441476 5,900 270 161 512
2021-12-08 08:49:53 GMT 53.320633 -2.441476 5,900 271 161 704
2021-12-08 08:49:50 GMT 53.320587 -2.436768 5,850 271 162 1536
2021-12-08 08:49:48 GMT 53.320606 -2.434845 5,825 270 162 896
2021-12-08 08:49:46 GMT 53.320606 -2.432341 5,800 270 162 896
2021-12-08 08:49:43 GMT 53.320606 -2.428867 5,750 270 163 1216
2021-12-08 08:49:40 GMT 53.320587 -2.423741 5,650 271 162 1664
2021-12-08 08:49:37 GMT 53.320606 -2.420870 5,625 271 161 1728
2021-12-08 08:49:33 GMT 53.320541 -2.415030 5,425 271 160 1792
2021-12-08 08:49:29 GMT 53.320515 -2.410691 5,300 271 159 1792
2021-12-08 08:49:26 GMT 53.320515 -2.403582 5,225 271 159 1856
2021-12-08 08:49:23 GMT 53.320515 -2.403582 5,150 271 158 1856
2021-12-08 08:49:20 GMT 53.320469 -2.399947 5,025 271 158 1984
2021-12-08 08:49:17 GMT 53.320450 -2.396667 4,975 271 157 1920
2021-12-08 08:49:15 GMT 53.320450 -2.393450 4,875 271 157 1920
2021-12-08 08:49:12 GMT 53.320450 -2.389605 4,775 270 157 1920
2021-12-08 08:49:09 GMT 53.320469 -2.387022 4,700 270 157 1920
2021-12-08 08:49:06 GMT 53.320469 -2.383872 4,625 270 157 1984
2021-12-08 08:49:02 GMT 53.320496 -2.378697 4,425 270 156 2112
2021-12-08 08:48:59 GMT 53.320469 -2.374986 4,375 270 156 2112
2021-12-08 08:48:57 GMT 53.320496 -2.372184 4,275 270 156 2048
2021-12-08 08:48:53 GMT 53.320496 -2.366690 4,075 271 156 2048
2021-12-08 08:48:50 GMT 53.320515 -2.363434 4,025 271 156 2048
2021-12-08 08:48:48 GMT 53.320469 -2.361253 3,925 272 155 2176
2021-12-08 08:48:45 GMT 53.320404 -2.357509 3,850 273 155 2368
2021-12-08 08:48:42 GMT 53.320312 -2.353193 3,700 270 156 2432
2021-12-08 08:48:39 GMT 53.320328 -2.350670 3,600 267 156 2560
2021-12-08 08:48:37 GMT 53.320450 -2.347700 3,500 262 157 2624
2021-12-08 08:48:32 GMT 53.322327 -2.338754 3,275 247 163 2944
2021-12-08 08:48:29 GMT 53.322327 -2.338754 3,125 238 167 3008
2021-12-08 08:48:26 GMT 53.323425 -2.335929 3,000 234 172 2880
2021-12-08 08:48:22 GMT 53.325760 -2.330906 2,775 232 174 2368
2021-12-08 08:48:20 GMT 53.326843 -2.328698 2,700 231 170 768
2021-12-08 08:48:16 GMT 53.328381 -2.325547 2,500 231 163 1216
2021-12-08 08:48:12 GMT 53.330570 -2.321023 2,550 231 166 1088
2021-12-08 08:48:09 GMT 53.332123 -2.317880 2,550 231 166 1088
2021-12-08 08:48:06 GMT 53.333450 -2.315133 2,450 231 161 960
2021-12-08 08:48:03 GMT 53.335087 -2.311733 2,400 231 159 832
2021-12-08 08:48:00 GMT 53.336288 -2.309405 2,375 230 156 1152
2021-12-08 08:47:55 GMT 53.338299 -2.305513 2,275 229 153 2304
2021-12-08 08:47:51 GMT 53.340042 -2.302185 2,100 229 153 2368
2021-12-08 08:47:49 GMT 53.341183 -2.299939 2,000 229 153 2368
2021-12-08 08:47:46 GMT 53.344395 -2.293881 1,825 229 153 2816
2021-12-08 08:47:43 GMT 53.344395 -2.293881 1,575 230 155 2496
2021-12-08 08:47:40 GMT 53.345764 -2.291277 1,575 230 155 2496
2021-12-08 08:47:36 GMT 53.347561 -2.287660 1,425 231 155 2048
2021-12-08 08:47:31 GMT 53.349884 -2.282881 1,275 231 156 1280
2021-12-08 08:47:22 GMT 53.353821 -2.274876 1,200 231 89 64
2021-12-08 08:47:17 GMT 53.355659 -2.271019 1,225 232 127 -128
2021-12-08 08:47:11 GMT 53.357662 -2.266900 1,225 232 100 -64
2021-12-08 08:47:00 GMT 53.360207 -2.261634 0 233 65
2021-12-08 08:46:55 GMT 53.361038 -2.259892 0 233 41
2021-12-08 08:46:51 GMT 53.361504 -2.258922 0 233 25
2021-12-08 08:46:46 GMT 53.361748 -2.258397 0 236 11
2021-12-08 08:46:40 GMT 53.361889 -2.258094 0 233 7
2021-12-08 08:46:35 GMT 53.361992 -2.257867 0 230 7
2021-12-08 08:46:30 GMT 53.362072 -2.257651 0 213 7
2021-12-08 08:46:25 GMT 53.362175 -2.257494 0 188 8
2021-12-08 08:46:20 GMT 53.362347 -2.257435 0 160 8
2021-12-08 08:46:15 GMT 53.362541 -2.257553 0 137 10
2021-12-08 08:46:10 GMT 53.362690 -2.257791 0 123 10
2021-12-08 08:46:05 GMT 53.362820 -2.258135 0 109 11
2021-12-08 08:45:59 GMT 53.362896 -2.258652 0 87 11
2021-12-08 08:45:55 GMT 53.362877 -2.258963 0 78 11
2021-12-08 08:45:45 GMT 53.362736 -2.259649 0 81 9
2021-12-08 08:45:28 GMT 53.362713 -2.260780 0 70 11
2021-12-08 08:45:23 GMT 53.362598 -2.261222 0 53 11
2021-12-08 08:45:17 GMT 53.362392 -2.261653 0 53 12
2021-12-08 08:44:21 GMT 53.359921 -2.266323 0 53 19
2021-12-08 08:44:14 GMT 53.359596 -2.267001 0 56 19
2021-12-08 08:43:50 GMT 53.358383 -2.269788 0 61 18
2021-12-08 08:43:39 GMT 53.357979 -2.270898 0 56 17
2021-12-08 08:43:29 GMT 53.357517 -2.271855 0 53 15
2021-12-08 08:43:22 GMT 53.357220 -2.272474 0 53 14
2021-12-08 08:43:18 GMT 53.357067 -2.272776 0 53 13
2021-12-08 08:43:07 GMT 53.356693 -2.273542 0 53 11
2021-12-08 08:42:59 GMT 53.356441 -2.274049 0 53 9
2021-12-08 08:42:53 GMT 53.356293 -2.274327 0 67 8
2021-12-08 08:42:46 GMT 53.356178 -2.274680 0 92 7
2021-12-08 08:42:42 GMT 53.356155 -2.274857 0 109 7
2021-12-08 08:42:28 GMT 53.356396 -2.275483 0 143 9
2021-12-08 08:42:19 GMT 53.356682 -2.275857 0 149 12
2021-12-08 08:42:08 GMT 53.357231 -2.276348 0 163 13
2021-12-08 08:41:59 GMT 53.357677 -2.276622 0 149 12
2021-12-08 08:41:41 GMT 53.358353 -2.277740 0 132 11
2021-12-08 08:41:33 GMT 53.358559 -2.278172 0 149 9
2021-12-08 08:41:22 GMT 53.358948 -2.278506 0 188 9
2021-12-08 08:40:58 GMT 53.360149 -2.278309 0 174 12
2021-12-08 08:40:53 GMT 53.360432 -2.278391 0 160 13

Making use of Plane Finder data

You are free to use the raw flight data, aircraft information and images provided in this report for your own purposes provided the data is correctly attributed to Plane Finder. We ask that you please credit Plane Finder and link to planefinder.net in close proximity to the content.

Optionally one of the following logos (no smaller then 150x24px) can be used and must link to planefinder.net

Embedding the Plane Finder map

You are welcome to embed the Plane Finder playback map on your website to offer visitors a more interactive experience. We suggest using the following HTML code:

<iframe src="//planefinder.net/data/report/BY186-G-TUIB-7700-squawk-2021-12-08/map" width="800" height="600" seamless="seamless"></iframe>

Where our data comes from

Plane Finder has a global network of data feeds and antenna radars that receive data broadcast directly from aircraft. The primary technologies used are ADS-B and MLAT. We also show feeds from the FAA and a FLARM glider feed.

Click here to find out more about the Plane Finder network.

How we collect our data